ftp/pub/palmer/observations_modified/2020/September/AR200921_BASE.txt

Download

Sample DateTime	Unit Id	WS Avg 2min	WD Avg 2min	WGS 10min	WGD 10min	Air Temp	Rel Humidity	Dew Point	Pyranometer	Quantum	Air Pressure	Snow Level	Rainfall	PW Current	Visibility	CBase 1	CBase 2	CBase 3	Vert Vis
2020/09/21 00:00:00	BASE	5.68	109	7.05	110	-3.2	82	-5.9	0	0	988.7	NA	0.0000		9999	7190	0	0	0
2020/09/21 00:01:00	BASE	5.62	108	7.05	110	-3.2	82	-5.9	0	0	988.7	NA	0.0000		9999	7250	0	0	0
2020/09/21 00:02:00	BASE	5.54	104	7.05	110	-3.1	82	-5.8	0	0	988.7	NA	0.0000		9999	7020	0	0	0
2020/09/21 00:03:00	BASE	5.62	102	7.05	110	-3.1	81	-5.8	0	0	988.7	NA	0.0000		9999	6920	0	0	0
2020/09/21 00:04:00	BASE	6.07	101	7.05	110	-3.2	81	-5.9	0	0	988.7	NA	0.0000		9999	5910	0	0	0
2020/09/21 00:05:00	BASE	5.89	88	7.05	110	-3.2	81	-6.0	0	0	988.7	NA	0.0000		9999	0	0	0	6330
2020/09/21 00:06:00	BASE	6.29	75	8.03	77	-3.1	81	-5.9	0	0	988.7	NA	0.0000		9999	0	0	0	6630
2020/09/21 00:07:00	BASE	7.01	68	8.03	77	-2.8	82	-5.5	0	0	988.6	NA	0.0000		9999	0	0	0	7090
2020/09/21 00:08:00	BASE	7.54	60	9.67	51	-2.3	82	-5.0	0	0	988.6	NA	0.0000	UP	9999	0	0	0	7050
2020/09/21 00:09:00	BASE	8.17	59	9.67	51	-1.8	81	-4.6	0	0	988.5	NA	0.0000	UP	9999	460	0	0	0
2020/09/21 00:10:00	BASE	8.46	60	9.67	51	-1.2	80	-4.1	0	0	988.4	NA	0.0000	UP	9999	0	0	0	4460
2020/09/21 00:11:00	BASE	8.74	60	9.67	51	-0.7	79	-3.9	0	0	988.4	NA	0.0000	UP	9999	0	0	0	4330
2020/09/21 00:12:00	BASE	9.07	59	9.93	58	-0.4	77	-4.0	0	0	988.3	NA	0.0000	UP	9999	390	0	0	0
2020/09/21 00:13:00	BASE	9.32	60	10.34	62	-0.3	76	-4.1	0	0	988.3	NA	0.0000	UP	9999	0	0	0	5910
2020/09/21 00:14:00	BASE	9.79	60	11.01	57	-0.2	74	-4.3	0	0	988.3	NA	0.0000	UP	9000	0	0	0	6590
2020/09/21 00:15:00	BASE	10.19	61	11.01	57	-0.2	73	-4.5	0	0	988.2	NA	0.0000	UP	9999	390	0	0	0
2020/09/21 00:16:00	BASE	10.47	62	11.73	64	-0.1	71	-4.7	0	0	988.2	NA	0.0000	UP	9999	390	4890	0	0
2020/09/21 00:17:00	BASE	10.78	64	11.73	61	-0.0	70	-4.9	0	0	988.1	NA	0.0000	UP	9999	390	0	0	0
2020/09/21 00:18:00	BASE	10.69	63	11.73	61	0.0	69	-5.1	0	0	988.1	NA	0.0000	UP	9999	360	0	0	0
2020/09/21 00:19:00	BASE	10.56	62	11.73	61	0.1	67	-5.3	0	0	988.1	NA	0.0000	UP	9999	390	0	0	0
2020/09/21 00:20:00	BASE	10.70	61	11.73	61	0.2	66	-5.5	0	0	988.1	NA	0.0000	UP	9999	390	0	0	0
2020/09/21 00:21:00	BASE	10.42	61	11.73	61	0.2	65	-5.7	0	0	988.1	NA	0.0000	UP	9999	0	0	0	6400
2020/09/21 00:22:00	BASE	9.92	61	11.73	61	0.2	64	-5.9	0	0	988.1	NA	0.0000	UP	8000	0	0	0	6200
2020/09/21 00:23:00	BASE	9.63	62	11.73	61	0.2	63	-6.0	0	0	988.2	NA	0.0000	UP	8000	0	0	0	5680
2020/09/21 00:24:00	BASE	9.70	62	11.73	61	0.2	62	-6.1	0	0	988.1	NA	0.0000	UP	9000	0	0	0	4860
2020/09/21 00:25:00	BASE	9.88	62	11.73	61	0.2	62	-6.2	0	0	988.1	NA	0.0000	UP	8000	330	0	0	0
2020/09/21 00:26:00	BASE	9.82	60	11.73	61	0.2	62	-6.3	0	0	988.1	NA	0.0000	UP	9000	0	0	0	4990
2020/09/21 00:27:00	BASE	9.98	58	11.57	58	0.3	61	-6.3	0	0	988.0	NA	0.0000	UP	9999	0	0	0	5640
2020/09/21 00:28:00	BASE	9.88	58	11.57	58	0.3	61	-6.3	0	0	988.0	NA	0.0000	UP	7000	0	0	0	5610
2020/09/21 00:29:00	BASE	9.28	58	11.57	58	0.4	61	-6.3	0	0	988.0	NA	0.0000	UP	7000	0	0	0	5580
2020/09/21 00:30:00	BASE	8.97	59	11.42	59	0.4	61	-6.3	0	0	987.9	NA	0.0000	UP	6000	0	0	0	6270
2020/09/21 00:31:00	BASE	9.29	59	11.42	59	0.4	61	-6.3	0	0	987.9	NA	0.0000	-SN	7000	0	0	0	6100
2020/09/21 00:32:00	BASE	9.51	59	11.42	59	0.4	61	-6.3	0	0	987.9	NA	0.0000	-SN	9999	0	0	0	6430
2020/09/21 00:33:00	BASE	9.24	57	11.42	59	0.4	61	-6.2	0	0	987.9	NA	0.0000	-SN	9999	0	0	0	6230
2020/09/21 00:34:00	BASE	8.85	56	11.06	60	0.4	62	-6.1	0	0	987.9	NA	0.0000	-SN	9999	0	0	0	6270
2020/09/21 00:35:00	BASE	8.72	56	10.85	53	0.4	62	-6.0	0	0	987.9	NA	0.0000	-SN	9999	4330	0	0	0
2020/09/21 00:36:00	BASE	9.24	56	10.85	53	0.5	63	-5.8	0	0	987.9	NA	0.0000	-SN	9999	4330	0	0	0
2020/09/21 00:37:00	BASE	9.51	55	10.60	59	0.6	63	-5.7	0	0	987.9	NA	0.0000	-SN	9999	4300	0	0	0
2020/09/21 00:38:00	BASE	8.91	55	10.34	53	0.7	63	-5.6	0	0	987.9	NA	0.0000	-SN	9999	4300	0	0	0
2020/09/21 00:39:00	BASE	8.31	56	10.34	53	0.7	63	-5.6	0	0	987.9	NA	0.0000	-SN	9999	4230	0	0	0
2020/09/21 00:40:00	BASE	8.53	56	10.34	53	0.8	62	-5.6	0	0	987.8	NA	0.0000	-SN	9999	4200	0	0	0
2020/09/21 00:41:00	BASE	8.86	55	10.34	53	0.8	62	-5.5	0	0	987.8	NA	0.0000	-SN	9999	4230	0	0	0
2020/09/21 00:42:00	BASE	8.67	56	10.34	53	0.8	62	-5.6	0	0	987.7	NA	0.0000	-SN	9999	4230	0	0	0
2020/09/21 00:43:00	BASE	8.43	58	10.34	53	0.8	63	-5.5	0	0	987.7	NA	0.0000	-SN	9999	4200	0	0	0
2020/09/21 00:44:00	BASE	8.52	58	10.34	53	0.8	63	-5.4	0	0	987.6	NA	0.0000		9999	4170	0	0	0
2020/09/21 00:45:00	BASE	8.88	59	10.34	53	0.8	64	-5.3	0	0	987.6	NA	0.0000	-SN	9999	4630	0	0	0
2020/09/21 00:46:00	BASE	8.95	61	10.19	51	0.8	64	-5.2	0	0	987.6	NA	0.0000	-SN	9999	5540	0	0	0
2020/09/21 00:47:00	BASE	9.25	61	10.19	54	0.8	65	-5.1	0	0	987.5	NA	0.0000	-SN	9999	1970	0	0	0
2020/09/21 00:48:00	BASE	9.48	61	10.19	59	0.8	65	-5.0	0	0	987.5	NA	0.0000	-SN	9999	5220	0	0	0
2020/09/21 00:49:00	BASE	9.57	61	10.29	57	0.8	66	-4.9	0	0	987.5	NA	0.0000	-SN	9999	4400	0	0	0
2020/09/21 00:50:00	BASE	9.81	60	10.39	56	0.9	66	-4.8	0	0	987.4	NA	0.0000	-SN	9999	0	0	0	5050
2020/09/21 00:51:00	BASE	9.54	61	10.39	56	1.0	66	-4.7	0	0	987.5	NA	0.0000	-SN	9999	4660	0	0	0
2020/09/21 00:52:00	BASE	9.05	61	10.39	56	1.0	66	-4.6	0	0	987.5	NA	0.0000	-SN	9999	0	0	0	5120
2020/09/21 00:53:00	BASE	8.76	61	10.39	56	1.1	66	-4.6	0	0	987.4	NA	0.0000	-SN	9999	820	0	0	0
2020/09/21 00:54:00	BASE	8.69	61	10.39	56	1.1	66	-4.5	0	0	987.4	NA	0.0000	-SN	9999	0	0	0	5090
2020/09/21 00:55:00	BASE	8.27	62	10.39	56	1.1	66	-4.5	0	0	987.5	NA	0.0000	-SN	9999	0	0	0	4790
2020/09/21 00:56:00	BASE	7.15	82	10.39	56	1.1	66	-4.5	0	0	987.5	NA	0.0000	-SN	9999	0	0	0	4860
2020/09/21 00:57:00	BASE	5.96	112	10.39	56	0.8	66	-4.7	0	0	987.6	NA	0.0000	-SN	9999	1380	0	0	0
2020/09/21 00:58:00	BASE	5.73	124	10.39	56	0.4	66	-5.1	0	0	987.5	NA	0.0000	-SN	9000	0	0	0	4630
2020/09/21 00:59:00	BASE	6.27	121	10.39	56	-0.1	67	-5.6	0	0	987.5	NA	0.0000	-SN	9999	490	0	0	0
2020/09/21 01:00:00	BASE	6.82	124	10.13	64	-0.7	67	-6.1	0	0	987.4	NA	0.0000	-SN	9999	4400	0	0	0
2020/09/21 01:01:00	BASE	7.07	131	10.13	64	-1.3	67	-6.5	0	0	987.3	NA	0.0000	-SN	9000	4460	0	0	0
2020/09/21 01:02:00	BASE	6.88	130	9.36	64	-1.6	68	-6.7	0	0	987.3	NA	0.0000	-SN	8000	4330	0	0	0
2020/09/21 01:03:00	BASE	6.26	127	9.31	59	-1.8	69	-6.7	0	0	987.3	NA	0.0000	-SN	6000	4490	0	0	0
2020/09/21 01:04:00	BASE	5.93	129	8.75	56	-1.9	70	-6.7	0	0	987.2	NA	0.0000	-SN	5000	0	0	0	4760
2020/09/21 01:05:00	BASE	5.58	136	7.82	136	-2.0	71	-6.6	0	0	987.1	NA	0.0000	-SN	9999	4070	0	0	0
2020/09/21 01:06:00	BASE	5.45	132	7.82	136	-2.0	71	-6.5	0	0	987.1	NA	0.0000	-SN	9999	4070	0	0	0
2020/09/21 01:07:00	BASE	7.16	124	10.55	123	-2.0	72	-6.4	0	0	987.0	NA	0.0000	-SN	9999	3940	0	0	0
2020/09/21 01:08:00	BASE	7.28	123	10.55	123	-1.9	72	-6.3	0	0	987.1	NA	0.0000	-SN	9999	3810	0	0	0
2020/09/21 01:09:00	BASE	5.09	122	10.55	123	-1.9	72	-6.2	0	0	987.1	NA	0.0000	-SN	9999	3740	0	0	0
2020/09/21 01:10:00	BASE	4.73	121	10.55	123	-1.9	73	-6.1	0	0	987.0	NA	0.0000	-SN	7000	3740	0	0	0
2020/09/21 01:11:00	BASE	5.37	119	10.55	123	-1.8	73	-6.0	0	0	987.0	NA	0.0000	-SN	6000	3710	0	0	0
2020/09/21 01:12:00	BASE	5.32	126	10.55	123	-1.8	73	-6.0	0	0	987.0	NA	0.0000	-SN	9999	3640	0	0	0
2020/09/21 01:13:00	BASE	5.09	134	10.55	123	-1.7	73	-5.9	0	0	987.0	NA	0.0000	-SN	9999	3740	0	0	0
2020/09/21 01:14:00	BASE	4.85	137	10.55	123	-1.7	73	-5.9	0	0	987.0	NA	0.0000	-SN	9999	3710	0	0	0
2020/09/21 01:15:00	BASE	4.63	139	10.55	123	-1.7	73	-5.9	0	0	987.0	NA	0.0000	-SN	9999	3610	0	0	0
2020/09/21 01:16:00	BASE	5.05	138	10.55	123	-1.8	73	-6.0	0	0	986.8	NA	0.0000	-SN	9999	3610	0	0	0
2020/09/21 01:17:00	BASE	5.47	140	7.82	111	-1.8	73	-6.0	0	0	986.8	NA	0.0000	-SN	9999	3770	0	0	0
2020/09/21 01:18:00	BASE	4.94	144	7.82	111	-1.8	73	-6.0	0	0	986.8	NA	0.0000	-SN	9999	3770	0	0	0
2020/09/21 01:19:00	BASE	4.77	148	7.82	111	-1.8	73	-6.0	0	0	986.7	NA	0.0000	-SN	9999	3870	0	0	0
2020/09/21 01:20:00	BASE	4.22	155	6.33	148	-1.8	73	-6.0	0	0	986.8	NA	0.0000	-SN	9999	3770	0	0	0
2020/09/21 01:21:00	BASE	3.17	156	6.33	148	-1.7	73	-5.9	0	0	986.7	NA	0.0000		9999	3740	0	0	0
2020/09/21 01:22:00	BASE	2.73	156	6.33	148	-1.7	73	-5.9	0	0	986.7	NA	0.0000		9999	3710	0	0	0
2020/09/21 01:23:00	BASE	2.15	149	6.33	148	-1.7	73	-5.8	0	0	986.7	NA	0.0000		9999	3740	0	0	0
2020/09/21 01:24:00	BASE	1.71	143	6.33	148	-1.7	74	-5.8	0	0	986.7	NA	0.0000		9999	3870	0	0	0
2020/09/21 01:25:00	BASE	1.74	145	6.33	148	-1.7	74	-5.8	0	0	986.7	NA	0.0000		9999	3770	0	0	0
2020/09/21 01:26:00	BASE	1.73	129	6.33	148	-1.7	74	-5.7	0	0	986.7	NA	0.0000		9999	3740	0	0	0
2020/09/21 01:27:00	BASE	1.75	90	6.33	148	-1.6	74	-5.7	0	0	986.7	NA	0.0000		9999	3770	0	0	0
2020/09/21 01:28:00	BASE	1.61	64	6.33	148	-1.6	74	-5.6	0	0	986.6	NA	0.0000		9999	3710	0	0	0
2020/09/21 01:29:00	BASE	1.44	54	4.12	156	-1.5	74	-5.5	0	0	986.6	NA	0.0000		9999	3580	0	0	0
2020/09/21 01:30:00	BASE	1.28	36	3.55	155	-1.5	74	-5.5	0	0	986.6	NA	0.0000		9999	3710	0	0	0
2020/09/21 01:31:00	BASE	0.78	30	2.93	164	-1.5	74	-5.6	0	0	986.6	NA	0.0000		9999	3540	0	0	0
2020/09/21 01:32:00	BASE	0.23	26	2.26	127	-1.6	74	-5.6	0	0	986.5	NA	0.0000		9999	3640	0	0	0
2020/09/21 01:33:00	BASE	0.00	54	2.26	127	-1.7	74	-5.6	0	0	986.5	NA	0.0000		9999	3580	0	0	0
2020/09/21 01:34:00	BASE	0.00	87	2.26	127	-1.7	75	-5.6	0	0	986.5	NA	0.0000		9999	3940	6040	0	0
2020/09/21 01:35:00	BASE	0.00	52	2.26	127	-1.7	75	-5.5	0	0	986.5	NA	0.0000		9999	5940	0	0	0
2020/09/21 01:36:00	BASE	0.00	40	2.21	50	-1.6	75	-5.3	0	0	986.5	NA	0.0000		9999	5910	0	0	0
2020/09/21 01:37:00	BASE	0.00	219	2.06	41	-1.4	75	-5.2	0	0	986.5	NA	0.0000		9999	5940	0	0	0
2020/09/21 01:38:00	BASE	0.00	237	2.06	41	-1.3	75	-5.1	0	0	986.5	NA	0.0000		9999	6000	0	0	0
2020/09/21 01:39:00	BASE	0.00	226	1.44	28	-1.2	75	-5.0	0	0	986.5	NA	0.0000	-SN	9999	4170	5940	0	0
2020/09/21 01:40:00	BASE	0.05	222	1.18	236	-1.1	75	-5.0	0	0	986.4	NA	0.0000	-SN	9999	4100	5940	0	0
2020/09/21 01:41:00	BASE	0.83	239	2.01	246	-1.1	75	-5.0	0	0	986.4	NA	0.0000	-SN	9999	5870	0	0	0
2020/09/21 01:42:00	BASE	0.78	248	2.01	246	-1.2	75	-5.1	0	0	986.5	NA	0.0000	-SN	9999	5840	0	0	0
2020/09/21 01:43:00	BASE	0.00	158	2.01	246	-1.2	74	-5.2	0	0	986.4	NA	0.0000	-SN	9999	5840	0	0	0
2020/09/21 01:44:00	BASE	0.09	165	2.01	246	-1.3	74	-5.3	0	0	986.3	NA	0.0000	-SN	9999	5870	0	0	0
2020/09/21 01:45:00	BASE	0.69	242	2.01	246	-1.3	74	-5.3	0	0	986.3	NA	0.0000	-SN	9999	5910	0	0	0
2020/09/21 01:46:00	BASE	1.46	231	2.16	203	-1.4	74	-5.4	0	0	986.3	NA	0.0000	-SN	9999	3280	0	0	0
2020/09/21 01:47:00	BASE	1.92	178	2.42	153	-1.4	75	-5.4	0	0	986.3	NA	0.0000	-SN	9999	3280	0	0	0
2020/09/21 01:48:00	BASE	2.66	150	3.96	140	-1.5	75	-5.4	0	0	986.3	NA	0.0000	-SN	9999	3280	0	0	0
2020/09/21 01:49:00	BASE	2.91	154	3.96	140	-1.5	75	-5.4	0	0	986.3	NA	0.0000	-SN	9999	3180	0	0	0
2020/09/21 01:50:00	BASE	1.64	174	3.96	140	-1.6	75	-5.4	0	0	986.3	NA	0.0000	-SN	9999	3150	0	0	0
2020/09/21 01:51:00	BASE	0.57	207	3.96	140	-1.6	75	-5.4	0	0	986.2	NA	0.0000	-SN	9999	3280	0	0	0
2020/09/21 01:52:00	BASE	1.16	223	3.96	140	-1.5	75	-5.3	0	0	986.2	NA	0.0000	-SN	9999	2920	0	0	0
2020/09/21 01:53:00	BASE	1.45	192	3.96	140	-1.3	75	-5.2	0	0	986.2	NA	0.0000	-SN	9999	3310	0	0	0
2020/09/21 01:54:00	BASE	0.78	181	3.96	140	-1.1	74	-5.1	0	0	986.2	NA	0.0000	-SN	9999	2990	0	0	0
2020/09/21 01:55:00	BASE	1.93	202	3.96	140	-1.0	74	-5.1	0	0	986.1	NA	0.0000	-SN	9999	3050	0	0	0
2020/09/21 01:56:00	BASE	3.42	195	3.96	140	-0.8	73	-5.1	0	0	986.0	NA	0.0000	-SN	9999	3180	0	0	0
2020/09/21 01:57:00	BASE	3.03	177	3.96	140	-0.8	72	-5.2	0	0	986.0	NA	0.0000	-SN	9999	3050	0	0	0
2020/09/21 01:58:00	BASE	3.25	165	5.76	176	-0.9	71	-5.4	0	0	986.0	NA	0.0000	-SN	9999	2890	0	0	0
2020/09/21 01:59:00	BASE	4.28	158	5.76	176	-0.9	71	-5.6	0	0	986.1	NA	0.0000	-SN	9999	2690	0	0	0
2020/09/21 02:00:00	BASE	4.16	160	5.76	176	-0.9	70	-5.6	0	0	986.1	NA	0.0000	-SN	9999	3220	0	0	0
2020/09/21 02:01:00	BASE	4.25	171	5.76	176	-1.0	70	-5.7	0	0	985.8	NA	0.0000	-SN	9999	3350	0	0	0
2020/09/21 02:02:00	BASE	4.64	171	5.76	176	-1.0	70	-5.8	0	0	985.9	NA	0.0000	-SN	9999	2560	3280	0	0
2020/09/21 02:03:00	BASE	4.41	164	5.76	176	-0.9	70	-5.7	0	0	985.9	NA	0.0000	-SN	9999	3310	0	0	0
2020/09/21 02:04:00	BASE	5.26	165	6.38	163	-0.9	70	-5.7	0	0	985.7	NA	0.0000	-SN	9999	2530	0	0	0
2020/09/21 02:05:00	BASE	5.59	163	6.38	163	-0.9	70	-5.7	0	0	985.8	NA	0.0000	-SN	9999	2690	0	0	0
2020/09/21 02:06:00	BASE	4.73	152	6.38	163	-0.9	70	-5.7	0	0	985.9	NA	0.0000	-SN	9999	2530	3120	0	0
2020/09/21 02:07:00	BASE	4.73	148	6.38	163	-0.9	70	-5.7	0	0	985.7	NA	0.0000	-SN	9999	2560	0	0	0
2020/09/21 02:08:00	BASE	5.43	151	6.84	153	-1.0	70	-5.8	0	0	985.7	NA	0.0000	-SN	9999	0	0	0	3770
2020/09/21 02:09:00	BASE	5.49	147	6.84	153	-1.0	70	-5.8	0	0	985.7	NA	0.0000	-SN	9999	2360	0	0	0
2020/09/21 02:10:00	BASE	5.18	146	6.84	153	-1.0	70	-5.8	0	0	985.6	NA	0.0000	-SN	9999	430	0	0	0
2020/09/21 02:11:00	BASE	5.32	150	6.84	153	-1.0	70	-5.9	0	0	985.6	NA	0.0000	-SN	9999	3640	0	0	0
2020/09/21 02:12:00	BASE	5.29	151	6.84	153	-1.0	69	-5.9	0	0	985.7	NA	0.0000	-SN	9999	0	0	0	4070
2020/09/21 02:13:00	BASE	5.23	156	6.84	153	-1.0	69	-6.0	0	0	985.6	NA	0.0000	-SN	9999	2890	0	0	0
2020/09/21 02:14:00	BASE	5.17	164	6.84	153	-1.0	68	-6.1	0	0	985.5	NA	0.0000	-SN	9999	3220	0	0	0
2020/09/21 02:15:00	BASE	4.87	170	6.84	153	-0.9	68	-6.1	0	0	985.4	NA	0.0000	-SN	9999	2430	3220	0	0
2020/09/21 02:16:00	BASE	4.48	174	6.84	153	-0.9	67	-6.2	0	0	985.4	NA	0.0000	-SN	9999	2330	0	0	0
2020/09/21 02:17:00	BASE	3.53	174	6.84	153	-0.9	67	-6.3	0	0	985.6	NA	0.0000	-SN	9999	2260	0	0	0
2020/09/21 02:18:00	BASE	2.65	171	6.43	156	-0.9	67	-6.3	0	0	985.6	NA	0.0000	-SN	9999	2330	3150	0	0
2020/09/21 02:19:00	BASE	2.60	169	6.43	156	-0.8	66	-6.3	0	0	985.5	NA	0.0000	-SN	9999	3480	0	0	0
2020/09/21 02:20:00	BASE	2.80	168	6.02	155	-0.8	66	-6.3	0	0	985.5	NA	0.0000	-SN	9999	2430	3050	0	0
2020/09/21 02:21:00	BASE	2.69	161	5.76	159	-0.8	66	-6.3	0	0	985.6	NA	0.0000	-SN	9999	2170	0	0	0
2020/09/21 02:22:00	BASE	2.38	149	5.76	159	-0.8	67	-6.3	0	0	985.6	NA	0.0000	-SN	9999	2170	2920	0	0
2020/09/21 02:23:00	BASE	2.86	156	5.25	167	-0.8	67	-6.2	0	0	985.5	NA	0.0000	-SN	9999	2850	3350	0	0
2020/09/21 02:24:00	BASE	4.05	167	5.14	169	-0.8	67	-6.2	0	0	985.4	NA	0.0000	-SN	9999	2130	0	0	0
2020/09/21 02:25:00	BASE	4.23	163	4.89	167	-0.8	67	-6.2	0	0	985.4	NA	0.0000		9999	2260	0	0	0
2020/09/21 02:26:00	BASE	4.01	165	4.89	167	-0.9	67	-6.2	0	0	985.4	NA	0.0000		9999	2490	0	0	0
2020/09/21 02:27:00	BASE	3.90	174	4.89	167	-0.9	67	-6.2	0	0	985.4	NA	0.0000		9999	2400	3080	0	0
2020/09/21 02:28:00	BASE	3.51	165	4.94	134	-0.9	67	-6.2	0	0	985.4	NA	0.0000		9999	2330	0	0	0
2020/09/21 02:29:00	BASE	4.40	154	5.76	156	-0.9	68	-6.1	0	0	985.3	NA	0.0000		9999	2360	3080	0	0
2020/09/21 02:30:00	BASE	4.68	161	5.76	156	-0.9	68	-6.0	0	0	985.4	NA	0.0000		9999	2430	3080	0	0
2020/09/21 02:31:00	BASE	3.84	170	5.76	156	-0.9	69	-5.9	0	0	985.3	NA	0.0000		9999	2490	3280	0	0
2020/09/21 02:32:01	BASE	4.95	176	7.05	178	-0.9	69	-5.8	0	0	985.2	NA	0.0000		9999	3180	0	0	0
2020/09/21 02:33:00	BASE	6.03	179	7.05	178	-1.0	70	-5.7	0	0	985.2	NA	0.0000		9999	3050	0	0	0
2020/09/21 02:34:00	BASE	5.18	176	7.05	178	-1.0	71	-5.6	0	0	985.3	NA	0.0000		9999	2950	0	0	0
2020/09/21 02:35:00	BASE	3.93	177	7.05	178	-1.0	72	-5.5	0	0	985.3	NA	0.0000		9999	3050	0	0	0
2020/09/21 02:36:00	BASE	3.98	184	7.05	178	-1.0	72	-5.4	0	0	985.2	NA	0.0000		9999	3180	0	0	0
2020/09/21 02:37:00	BASE	4.07	193	7.05	178	-1.0	73	-5.2	0	0	985.3	NA	0.0000		9999	2490	3450	0	0
2020/09/21 02:38:00	BASE	3.39	204	7.05	178	-0.9	74	-5.0	0	0	985.2	NA	0.0000		9999	2490	3480	0	0
2020/09/21 02:39:00	BASE	4.12	201	7.05	178	-0.8	74	-4.8	0	0	985.2	NA	0.0000		9999	3310	0	0	0
2020/09/21 02:40:00	BASE	4.68	190	7.05	178	-0.6	74	-4.6	0	0	985.2	NA	0.0000		9999	3380	0	0	0
2020/09/21 02:41:00	BASE	3.57	185	7.05	178	-0.5	75	-4.5	0	0	985.2	NA	0.0000		9999	3350	0	0	0
2020/09/21 02:42:00	BASE	2.92	170	6.74	195	-0.4	75	-4.3	0	0	985.3	NA	0.0000		9999	3510	0	0	0
2020/09/21 02:43:00	BASE	3.46	167	6.74	195	-0.3	75	-4.3	0	0	985.2	NA	0.0000		9999	3480	0	0	0
2020/09/21 02:44:00	BASE	4.08	165	6.74	195	-0.4	75	-4.3	0	0	985.2	NA	0.0000		9999	3450	0	0	0
2020/09/21 02:45:00	BASE	3.65	151	6.74	195	-0.4	75	-4.4	0	0	985.2	NA	0.0000		9999	3410	0	0	0
2020/09/21 02:46:00	BASE	2.49	143	6.74	195	-0.5	75	-4.5	0	0	985.3	NA	0.0000		9999	3380	0	0	0
2020/09/21 02:47:00	BASE	1.81	136	6.74	195	-0.7	75	-4.7	0	0	985.2	NA	0.0000		9999	3380	0	0	0
2020/09/21 02:48:00	BASE	1.98	146	6.74	195	-0.8	75	-4.8	0	0	985.2	NA	0.0000		9999	3640	0	0	0
2020/09/21 02:49:01	BASE	2.35	162	5.09	197	-0.9	75	-4.8	0	0	985.2	NA	0.0000		9999	3610	0	0	0
2020/09/21 02:50:01	BASE	2.06	162	4.89	147	-0.9	75	-4.8	0	0	985.2	NA	0.0000		9999	3510	0	0	0
2020/09/21 02:51:01	BASE	2.07	161	4.89	147	-0.9	75	-4.8	0	0	985.2	NA	0.0000		9999	3410	0	0	0
2020/09/21 02:52:01	BASE	2.91	161	4.89	147	-0.9	75	-4.7	0	0	985.2	NA	0.0000		9999	3510	0	0	0
2020/09/21 02:53:00	BASE	3.56	157	4.89	147	-0.8	75	-4.7	0	0	985.2	NA	0.0000		9999	3350	0	0	0
2020/09/21 02:54:01	BASE	4.14	153	5.14	144	-0.9	75	-4.7	0	0	985.1	NA	0.0000		9999	3380	0	0	0
2020/09/21 02:55:01	BASE	4.25	160	5.14	144	-0.9	76	-4.7	0	0	985.0	NA	0.0000	UP	9999	3280	0	0	0
2020/09/21 02:56:01	BASE	3.58	170	5.14	144	-1.0	76	-4.7	0	0	984.9	NA	0.0000	UP	9999	3280	0	0	0
2020/09/21 02:57:01	BASE	3.36	159	5.14	144	-1.0	76	-4.6	0	0	985.0	NA	0.0000	UP	9999	3350	0	0	0
2020/09/21 02:58:01	BASE	3.52	143	5.14	144	-1.0	76	-4.6	0	0	985.1	NA	0.0000	UP	9999	3350	0	0	0
2020/09/21 02:59:01	BASE	3.14	140	5.14	144	-1.0	77	-4.6	0	0	985.0	NA	0.0000	UP	9999	3310	0	0	0
2020/09/21 03:00:01	BASE	2.82	137	5.14	144	-1.0	77	-4.6	0	0	984.9	NA	0.0000	UP	9999	3180	0	0	0
2020/09/21 03:01:01	BASE	3.12	128	5.14	144	-1.0	77	-4.5	0	0	984.9	NA	0.0000	UP	9999	3380	0	0	0
2020/09/21 03:02:01	BASE	3.40	119	5.14	144	-1.0	77	-4.5	0	0	984.9	NA	0.0000	UP	9999	3580	0	0	0
2020/09/21 03:03:01	BASE	2.89	123	5.14	144	-1.0	77	-4.5	0	0	984.9	NA	0.0000	UP	9999	3710	0	0	0
2020/09/21 03:04:01	BASE	2.53	144	4.32	164	-1.0	77	-4.5	0	0	984.8	NA	0.0000	UP	9999	3610	0	0	0
2020/09/21 03:05:01	BASE	3.51	155	5.56	145	-1.0	77	-4.5	0	0	984.8	NA	0.0000	UP	9999	3540	0	0	0
2020/09/21 03:06:01	BASE	4.99	148	6.17	147	-1.0	77	-4.5	0	0	984.7	NA	0.0000	UP	9999	3540	0	0	0
2020/09/21 03:07:01	BASE	5.75	151	6.33	156	-1.0	77	-4.5	0	0	984.6	NA	0.0000	UP	9999	3410	0	0	0
2020/09/21 03:08:01	BASE	5.51	153	6.33	156	-1.0	77	-4.5	0	0	984.6	NA	0.0000	UP	9999	3280	0	0	0
2020/09/21 03:09:01	BASE	5.47	124	7.51	78	-1.1	77	-4.6	0	0	984.8	NA	0.0000	UP	9999	3510	0	0	0
2020/09/21 03:10:01	BASE	5.42	99	7.51	78	-1.1	77	-4.6	0	0	984.8	NA	0.0000	UP	9999	3580	0	0	0
2020/09/21 03:11:01	BASE	5.38	116	7.51	78	-1.1	77	-4.6	0	0	984.7	NA	0.0000	UP	9999	3510	0	0	0
2020/09/21 03:12:01	BASE	5.28	136	7.51	78	-1.2	77	-4.7	0	0	984.6	NA	0.0000	UP	9999	3450	0	0	0
2020/09/21 03:13:01	BASE	5.21	139	7.51	78	-1.2	77	-4.8	0	0	984.6	NA	0.0000	UP	9999	3380	0	0	0
2020/09/21 03:14:01	BASE	6.09	129	7.51	78	-1.2	76	-4.8	0	0	984.6	NA	0.0000	UP	9999	3380	0	0	0
2020/09/21 03:15:01	BASE	6.93	119	7.56	115	-1.3	76	-4.9	0	0	984.6	NA	0.0000	UP	9999	3450	0	0	0
2020/09/21 03:16:01	BASE	7.29	117	7.92	116	-1.3	76	-5.0	0	0	984.5	NA	0.0000	UP	9999	3480	0	0	0
2020/09/21 03:17:01	BASE	6.94	123	7.92	116	-1.3	76	-5.0	0	0	984.5	NA	0.0000	UP	9999	3280	0	0	0
2020/09/21 03:18:01	BASE	6.55	131	7.92	116	-1.4	77	-4.9	0	0	984.5	NA	0.0000		9999	3180	0	0	0
2020/09/21 03:19:01	BASE	7.62	125	9.41	110	-1.4	77	-4.9	0	0	984.5	NA	0.0000		9999	3050	0	0	0
2020/09/21 03:20:01	BASE	8.93	120	9.88	117	-1.4	77	-4.9	0	0	984.5	NA	0.0000		9999	2820	0	0	0
2020/09/21 03:21:01	BASE	8.93	124	9.88	117	-1.4	77	-4.9	0	0	984.4	NA	0.0000	UP	9999	3180	0	0	0
2020/09/21 03:22:01	BASE	8.33	125	9.88	117	-1.5	77	-4.9	0	0	984.5	NA	0.0000	UP	9999	3150	0	0	0
2020/09/21 03:23:01	BASE	8.08	122	9.88	117	-1.5	77	-4.9	0	0	984.4	NA	0.0000	UP	9999	3350	0	0	0
2020/09/21 03:24:01	BASE	7.88	127	9.88	117	-1.5	78	-4.9	0	0	984.4	NA	0.0000	UP	9999	3020	0	0	0
2020/09/21 03:25:01	BASE	7.67	130	9.88	117	-1.5	78	-4.9	0	0	984.5	NA	0.0000	UP	9999	3120	0	0	0
2020/09/21 03:26:01	BASE	7.42	128	9.88	117	-1.6	78	-4.9	0	0	984.5	NA	0.0000	UP	9999	2890	3480	0	0
2020/09/21 03:27:01	BASE	7.14	129	9.88	117	-1.6	78	-4.9	0	0	984.4	NA	0.0000	UP	9999	3250	0	0	0
2020/09/21 03:28:01	BASE	7.07	135	9.88	117	-1.7	79	-4.9	0	0	984.3	NA	0.0000	UP	9999	3020	0	0	0
2020/09/21 03:29:01	BASE	7.21	153	9.88	117	-1.7	79	-4.9	0	0	984.1	NA	0.0000	UP	9999	2990	0	0	0
2020/09/21 03:30:01	BASE	7.83	160	9.11	131	-1.8	79	-4.8	0	0	984.1	NA	0.0000	UP	9999	2850	3770	0	0
2020/09/21 03:31:01	BASE	8.86	142	10.39	130	-1.8	80	-4.8	0	0	984.3	NA	0.0000	UP	9999	2820	0	0	0
2020/09/21 03:32:01	BASE	8.47	145	10.39	130	-1.8	80	-4.8	0	0	984.1	NA	0.0000	UP	9999	2760	0	0	0
2020/09/21 03:33:01	BASE	6.14	148	10.39	130	-1.8	81	-4.6	0	0	984.2	NA	0.0000	UP	9999	3020	0	0	0
2020/09/21 03:34:01	BASE	4.19	137	10.39	130	-1.7	82	-4.4	0	0	984.3	NA	0.0000		9999	3940	0	0	0
2020/09/21 03:35:01	BASE	4.91	146	10.39	130	-1.7	83	-4.2	0	0	984.2	NA	0.0000		9999	3280	0	0	0
2020/09/21 03:36:01	BASE	6.82	153	10.39	130	-1.6	83	-4.1	0	0	984.1	NA	0.0000		9999	3220	0	0	0
2020/09/21 03:37:01	BASE	7.86	145	10.39	130	-1.6	84	-3.9	0	0	984.2	NA	0.0000		9999	2620	3310	0	0
2020/09/21 03:38:01	BASE	8.03	153	10.39	130	-1.7	85	-3.9	0	0	983.9	NA	0.0000		9999	3150	0	0	0
2020/09/21 03:39:01	BASE	8.10	165	10.39	130	-1.8	86	-3.9	0	0	983.8	NA	0.0000		9999	2820	0	0	0
2020/09/21 03:40:01	BASE	7.76	158	10.39	130	-1.9	87	-3.8	0	0	983.8	NA	0.0000		9999	2820	0	0	0
2020/09/21 03:41:01	BASE	6.09	136	9.16	138	-1.8	88	-3.5	0	0	983.8	NA	0.0000		9999	2620	0	0	0
2020/09/21 03:42:01	BASE	6.55	129	9.83	151	-1.7	89	-3.3	0	0	983.7	NA	0.0000		9999	2790	0	0	0
2020/09/21 03:43:01	BASE	8.12	150	9.83	151	-1.6	90	-3.1	0	0	983.7	NA	0.0000		9999	2490	0	0	0
2020/09/21 03:44:01	BASE	7.64	162	9.83	151	-1.6	90	-3.0	0	0	983.7	NA	0.0000		9999	2490	0	0	0
2020/09/21 03:45:01	BASE	7.24	163	9.83	151	-1.6	91	-2.9	0	0	983.7	NA	0.0000		9999	2620	0	0	0
2020/09/21 03:46:01	BASE	8.31	156	10.49	155	-1.8	91	-3.0	0	0	983.6	NA	0.0000		9999	2620	0	0	0
2020/09/21 03:47:01	BASE	9.80	157	10.65	162	-1.9	92	-3.0	0	0	983.3	NA	0.0000		9999	2760	0	0	0
2020/09/21 03:48:01	BASE	10.06	163	10.65	162	-1.9	93	-3.0	0	0	983.3	NA	0.0000	UP	9999	2460	0	0	0
2020/09/21 03:49:01	BASE	9.37	166	10.65	162	-1.9	93	-2.9	0	0	983.4	NA	0.0000	UP	9999	2590	0	0	0
2020/09/21 03:50:01	BASE	8.58	167	10.65	162	-1.9	94	-2.8	0	0	983.6	NA	0.0000	UP	9999	2560	0	0	0
2020/09/21 03:51:01	BASE	7.49	171	10.65	162	-1.9	95	-2.7	0	0	983.7	NA	0.0000	UP	9999	2560	0	0	0
2020/09/21 03:52:01	BASE	6.17	169	10.65	162	-1.9	95	-2.5	0	0	983.8	NA	0.0000	UP	9999	2460	0	0	0
2020/09/21 03:53:01	BASE	6.53	158	10.65	162	-1.8	96	-2.4	0	0	983.9	NA	0.0000	UP	9999	750	2530	0	0
2020/09/21 03:54:01	BASE	6.58	148	10.65	162	-1.8	96	-2.3	0	0	984.0	NA	0.0000	UP	9999	2590	0	0	0
2020/09/21 03:55:01	BASE	4.92	144	10.65	162	-1.8	97	-2.3	0	0	984.0	NA	0.0000	UP BR	5000	2560	0	0	0
2020/09/21 03:56:01	BASE	4.52	154	10.65	162	-1.8	97	-2.2	0	0	983.8	NA	0.0000	UP BR	4800	2530	0	0	0
2020/09/21 03:57:01	BASE	5.09	163	10.29	162	-1.8	97	-2.2	0	0	983.7	NA	0.0000	UP BR	4800	2490	0	0	0
2020/09/21 03:58:01	BASE	5.20	155	10.24	160	-1.8	97	-2.2	0	0	983.8	NA	0.0000	UP BR	4700	2760	0	0	0
2020/09/21 03:59:01	BASE	5.23	146	9.00	163	-1.8	98	-2.1	0	0	983.9	NA	0.0000	UP BR	4900	2790	0	0	0
2020/09/21 04:00:01	BASE	5.06	152	8.80	150	-1.7	98	-2.0	0	0	983.9	NA	0.0000	UP BR	5000	2720	0	0	0
2020/09/21 04:01:01	BASE	5.02	159	8.80	150	-1.7	98	-1.9	0	0	983.9	NA	0.0000	UP BR	5000	2560	3150	0	0
2020/09/21 04:02:01	BASE	5.25	163	8.80	150	-1.6	99	-1.8	0	0	983.8	NA	0.0000	UP BR	5000	2430	0	0	0
2020/09/21 04:03:01	BASE	4.93	168	6.74	162	-1.6	99	-1.8	0	0	983.9	NA	0.0000	UP BR	5000	2590	0	0	0
2020/09/21 04:04:01	BASE	4.55	163	6.74	162	-1.7	99	-1.8	0	0	983.9	NA	0.0000	UP BR	6000	2660	0	0	0
2020/09/21 04:05:01	BASE	4.47	147	6.74	162	-1.7	99	-1.8	0	0	984.0	NA	0.0000	UP BR	5000	2530	0	0	0
2020/09/21 04:06:01	BASE	4.29	143	6.74	162	-1.7	99	-1.9	0	0	984.0	NA	0.0000	UP BR	4000	2660	0	0	0
2020/09/21 04:07:01	BASE	4.05	152	6.22	148	-1.8	99	-1.9	0	0	983.9	NA	0.0000	UP BR	3900	2490	0	0	0
2020/09/21 04:08:01	BASE	4.50	158	6.22	148	-1.8	99	-1.9	0	0	983.9	NA	0.0000	UP BR	3900	1510	2790	0	0
2020/09/21 04:09:01	BASE	5.11	158	5.71	157	-1.8	99	-1.9	0	0	983.9	NA	0.0000	UP BR	3700	950	2720	0	0
2020/09/21 04:10:01	BASE	5.09	151	5.71	157	-1.8	99	-1.9	0	0	983.9	NA	0.0000	UP BR	3900	590	1570	0	0
2020/09/21 04:11:01	BASE	4.54	141	5.61	146	-1.8	100	-1.9	0	0	984.0	NA	0.0000	UP BR	3600	1940	2660	0	0
2020/09/21 04:12:01	BASE	3.89	129	5.61	146	-1.8	100	-1.8	0	0	984.1	NA	0.0000	UP BR	3200	1510	2890	0	0
2020/09/21 04:13:01	BASE	3.15	116	5.61	146	-1.8	100	-1.8	0	0	984.1	NA	0.0000	UP BR	3200	490	2760	0	0
2020/09/21 04:14:01	BASE	2.07	87	5.61	146	-1.7	100	-1.7	0	0	984.2	NA	0.0000	UP BR	3200	2720	3220	0	0
2020/09/21 04:15:01	BASE	2.24	15	5.61	146	-1.7	100	-1.7	0	0	984.1	NA	0.0000	UP BR	3200	2790	0	0	0
2020/09/21 04:16:01	BASE	3.49	291	5.61	146	-1.7	100	-1.7	0	0	983.8	NA	0.0000	UP BR	3100	2620	3410	0	0
2020/09/21 04:17:01	BASE	4.39	230	5.61	146	-1.7	100	-1.7	0	0	983.7	NA	0.0000	UP BR	3700	1770	0	0	0
2020/09/21 04:18:01	BASE	4.96	197	6.12	176	-1.7	100	-1.7	0	0	983.8	NA	0.0000	UP BR	3800	2460	0	0	0
2020/09/21 04:19:01	BASE	5.75	184	6.69	187	-1.7	100	-1.7	0	0	983.7	NA	0.0000	UP BR	3800	2530	0	0	0
2020/09/21 04:20:01	BASE	6.14	189	6.69	187	-1.7	100	-1.7	0	0	983.6	NA	0.0000	UP BR	3800	2620	0	0	0
2020/09/21 04:21:01	BASE	5.11	199	6.69	187	-1.7	100	-1.7	0	0	983.7	NA	0.0000	UP BR	3800	2690	0	0	0
2020/09/21 04:22:01	BASE	3.51	195	6.69	187	-1.7	100	-1.7	0	0	983.8	NA	0.0000	UP BR	3800	2590	3670	0	0
2020/09/21 04:23:01	BASE	2.53	174	6.69	187	-1.7	100	-1.7	0	0	983.9	NA	0.0000	UP BR	3800	1710	3670	0	0
2020/09/21 04:24:01	BASE	2.64	166	6.69	187	-1.7	100	-1.7	0	0	983.9	NA	0.0000	UP BR	3800	2130	3410	0	0
2020/09/21 04:25:01	BASE	3.49	184	6.69	187	-1.7	100	-1.7	0	0	983.7	NA	0.0000	UP BR	4300	2170	0	0	0
2020/09/21 04:26:01	BASE	3.93	185	6.69	187	-1.8	100	-1.8	0	0	983.8	NA	0.0000	UP BR	4600	2400	0	0	0
2020/09/21 04:27:01	BASE	3.39	161	6.69	187	-1.7	100	-1.7	0	0	983.9	NA	0.0000	UP BR	4400	1640	3250	0	0
2020/09/21 04:28:01	BASE	2.88	164	6.69	187	-1.7	100	-1.7	0	0	983.8	NA	0.0000	UP BR	3900	1640	3120	0	0
2020/09/21 04:29:01	BASE	3.34	177	6.43	192	-1.7	100	-1.7	0	0	983.7	NA	0.0000	UP BR	3200	430	2660	0	0
2020/09/21 04:30:01	BASE	4.30	172	5.35	199	-1.7	100	-1.7	0	0	983.6	NA	0.0000	UP BR	2400	360	2560	0	0
2020/09/21 04:31:01	BASE	5.14	160	5.92	151	-1.6	100	-1.6	0	0	983.6	NA	0.0000	UP BR	2400	330	2530	0	0
2020/09/21 04:32:01	BASE	5.56	156	5.92	151	-1.6	100	-1.6	0	0	983.6	NA	0.0000	UP BR	2400	330	0	0	0
2020/09/21 04:33:01	BASE	5.51	153	5.92	151	-1.6	100	-1.6	0	0	983.6	NA	0.0000	UP BR	2400	2130	0	0	0
2020/09/21 04:34:01	BASE	5.57	144	5.92	151	-1.5	100	-1.5	0	0	983.7	NA	0.0000	UP BR	1700	2260	0	0	0
2020/09/21 04:35:01	BASE	6.17	141	7.51	134	-1.5	100	-1.5	0	0	983.6	NA	0.0000	UP BR	1700	1770	2850	0	0
2020/09/21 04:36:01	BASE	6.69	140	9.21	145	-1.5	100	-1.5	0	0	983.6	NA	0.0000	UP BR	1700	1840	2620	0	0
2020/09/21 04:37:01	BASE	7.03	143	9.21	145	-1.5	100	-1.5	0	0	983.5	NA	0.0000	UP BR	1700	460	0	0	0
2020/09/21 04:38:01	BASE	6.79	155	9.21	145	-1.5	100	-1.5	0	0	983.5	NA	0.0000	UP BR	1700	390	1410	0	0
2020/09/21 04:39:01	BASE	5.73	161	9.21	145	-1.5	100	-1.5	0	0	983.5	NA	0.0000	UP BR	2100	300	1310	0	0
2020/09/21 04:40:01	BASE	5.68	156	9.21	145	-1.4	100	-1.4	0	0	983.6	NA	0.0000	UP BR	1600	260	1250	0	0
2020/09/21 04:41:01	BASE	6.33	147	9.21	145	-1.4	100	-1.4	0	0	983.6	NA	0.0000	UP BR	1400	330	3080	0	0
2020/09/21 04:42:01	BASE	6.71	144	9.21	145	-1.4	100	-1.4	0	0	983.5	NA	0.0000	UP BR	1600	330	3180	0	0
2020/09/21 04:43:01	BASE	5.92	149	9.21	145	-1.4	100	-1.4	0	0	983.6	NA	0.0000	UP BR	1800	300	3080	0	0
2020/09/21 04:44:01	BASE	5.67	149	9.21	145	-1.4	100	-1.4	0	0	983.6	NA	0.0000	UP BR	2000	360	0	0	0
2020/09/21 04:45:01	BASE	6.47	143	9.21	145	-1.4	100	-1.4	0	0	983.6	NA	0.0000	UP BR	1800	360	0	0	0
2020/09/21 04:46:01	BASE	6.24	141	8.59	147	-1.4	100	-1.4	0	0	983.6	NA	0.0000	UP BR	1800	390	0	0	0
2020/09/21 04:47:01	BASE	5.76	144	7.56	145	-1.4	100	-1.4	0	0	983.5	NA	0.0000	UP BR	1600	360	0	0	0
2020/09/21 04:48:01	BASE	5.95	149	7.56	145	-1.4	100	-1.4	0	0	983.4	NA	0.0000	UP BR	1700	330	0	0	0
2020/09/21 04:49:01	BASE	6.43	156	7.56	145	-1.4	100	-1.5	0	0	983.3	NA	0.0000	UP BR	1700	330	1410	0	0
2020/09/21 04:50:01	BASE	6.52	158	7.56	145	-1.5	100	-1.5	0	0	983.3	NA	0.0000	UP BR	1700	260	1210	0	0
2020/09/21 04:51:01	BASE	6.69	155	7.56	145	-1.5	99	-1.5	0	0	983.3	NA	0.0000	UP BR	1800	360	0	0	0
2020/09/21 04:52:01	BASE	6.43	156	7.15	155	-1.5	99	-1.6	0	0	983.3	NA	0.0000	UP BR	1800	0	0	0	4430
2020/09/21 04:53:01	BASE	5.27	152	7.15	155	-1.5	99	-1.6	0	0	983.4	NA	0.0000	UP BR	1900	0	0	0	4300
2020/09/21 04:54:01	BASE	5.02	142	7.15	155	-1.5	99	-1.6	0	0	983.5	NA	0.0000	UP BR	2000	0	0	0	3840
2020/09/21 04:55:01	BASE	5.66	133	7.15	155	-1.5	100	-1.5	0	0	983.5	NA	0.0000	UP BR	2000	330	0	0	0
2020/09/21 04:56:01	BASE	5.63	133	7.15	155	-1.4	100	-1.4	0	0	983.5	NA	0.0000	UP BR	1900	0	0	0	3250
2020/09/21 04:57:01	BASE	5.75	137	7.15	155	-1.3	100	-1.4	0	0	983.4	NA	0.0000	UP BR	1800	0	0	0	3380
2020/09/21 04:58:01	BASE	6.31	139	7.15	155	-1.3	100	-1.3	0	0	983.4	NA	0.0000	UP BR	1700	0	0	0	3810
2020/09/21 04:59:01	BASE	6.25	140	7.15	155	-1.2	99	-1.3	0	0	983.4	NA	0.0000	UP BR	1700	0	0	0	3810
2020/09/21 05:00:01	BASE	5.83	144	7.15	155	-1.2	99	-1.3	0	0	983.4	NA	0.0000	UP BR	2100	330	0	0	0
2020/09/21 05:01:01	BASE	5.85	149	7.05	137	-1.2	99	-1.4	0	0	983.4	NA	0.0000	UP BR	2300	0	0	0	3670
2020/09/21 05:02:01	BASE	6.04	150	7.05	137	-1.3	99	-1.5	0	0	983.4	NA	0.0000	UP BR	2100	0	0	0	3540
2020/09/21 05:03:01	BASE	5.62	147	7.05	137	-1.3	98	-1.6	0	0	983.4	NA	0.0000	UP BR	1900	0	0	0	3380
2020/09/21 05:04:01	BASE	5.11	145	6.89	141	-1.4	98	-1.6	0	0	983.4	NA	0.0000	UP BR	2000	330	0	0	0
2020/09/21 05:05:01	BASE	5.33	147	6.89	141	-1.4	98	-1.7	0	0	983.5	NA	0.0000	UP BR	2000	330	0	0	0
2020/09/21 05:06:01	BASE	5.94	145	6.89	141	-1.5	98	-1.7	0	0	983.5	NA	0.0000	UP BR	1900	300	0	0	0
2020/09/21 05:07:01	BASE	6.06	149	6.89	141	-1.5	98	-1.8	0	0	983.5	NA	0.0000	UP BR	1800	330	0	0	0
2020/09/21 05:08:01	BASE	5.91	156	6.74	147	-1.5	98	-1.8	0	0	983.5	NA	0.0000	UP BR	1700	230	0	0	0
2020/09/21 05:09:01	BASE	5.39	160	6.74	147	-1.5	98	-1.8	0	0	983.5	NA	0.0000	UP BR	1300	0	0	0	3180
2020/09/21 05:10:01	BASE	5.00	159	6.74	147	-1.5	98	-1.8	0	0	983.5	NA	0.0000	UP BR	1200	0	0	0	2890
2020/09/21 05:11:01	BASE	4.85	157	6.74	147	-1.5	98	-1.8	0	0	983.7	NA	0.0000	UP BR	1300	0	0	0	2950
2020/09/21 05:12:01	BASE	4.13	155	6.74	147	-1.5	98	-1.8	0	0	983.7	NA	0.0000	UP BR	1600	2720	0	0	0
2020/09/21 05:13:01	BASE	3.79	156	6.74	147	-1.6	98	-1.8	0	0	983.7	NA	0.2540	UP BR	2000	300	0	0	0
2020/09/21 05:14:01	BASE	4.04	156	6.74	147	-1.6	98	-1.9	0	0	983.7	NA	0.0000	UP BR	2100	260	0	0	0
2020/09/21 05:15:01	BASE	4.29	157	6.74	147	-1.6	98	-1.9	0	0	983.7	NA	0.0000	UP BR	2100	260	0	0	0
2020/09/21 05:16:01	BASE	4.33	157	6.74	147	-1.6	98	-1.9	0	0	983.7	NA	0.2540	UP BR	2100	0	0	0	2260
2020/09/21 05:17:01	BASE	4.37	150	6.48	157	-1.6	98	-1.9	0	0	983.7	NA	0.0000	UP BR	2100	200	0	0	0
2020/09/21 05:18:00	BASE	4.68	144	5.71	146	-1.7	98	-1.9	0	0	983.7	NA	0.0000	UP BR	2100	230	0	0	0
2020/09/21 05:19:01	BASE	4.75	142	5.71	146	-1.7	99	-1.9	0	0	983.7	NA	0.0000	UP BR	2100	0	0	0	2530
2020/09/21 05:20:01	BASE	4.42	140	5.71	146	-1.7	99	-1.9	0	0	983.7	NA	0.0000	UP BR	2100	230	0	0	0
2020/09/21 05:21:01	BASE	4.75	138	5.76	134	-1.7	99	-1.9	0	0	983.7	NA	0.0000	UP BR	2100	0	0	0	2260
2020/09/21 05:22:01	BASE	4.91	134	5.76	134	-1.7	99	-1.9	0	0	983.7	NA	0.0000	UP BR	2100	0	0	0	2300
2020/09/21 05:23:01	BASE	4.95	132	5.76	134	-1.7	99	-1.9	0	0	983.7	NA	0.0000	UP BR	2100	0	0	0	2230
2020/09/21 05:24:01	BASE	5.09	129	5.76	134	-1.7	99	-1.9	0	0	983.7	NA	0.0000	UP BR	1700	0	0	0	2330
2020/09/21 05:25:01	BASE	4.89	125	5.76	134	-1.7	99	-1.9	0	0	983.7	NA	0.0000	UP BR	1900	0	0	0	2260
2020/09/21 05:26:01	BASE	5.17	121	6.38	117	-1.7	99	-1.9	0	0	983.7	NA	0.0000	UP BR	2100	0	0	0	2200
2020/09/21 05:27:01	BASE	5.51	119	6.38	117	-1.7	99	-1.8	0	0	983.6	NA	0.0000	UP BR	2100	0	0	0	2030
2020/09/21 05:28:01	BASE	5.30	119	6.38	117	-1.7	99	-1.8	0	0	983.6	NA	0.0000	UP BR	1800	0	0	0	1940
2020/09/21 05:29:01	BASE	4.87	122	6.38	117	-1.6	99	-1.8	0	0	983.6	NA	0.0000	UP BR	1700	0	0	0	2170
2020/09/21 05:30:01	BASE	4.85	126	6.38	117	-1.6	99	-1.8	0	0	983.6	NA	0.0000	UP BR	1900	0	0	0	2260
2020/09/21 05:31:01	BASE	5.02	128	6.38	117	-1.6	99	-1.7	0	0	983.6	NA	0.0000	UP BR	2100	0	0	0	2530
2020/09/21 05:32:01	BASE	5.06	130	6.38	117	-1.6	99	-1.7	0	0	983.6	NA	0.0000	UP BR	1100	0	0	0	2820
2020/09/21 05:33:00	BASE	5.24	129	6.38	117	-1.6	99	-1.7	0	0	983.6	NA	0.0000	UP BR	1400	0	0	0	2690
2020/09/21 05:34:01	BASE	5.32	124	6.38	117	-1.5	99	-1.7	0	0	983.7	NA	0.0000	UP BR	1600	0	0	0	2720
2020/09/21 05:35:01	BASE	5.18	124	6.38	117	-1.5	99	-1.7	0	0	983.6	NA	0.0000	UP BR	4300	230	0	0	0
2020/09/21 05:36:01	BASE	5.03	124	6.22	119	-1.5	99	-1.7	0	0	983.7	NA	0.0000	UP BR	2000	260	0	0	0
2020/09/21 05:37:01	BASE	5.13	122	5.92	122	-1.6	99	-1.7	0	0	983.6	NA	0.0000	UP BR	2000	260	0	0	0
2020/09/21 05:38:01	BASE	5.21	120	5.92	122	-1.6	99	-1.7	0	0	983.6	NA	0.0000	UP BR	2000	230	0	0	0
2020/09/21 05:39:01	BASE	4.67	123	5.92	122	-1.6	99	-1.7	0	0	983.6	NA	0.0000	-SN BR	2900	0	0	0	2360
2020/09/21 05:40:01	BASE	4.33	126	5.92	122	-1.6	99	-1.7	0	0	983.6	NA	0.0000	-SN BR	3000	0	0	0	2170
2020/09/21 05:41:01	BASE	4.81	124	6.02	118	-1.6	99	-1.7	0	0	983.5	NA	0.0000	-SN BR	1700	0	0	0	2100
2020/09/21 05:42:01	BASE	5.43	122	6.02	118	-1.6	99	-1.7	0	0	983.5	NA	0.0000	-SN BR	2100	0	0	0	2030
2020/09/21 05:43:01	BASE	5.58	120	6.38	113	-1.6	99	-1.7	0	0	983.5	NA	0.2540	-SN BR	1400	0	0	0	2000
2020/09/21 05:44:01	BASE	5.85	113	6.69	110	-1.6	99	-1.7	0	0	983.5	NA	0.0000	-SN BR	1800	0	0	0	2000
2020/09/21 05:45:01	BASE	5.66	109	6.69	110	-1.6	99	-1.7	0	0	983.6	NA	0.0000	-SN BR	1400	0	0	0	1940
2020/09/21 05:46:01	BASE	5.01	107	6.69	110	-1.6	99	-1.7	0	0	983.6	NA	0.0000	-SN BR	2400	0	0	0	1740
2020/09/21 05:47:01	BASE	4.51	107	6.69	110	-1.6	99	-1.7	0	0	983.7	NA	0.2540	-SN BR	2000	0	0	0	1740
2020/09/21 05:48:01	BASE	4.26	107	6.69	110	-1.6	99	-1.7	0	0	983.6	NA	0.0000	-SN BR	2300	0	0	0	1840
2020/09/21 05:49:01	BASE	4.41	108	6.69	110	-1.6	99	-1.7	0	0	983.7	NA	0.0000	-SN BR	1500	0	0	0	1840
2020/09/21 05:50:01	BASE	4.48	110	6.69	110	-1.6	99	-1.7	0	0	983.6	NA	0.2540	-SN BR	2100	0	0	0	1770
2020/09/21 05:51:01	BASE	4.64	113	6.69	110	-1.6	99	-1.8	0	0	983.5	NA	0.0000	-SN BR	2100	0	0	0	1740
2020/09/21 05:52:01	BASE	4.76	114	6.69	110	-1.6	99	-1.7	0	0	983.5	NA	0.0000	-SN BR	2100	0	0	0	1740
2020/09/21 05:53:01	BASE	4.54	112	6.69	110	-1.7	99	-1.7	0	0	983.5	NA	0.0000	-SN BR	2100	0	0	0	1770
2020/09/21 05:54:01	BASE	4.46	110	5.92	114	-1.7	100	-1.7	0	0	983.5	NA	0.0000	-SN BR	1600	0	0	0	1770
2020/09/21 05:55:01	BASE	4.46	107	5.35	107	-1.7	100	-1.7	0	0	983.5	NA	0.0000	-SN BR	2300	0	0	0	1800
2020/09/21 05:56:01	BASE	4.21	106	5.14	112	-1.7	100	-1.7	0	0	983.6	NA	0.0000	-SN BR	2000	0	0	0	1870
2020/09/21 05:57:01	BASE	4.20	105	5.14	112	-1.7	100	-1.7	0	0	983.6	NA	0.0000	-SN BR	2300	0	0	0	1770
2020/09/21 05:58:01	BASE	4.30	104	5.14	112	-1.7	100	-1.7	0	0	983.6	NA	0.0000	-SN BR	2800	0	0	0	1800
2020/09/21 05:59:01	BASE	3.90	105	5.14	112	-1.8	100	-1.8	0	0	983.6	NA	0.0000	-SN BR	2700	0	0	0	1800
2020/09/21 06:00:01	BASE	3.71	105	5.14	112	-1.8	100	-1.8	0	0	983.6	NA	0.0000	-SN BR	2900	0	0	0	1770
2020/09/21 06:01:01	BASE	4.06	106	5.04	108	-1.8	100	-1.8	0	0	983.6	NA	0.0000	-SN BR	2600	0	0	0	1570
2020/09/21 06:02:01	BASE	4.05	110	4.99	110	-1.7	100	-1.7	0	0	983.5	NA	0.0000	-SN BR	2400	0	0	0	1510
2020/09/21 06:03:01	BASE	4.01	110	4.99	110	-1.7	100	-1.7	0	0	983.6	NA	0.0000	-SN BR	2400	0	0	0	1480
2020/09/21 06:04:01	BASE	4.02	107	4.78	104	-1.6	100	-1.6	0	0	983.5	NA	0.0000	-SN BR	1400	0	0	0	1350
2020/09/21 06:05:01	BASE	3.68	107	4.78	104	-1.6	100	-1.6	0	0	983.5	NA	0.0000	-SN BR	1800	0	0	0	1210
2020/09/21 06:06:01	BASE	3.48	108	4.78	104	-1.6	100	-1.6	0	0	983.5	NA	0.0000	-SN BR	1400	0	0	0	1280
2020/09/21 06:07:01	BASE	3.76	109	4.78	104	-1.5	100	-1.5	0	0	983.5	NA	0.2540	-SN BR	1200	0	0	0	1210
2020/09/21 06:08:01	BASE	4.29	108	4.78	107	-1.5	100	-1.5	0	0	983.5	NA	0.0000	-SN BR	1100	0	0	0	1210
2020/09/21 06:09:01	BASE	4.55	106	4.89	104	-1.5	100	-1.5	0	0	983.5	NA	0.0000	-SN BR	0900	0	0	0	1080
2020/09/21 06:10:01	BASE	4.36	105	4.89	104	-1.5	100	-1.5	0	0	983.5	NA	0.0000	-SN BR	0900	0	0	0	950
2020/09/21 06:11:01	BASE	4.09	103	4.89	104	-1.5	100	-1.5	0	0	983.5	NA	0.0000	-SN BR	0900	0	0	0	820
2020/09/21 06:12:01	BASE	3.91	105	4.89	104	-1.5	100	-1.5	0	0	983.5	NA	0.0000	-SN BR	0900	0	0	0	820
2020/09/21 06:13:01	BASE	3.86	106	4.89	104	-1.5	100	-1.5	0	0	983.5	NA	0.0000	-SN BR	1000	0	0	0	980
2020/09/21 06:14:01	BASE	3.75	104	4.89	104	-1.5	100	-1.5	0	0	983.5	NA	0.0000	-SN BR	1200	0	0	0	1020
2020/09/21 06:15:01	BASE	3.62	103	4.89	104	-1.5	100	-1.5	0	0	983.5	NA	0.0000	-SN BR	1400	0	0	0	1080
2020/09/21 06:16:01	BASE	3.64	102	4.89	104	-1.5	100	-1.5	0	0	983.5	NA	0.0000	-SN BR	2000	0	0	0	1120
2020/09/21 06:17:01	BASE	3.86	104	4.89	104	-1.6	100	-1.6	0	0	983.5	NA	0.0000	-SN BR	2200	0	0	0	1180
2020/09/21 06:18:01	BASE	3.98	108	4.89	104	-1.6	100	-1.6	0	0	983.5	NA	0.0000	-SN BR	2300	0	0	0	1280
2020/09/21 06:19:01	BASE	4.13	108	4.78	111	-1.6	100	-1.6	0	0	983.5	NA	0.0000	-SN BR	2400	0	0	0	1310
2020/09/21 06:20:01	BASE	4.31	107	4.78	111	-1.6	100	-1.6	0	0	983.5	NA	0.0000	-SN BR	2100	0	0	0	1250
2020/09/21 06:21:01	BASE	4.20	107	4.78	111	-1.6	100	-1.6	0	0	983.6	NA	0.0000	-SN BR	2200	0	0	0	1250
2020/09/21 06:22:01	BASE	4.08	109	4.78	111	-1.6	100	-1.6	0	0	983.5	NA	0.0000	-SN BR	2400	0	0	0	1210
2020/09/21 06:23:01	BASE	4.10	113	4.78	111	-1.6	100	-1.6	0	0	983.5	NA	0.0000	-SN BR	2000	0	0	0	1120
2020/09/21 06:24:01	BASE	4.34	117	4.89	122	-1.6	100	-1.6	0	0	983.5	NA	0.0000	-SN BR	1600	0	0	0	1050
2020/09/21 06:25:01	BASE	4.51	119	4.89	118	-1.6	100	-1.6	0	0	983.5	NA	0.0000	-SN BR	1200	0	0	0	980
2020/09/21 06:26:01	BASE	4.25	121	4.89	118	-1.6	100	-1.6	0	0	983.5	NA	0.0000	-SN BR	1200	0	0	0	1020
2020/09/21 06:27:00	BASE	3.85	123	4.89	118	-1.6	100	-1.6	0	0	983.5	NA	0.0000	-SN BR	1200	0	0	0	1050
2020/09/21 06:28:01	BASE	3.73	123	4.89	118	-1.6	100	-1.6	0	0	983.5	NA	0.0000	-SN BR	0800	0	0	0	1020
2020/09/21 06:29:01	BASE	3.78	124	4.89	118	-1.6	100	-1.6	0	0	983.5	NA	0.0000	-SN BR	0800	0	0	0	1020
2020/09/21 06:30:01	BASE	3.78	125	4.89	118	-1.6	100	-1.6	0	0	983.5	NA	0.0000	-SN BR	1000	0	0	0	1080
2020/09/21 06:31:01	BASE	3.82	124	4.89	118	-1.7	100	-1.7	0	0	983.5	NA	0.0000	-SN BR	1000	0	0	0	1180
2020/09/21 06:32:01	BASE	3.97	121	4.89	118	-1.7	100	-1.7	0	0	983.5	NA	0.0000	-SN BR	1300	0	0	0	1310
2020/09/21 06:33:01	BASE	4.18	117	4.89	118	-1.7	100	-1.7	0	0	983.5	NA	0.0000	-SN BR	1400	0	0	0	1380
2020/09/21 06:34:01	BASE	4.19	116	4.89	118	-1.7	100	-1.7	0	0	983.5	NA	0.0000	-SN BR	2000	0	0	0	1410
2020/09/21 06:35:01	BASE	3.99	116	4.58	119	-1.7	100	-1.7	0	0	983.5	NA	0.0000	-SN BR	2200	0	0	0	1410
2020/09/21 06:36:01	BASE	3.81	115	4.58	119	-1.7	100	-1.7	0	0	983.4	NA	0.0000	-SN BR	2500	0	0	0	1350
2020/09/21 06:37:01	BASE	3.87	115	4.58	119	-1.7	100	-1.7	0	0	983.5	NA	0.0000	-SN BR	2600	0	0	0	1380
2020/09/21 06:38:01	BASE	4.03	114	4.58	119	-1.7	100	-1.7	0	0	983.5	NA	0.0000	-SN BR	2900	0	0	0	1380
2020/09/21 06:39:01	BASE	3.94	114	4.58	119	-1.7	100	-1.7	0	0	983.5	NA	0.0000	-SN BR	2300	0	0	0	1350
2020/09/21 06:40:01	BASE	3.88	116	4.58	119	-1.7	100	-1.7	0	0	983.5	NA	0.0000	-SN BR	1900	0	0	0	1280
2020/09/21 06:41:01	BASE	3.93	118	4.58	119	-1.6	100	-1.6	0	0	983.5	NA	0.0000	-SN BR	1400	0	0	0	1250
2020/09/21 06:42:01	BASE	3.88	119	4.58	119	-1.6	100	-1.6	0	0	983.5	NA	0.0000	-SN BR	1200	0	0	0	1210
2020/09/21 06:43:01	BASE	3.94	120	4.37	121	-1.6	100	-1.6	0	0	983.5	NA	0.0000	-SN BR	1600	0	0	0	1350
2020/09/21 06:44:01	BASE	3.84	123	4.37	121	-1.6	100	-1.6	0	0	983.5	NA	0.0000	-SN BR	1900	0	0	0	1440
2020/09/21 06:45:01	BASE	3.58	126	4.37	121	-1.6	100	-1.6	0	0	983.5	NA	0.0000	-SN BR	2000	0	0	0	1670
2020/09/21 06:46:01	BASE	3.57	126	4.37	121	-1.7	100	-1.7	0	0	983.5	NA	0.0000	-SN BR	2300	0	0	0	1800
2020/09/21 06:47:01	BASE	3.70	125	4.37	121	-1.7	100	-1.7	0	0	983.5	NA	0.0000	-SN BR	2900	0	0	0	1970
2020/09/21 06:48:01	BASE	3.79	122	4.37	121	-1.8	100	-1.8	0	0	983.5	NA	0.0000	-SN BR	3300	0	0	0	1940
2020/09/21 06:49:01	BASE	3.80	120	4.37	121	-1.8	100	-1.8	0	0	983.5	NA	0.0000	-SN BR	3500	0	0	0	1840
2020/09/21 06:50:01	BASE	3.71	119	4.37	121	-1.8	100	-1.8	0	0	983.5	NA	0.0000	-SN BR	3900	0	0	0	1770
2020/09/21 06:51:01	BASE	3.63	123	4.37	121	-1.8	100	-1.8	0	0	983.5	NA	0.0000	-SN BR	4700	0	0	0	1770
2020/09/21 06:52:01	BASE	3.68	123	4.37	121	-1.8	100	-1.8	0	0	983.5	NA	0.0000	-SN BR	4900	0	0	0	1710
2020/09/21 06:53:01	BASE	3.73	120	4.12	124	-1.8	100	-1.8	0	0	983.5	NA	0.0000	-SN BR	4200	0	0	0	1740
2020/09/21 06:54:01	BASE	3.72	122	4.12	124	-1.8	100	-1.8	0	0	983.5	NA	0.0000	-SN BR	4500	0	0	0	1800
2020/09/21 06:55:01	BASE	3.68	125	4.12	124	-1.8	100	-1.8	0	0	983.5	NA	0.0000	-SN BR	4100	0	0	0	1870
2020/09/21 06:56:01	BASE	3.73	124	4.17	124	-1.8	100	-1.8	0	0	983.5	NA	0.0000	-SN BR	4300	0	0	0	1870
2020/09/21 06:57:00	BASE	3.85	126	4.37	132	-1.7	100	-1.7	0	0	983.5	NA	0.0000	-SN BR	4400	0	0	0	1800
2020/09/21 06:58:00	BASE	3.97	128	4.48	129	-1.7	100	-1.7	0	0	983.5	NA	0.0000	-SN BR	4400	0	0	0	1710
2020/09/21 06:59:00	BASE	4.07	128	4.48	129	-1.8	100	-1.8	0	0	983.5	NA	0.0000	-SN BR	4400	0	0	0	1670
2020/09/21 07:00:01	BASE	3.88	127	4.48	129	-1.8	100	-1.8	0	0	983.5	NA	0.0000	-SN BR	4300	0	0	0	1610
2020/09/21 07:01:01	BASE	3.69	124	4.48	129	-1.8	100	-1.8	0	0	983.5	NA	0.0000	-SN BR	4500	0	0	0	1570
2020/09/21 07:02:00	BASE	3.79	123	4.48	129	-1.8	100	-1.8	0	0	983.5	NA	0.0000	-SN BR	3800	0	0	0	1540
2020/09/21 07:03:01	BASE	3.84	124	4.48	129	-1.8	100	-1.8	0	0	983.5	NA	0.0000	-SN BR	2400	0	0	0	1610
2020/09/21 07:04:01	BASE	3.69	125	4.48	129	-1.8	100	-1.8	0	0	983.5	NA	0.0000	-SN BR	2300	0	0	0	1670
2020/09/21 07:05:00	BASE	3.57	126	4.48	129	-1.8	100	-1.8	0	0	983.5	NA	0.0000	-SN BR	2100	0	0	0	1640
2020/09/21 07:06:01	BASE	3.59	126	4.48	129	-1.8	100	-1.8	0	0	983.5	NA	0.0000	-SN BR	1300	0	0	0	1610
2020/09/21 07:07:00	BASE	3.71	127	4.48	129	-1.8	100	-1.8	0	0	983.5	NA	0.0000	-SN BR	1200	0	0	0	1610
2020/09/21 07:08:01	BASE	3.76	126	4.37	127	-1.8	100	-1.8	0	0	983.5	NA	0.0000	-SN BR	1300	0	0	0	1640
2020/09/21 07:09:01	BASE	3.92	125	4.53	132	-1.8	100	-1.8	0	0	983.5	NA	0.0000	-SN BR	1200	0	0	0	1770
2020/09/21 07:10:01	BASE	3.97	126	4.53	132	-1.8	100	-1.8	0	0	983.5	NA	0.0000	-SN BR	1900	0	0	0	1870
2020/09/21 07:11:01	BASE	3.95	127	4.53	132	-1.9	100	-1.9	0	0	983.5	NA	0.0000	-SN BR	2300	0	0	0	1900
2020/09/21 07:12:01	BASE	4.09	129	4.53	128	-1.9	100	-1.9	0	0	983.5	NA	0.0000	-SN BR	2900	0	0	0	1840
2020/09/21 07:13:01	BASE	4.18	129	4.58	130	-1.9	100	-1.9	0	0	983.5	NA	0.0000	-SN BR	3000	0	0	0	1970
2020/09/21 07:14:01	BASE	4.13	129	4.58	131	-1.9	100	-1.9	0	0	983.5	NA	0.0000	-SN BR	3300	0	0	0	2000
2020/09/21 07:15:01	BASE	3.94	128	4.58	131	-1.9	100	-1.9	0	0	983.5	NA	0.0000	-SN BR	3600	0	0	0	2400
2020/09/21 07:16:01	BASE	3.90	129	4.58	131	-1.9	100	-1.9	0	0	983.5	NA	0.0000	-SN BR	3400	0	0	0	2300
2020/09/21 07:17:00	BASE	3.94	133	4.58	131	-1.9	100	-1.9	0	0	983.5	NA	0.0000	-SN BR	3400	0	0	0	2560
2020/09/21 07:18:01	BASE	3.92	135	4.58	131	-1.9	100	-1.9	0	0	983.5	NA	0.0000	-SN BR	3700	0	0	0	2560
2020/09/21 07:19:01	BASE	3.93	137	4.58	131	-1.9	100	-1.9	0	0	983.5	NA	0.0000	-SN BR	3400	0	0	0	2530
2020/09/21 07:20:01	BASE	3.85	138	4.58	131	-1.9	100	-1.9	0	0	983.5	NA	0.0000	-SN BR	3600	0	0	0	2490
2020/09/21 07:21:01	BASE	3.75	140	4.58	131	-1.9	100	-1.9	0	0	983.5	NA	0.0000	-SN BR	3300	0	0	0	2400
2020/09/21 07:22:01	BASE	3.64	141	4.58	131	-2.0	100	-2.0	0	0	983.5	NA	0.0000	-SN BR	3600	0	0	0	2330
2020/09/21 07:23:01	BASE	3.36	141	4.58	131	-2.0	100	-2.0	0	0	983.5	NA	0.0000	-SN BR	2000	230	0	0	0
2020/09/21 07:24:01	BASE	3.31	141	4.32	139	-2.0	100	-2.0	0	0	983.5	NA	0.0000	-SN BR	4100	260	0	0	0
2020/09/21 07:25:01	BASE	3.31	140	4.32	139	-2.0	100	-2.0	0	0	983.5	NA	0.0000	-SN BR	5000	300	0	0	0
2020/09/21 07:26:01	BASE	3.35	141	4.32	139	-2.0	100	-2.0	0	0	983.5	NA	0.0000	-SN BR	5000	300	0	0	0
2020/09/21 07:27:00	BASE	3.38	142	4.32	139	-2.0	100	-2.0	0	0	983.5	NA	0.0000	-SN BR	5000	330	0	0	0
2020/09/21 07:28:01	BASE	3.47	144	4.22	141	-2.0	100	-2.0	0	0	983.5	NA	0.0000	-SN BR	6000	330	0	0	0
2020/09/21 07:29:01	BASE	3.53	148	4.22	141	-2.0	100	-2.0	0	0	983.5	NA	0.0000	-SN BR	6000	330	0	0	0
2020/09/21 07:30:00	BASE	3.26	153	4.22	141	-2.0	100	-2.0	0	0	983.5	NA	0.0000	-SN BR	5000	300	0	0	0
2020/09/21 07:31:01	BASE	3.05	154	4.01	152	-2.0	100	-2.0	0	0	983.5	NA	0.0000	-SN BR	3600	260	0	0	0
2020/09/21 07:32:01	BASE	2.82	152	4.01	152	-2.0	100	-2.0	0	0	983.5	NA	0.0000	-SN BR	2700	0	0	0	1870
2020/09/21 07:33:01	BASE	2.68	152	4.01	152	-2.0	100	-2.0	0	0	983.5	NA	0.0000	-SN BR	1600	0	0	0	1840
2020/09/21 07:34:00	BASE	2.72	150	4.01	152	-2.0	100	-2.0	0	0	983.5	NA	0.0000	-SN BR	2000	0	0	0	1800
2020/09/21 07:35:01	BASE	2.66	148	4.01	152	-2.0	100	-2.0	0	0	983.5	NA	0.0000	-SN BR	1900	0	0	0	1840
2020/09/21 07:36:01	BASE	2.55	147	4.01	152	-2.0	100	-2.0	0	0	983.5	NA	0.0000	-SN BR	2100	0	0	0	1800
2020/09/21 07:37:01	BASE	2.38	142	4.01	152	-2.0	100	-2.0	0	0	983.5	NA	0.0000	-SN BR	2000	0	0	0	1770
2020/09/21 07:38:01	BASE	2.33	135	3.81	147	-2.0	100	-2.0	0	0	983.5	NA	0.0000	-SN BR	2400	0	0	0	1770
2020/09/21 07:39:01	BASE	2.33	134	3.24	156	-2.0	100	-2.0	0	0	983.5	NA	0.0000	-SN BR	2600	0	0	0	1740
2020/09/21 07:40:01	BASE	2.15	137	3.19	156	-2.0	100	-2.0	0	0	983.5	NA	0.0000	-SN BR	2800	0	0	0	1710
2020/09/21 07:41:01	BASE	2.08	134	3.09	146	-2.0	100	-2.0	0	0	983.5	NA	0.0000	-SN BR	2700	0	0	0	1710
2020/09/21 07:42:01	BASE	2.21	130	3.09	146	-2.0	100	-2.0	0	0	983.5	NA	0.0000	-SN BR	2700	0	0	0	1770
2020/09/21 07:43:01	BASE	2.27	130	3.09	146	-2.0	100	-2.0	0	0	983.5	NA	0.0000	-SN BR	2800	0	0	0	1800
2020/09/21 07:44:01	BASE	2.37	127	2.88	140	-1.9	100	-1.9	0	0	983.5	NA	0.0000	-SN BR	2700	0	0	0	1840
2020/09/21 07:45:01	BASE	2.46	122	3.14	127	-1.9	100	-1.9	0	0	983.5	NA	0.0000	-SN BR	2900	0	0	0	1970
2020/09/21 07:46:01	BASE	2.63	121	3.14	127	-1.9	100	-1.9	0	0	983.5	NA	0.0000	-SN BR	3100	0	0	0	2130
2020/09/21 07:47:01	BASE	2.79	122	3.14	127	-1.8	100	-1.8	0	0	983.5	NA	0.0000	-SN BR	3300	0	0	0	2200
2020/09/21 07:48:00	BASE	2.58	123	3.14	127	-1.8	100	-1.8	0	0	983.5	NA	0.0000	-SN BR	3200	0	0	0	2200
2020/09/21 07:49:00	BASE	2.13	123	3.14	127	-1.8	100	-1.8	0	0	983.5	NA	0.0000	-SN BR	2900	0	0	0	2230
2020/09/21 07:50:00	BASE	1.68	124	3.14	127	-1.8	100	-1.8	0	0	983.5	NA	0.0000	-SN BR	3200	200	0	0	0
2020/09/21 07:51:00	BASE	0.84	129	3.14	127	-1.8	100	-1.8	0	0	983.5	NA	0.0000	-SN BR	3200	230	0	0	0
2020/09/21 07:52:01	BASE	0.09	165	3.14	127	-1.8	100	-1.8	0	0	983.5	NA	0.0000	-SN BR	3300	260	0	0	0
2020/09/21 07:53:00	BASE	0.00	279	3.14	127	-1.8	100	-1.8	0	0	983.5	NA	0.0000	-SN BR	5000	260	0	0	0
2020/09/21 07:54:00	BASE	0.00	334	3.14	127	-1.8	100	-1.8	0	0	983.5	NA	0.0000	-SN BR	4300	260	2920	0	0
2020/09/21 07:55:00	BASE	0.00	352	3.09	120	-1.9	100	-1.9	0	0	983.5	NA	0.0000	-SN BR	3800	260	2890	0	0
2020/09/21 07:56:00	BASE	0.00	357	2.98	120	-1.9	100	-1.9	0	0	983.5	NA	0.0000	-SN BR	3500	260	2850	0	0
2020/09/21 07:57:00	BASE	0.05	10	2.78	122	-1.9	100	-1.9	0	0	983.5	NA	0.0000	-SN BR	4500	260	1210	0	0
2020/09/21 07:58:01	BASE	0.05	28	2.31	123	-1.9	100	-1.9	0	0	983.5	NA	0.0000	-SN BR	5000	300	2850	0	0
2020/09/21 07:59:00	BASE	0.00	53	1.75	128	-2.0	100	-2.0	0	0	983.5	NA	0.0000	-SN BR	6000	260	2790	0	0
2020/09/21 08:00:00	BASE	0.09	73	1.18	87	-2.0	100	-2.0	0	0	983.5	NA	0.0000	-SN BR	5000	330	2790	0	0
2020/09/21 08:01:00	BASE	0.09	19	1.18	87	-2.0	100	-2.0	0	0	983.5	NA	0.0000	-SN BR	6000	360	2790	0	0
2020/09/21 08:02:00	BASE	0.00	332	1.18	87	-2.0	100	-2.0	0	0	983.5	NA	0.0000	-SN BR	8000	2820	3310	0	0
2020/09/21 08:03:00	BASE	0.09	343	1.18	87	-2.0	100	-2.0	0	0	983.5	NA	0.0000	-SN BR	6000	2760	3310	0	0
2020/09/21 08:04:00	BASE	0.09	329	1.18	87	-2.0	100	-2.0	0	0	983.5	NA	0.0000	-SN BR	9999	2690	3280	0	0
2020/09/21 08:05:00	BASE	0.46	323	1.70	313	-2.0	100	-2.0	0	0	983.5	NA	0.0000	-SN BR	9999	2690	3350	0	0
2020/09/21 08:06:00	BASE	0.76	311	1.70	313	-1.9	100	-1.9	0	0	983.5	NA	0.0000	-SN BR	9999	2690	3310	0	0
2020/09/21 08:07:00	BASE	0.30	269	1.70	313	-1.9	100	-1.9	0	0	983.5	NA	0.0000	-SN BR	9999	2720	3280	0	0
2020/09/21 08:08:00	BASE	0.00	258	1.70	313	-1.9	100	-1.9	0	0	983.5	NA	0.0000	-SN BR	9999	2690	3250	0	0
2020/09/21 08:09:00	BASE	0.23	262	1.70	313	-1.9	100	-1.9	0	0	983.5	NA	0.0000	-SN BR	9999	2690	3180	0	0
2020/09/21 08:10:00	BASE	0.94	246	1.70	313	-1.9	100	-1.9	0	0	983.6	NA	0.0000	-SN	9999	2660	3120	0	0
2020/09/21 08:11:00	BASE	1.53	233	1.75	234	-2.0	100	-2.0	0	0	983.6	NA	0.0000	-SN	9999	2590	3120	0	0
2020/09/21 08:12:00	BASE	1.80	230	2.06	229	-2.0	100	-2.0	0	0	983.6	NA	0.0000	-SN	9999	2260	2660	0	0
2020/09/21 08:13:00	BASE	1.98	228	2.11	227	-2.0	100	-2.0	0	0	983.6	NA	0.0000	-SN	9999	1570	2260	0	0
2020/09/21 08:14:00	BASE	2.06	222	2.21	218	-2.0	100	-2.0	0	0	983.7	NA	0.0000	-SN	9999	1570	2230	0	0
2020/09/21 08:15:00	BASE	2.15	213	2.42	211	-2.0	100	-2.0	0	0	983.6	NA	0.0000	-SN	9999	1570	2260	0	0
2020/09/21 08:16:00	BASE	1.95	204	2.42	211	-2.0	100	-2.0	0	0	983.7	NA	0.0000	-SN	9999	750	1540	0	0
2020/09/21 08:17:00	BASE	1.62	199	2.42	211	-2.0	100	-2.0	0	0	983.6	NA	0.0000	-SN	9999	1610	2230	0	0
2020/09/21 08:18:00	BASE	1.16	201	2.42	211	-2.0	100	-2.0	0	0	983.6	NA	0.0000	-SN	9999	1670	2200	3180	0
2020/09/21 08:19:00	BASE	0.41	226	2.42	211	-2.0	100	-2.0	0	0	983.7	NA	0.0000	-SN	9999	1570	2230	0	0
2020/09/21 08:20:00	BASE	0.00	245	2.42	211	-2.0	100	-2.0	0	0	983.7	NA	0.0000	-SN	9999	1570	2200	0	0
2020/09/21 08:21:00	BASE	0.00	256	2.42	211	-2.0	100	-2.0	0	0	983.7	NA	0.0000	-SN	9999	1570	2230	0	0
2020/09/21 08:22:00	BASE	0.00	248	2.42	211	-1.9	100	-1.9	0	0	983.7	NA	0.0000	-SN	9999	1640	2170	3120	0
2020/09/21 08:23:00	BASE	0.00	236	2.42	211	-1.9	100	-1.9	0	0	983.7	NA	0.0000	-SN	9999	2260	0	0	0
2020/09/21 08:24:00	BASE	0.05	259	2.42	211	-1.9	100	-1.9	0	0	983.7	NA	0.0000	-SN	9999	2260	2920	0	0
2020/09/21 08:25:00	BASE	0.89	287	2.21	212	-2.0	100	-2.0	0	0	983.7	NA	0.0000	-SN	9999	2360	0	0	0
2020/09/21 08:26:00	BASE	1.21	294	2.21	212	-2.0	100	-2.0	0	0	983.7	NA	0.0000	-SN	9999	2300	0	0	0
2020/09/21 08:27:00	BASE	0.56	290	2.06	299	-2.0	100	-2.0	0	0	983.7	NA	0.0000	-SN	9999	2260	0	0	0
2020/09/21 08:28:00	BASE	0.76	288	2.06	299	-2.0	100	-2.0	0	0	983.7	NA	0.0000	-SN	9999	2300	0	0	0
2020/09/21 08:29:00	BASE	0.98	286	2.06	299	-2.0	100	-2.0	0	0	983.7	NA	0.0000		9999	360	2430	0	0
2020/09/21 08:30:00	BASE	1.00	289	2.06	299	-2.0	100	-2.0	0	0	983.7	NA	0.0000		9999	360	2400	0	0
2020/09/21 08:31:00	BASE	1.28	290	2.06	299	-2.0	100	-2.0	0	0	983.7	NA	0.0000		9999	430	2360	0	0
2020/09/21 08:32:00	BASE	1.33	293	2.06	299	-2.0	100	-2.0	0	0	983.7	NA	0.0000		9999	330	2360	0	0
2020/09/21 08:33:00	BASE	1.22	295	2.06	299	-2.0	100	-2.0	0	0	983.6	NA	0.0000		9999	460	2400	0	0
2020/09/21 08:34:00	BASE	0.88	284	2.06	299	-2.0	100	-2.0	0	0	983.7	NA	0.0000		9999	390	2400	0	0
2020/09/21 08:35:00	BASE	0.70	283	1.75	313	-2.0	100	-2.0	0	0	983.7	NA	0.0000		9999	520	2430	0	0
2020/09/21 08:36:00	BASE	1.17	293	2.01	295	-2.0	100	-2.0	0	0	983.7	NA	0.0000		9999	520	1770	0	0
2020/09/21 08:37:00	BASE	1.46	292	2.01	295	-1.9	100	-1.9	0	0	983.7	NA	0.0000		9999	460	1770	0	0
2020/09/21 08:38:00	BASE	0.92	281	2.01	295	-1.9	100	-1.9	0	0	983.7	NA	0.0000		9999	390	1770	0	0
2020/09/21 08:39:00	BASE	0.42	276	2.01	295	-1.9	100	-1.9	0	0	983.6	NA	0.0000		9999	360	1800	0	0
2020/09/21 08:40:00	BASE	0.70	276	2.01	295	-1.9	100	-1.9	0	0	983.7	NA	0.0000		9999	330	0	0	0
2020/09/21 08:41:00	BASE	0.66	288	2.01	295	-1.9	100	-1.9	0	0	983.6	NA	0.0000		9999	260	0	0	0
2020/09/21 08:42:00	BASE	0.83	301	2.01	295	-1.9	100	-1.9	0	0	983.6	NA	0.0000		9999	260	0	0	0
2020/09/21 08:43:00	BASE	1.12	308	2.01	295	-1.9	100	-1.9	0	0	983.6	NA	0.0000		9999	260	0	0	0
2020/09/21 08:44:00	BASE	0.87	316	2.01	295	-1.9	100	-1.9	0	0	983.6	NA	0.0000		9999	230	0	0	0
2020/09/21 08:45:00	BASE	1.33	309	2.01	301	-1.9	100	-1.9	0	0	983.6	NA	0.0000		9999	230	0	0	0
2020/09/21 08:46:00	BASE	1.68	309	2.01	301	-1.9	100	-1.9	0	0	983.6	NA	0.0000		9999	230	1800	0	0
2020/09/21 08:47:00	BASE	1.18	315	2.01	301	-1.9	100	-1.9	0	0	983.6	NA	0.0000		9999	230	0	0	0
2020/09/21 08:48:00	BASE	1.20	317	2.31	330	-1.9	100	-1.9	0	0	983.6	NA	0.0000		9999	260	0	0	0
2020/09/21 08:49:00	BASE	1.78	325	2.42	327	-1.9	100	-1.9	0	0	983.6	NA	0.0000		9999	200	0	0	0
2020/09/21 08:50:00	BASE	1.88	329	2.42	327	-1.9	100	-1.9	0	0	983.6	NA	0.0000		9999	200	0	0	0
2020/09/21 08:51:00	BASE	1.67	322	2.42	327	-1.9	100	-1.9	0	0	983.7	NA	0.0000		9999	200	0	0	0
2020/09/21 08:52:00	BASE	1.65	310	2.42	327	-1.9	100	-1.9	0	0	983.7	NA	0.0000		9999	200	0	0	0
2020/09/21 08:53:00	BASE	1.72	311	2.42	327	-1.9	100	-1.9	0	0	983.7	NA	0.0000		9999	200	0	0	0
2020/09/21 08:54:00	BASE	1.85	315	2.52	316	-1.9	100	-1.9	0	0	983.7	NA	0.0000		9999	200	0	0	0
2020/09/21 08:55:00	BASE	2.43	321	3.34	335	-2.0	100	-2.0	0	0	983.7	NA	0.0000		9999	200	0	0	0
2020/09/21 08:56:00	BASE	2.96	329	3.45	331	-2.0	100	-2.0	0	0	983.7	NA	0.0000		9999	360	0	0	0
2020/09/21 08:57:00	BASE	3.40	331	3.91	330	-2.0	100	-2.0	0	0	983.7	NA	0.0000		9999	330	0	0	0
2020/09/21 08:58:00	BASE	3.60	331	3.91	330	-2.0	100	-2.0	0	0	983.7	NA	0.0000		9999	330	2200	0	0
2020/09/21 08:59:00	BASE	3.62	331	3.91	330	-2.0	100	-2.0	0	0	983.7	NA	0.0000		9999	300	2230	0	0
2020/09/21 09:00:00	BASE	3.53	333	3.91	330	-2.0	100	-2.0	0	0	983.7	NA	0.0000		9999	330	0	0	0
2020/09/21 09:01:00	BASE	3.48	333	3.91	330	-2.0	100	-2.0	0	0	983.7	NA	0.0000		9999	360	2200	0	0
2020/09/21 09:02:00	BASE	3.45	331	3.91	330	-2.0	100	-2.0	0	0	983.7	NA	0.0000		9999	360	2360	0	0
2020/09/21 09:03:00	BASE	3.30	332	3.91	330	-2.0	100	-2.0	0	0	983.7	NA	0.0000		9999	300	2720	0	0
2020/09/21 09:04:00	BASE	3.16	331	3.91	330	-2.0	100	-2.0	0	0	983.6	NA	0.0000		9999	300	2760	0	0
2020/09/21 09:05:00	BASE	2.92	328	3.91	330	-2.0	100	-2.0	0	0	983.6	NA	0.0000		9999	300	2790	0	0
2020/09/21 09:06:00	BASE	2.75	325	3.91	330	-2.0	100	-2.0	0	0	983.6	NA	0.0000		9999	330	0	0	0
2020/09/21 09:07:00	BASE	2.54	320	3.81	331	-2.0	100	-2.0	0	0	983.6	NA	0.0000		9999	230	2790	0	0
2020/09/21 09:08:00	BASE	2.32	315	3.81	331	-2.0	100	-2.0	0	0	983.6	NA	0.0000		9999	260	2790	0	0
2020/09/21 09:09:00	BASE	2.23	312	3.76	330	-2.0	100	-2.0	0	0	983.6	NA	0.0000		9999	230	0	0	0
2020/09/21 09:10:00	BASE	2.17	309	3.76	330	-2.0	100	-2.0	0	0	983.6	NA	0.0000		9999	230	0	0	0
2020/09/21 09:11:00	BASE	2.10	309	3.50	331	-2.0	100	-2.0	0	0	983.6	NA	0.0000		9999	200	0	0	0
2020/09/21 09:12:00	BASE	1.87	309	3.50	331	-2.0	100	-2.0	0	0	983.6	NA	0.0000		9999	230	0	0	0
2020/09/21 09:13:00	BASE	1.67	311	3.29	331	-2.0	100	-2.0	0	0	983.6	NA	0.0000		9999	230	0	0	0
2020/09/21 09:14:00	BASE	1.64	312	2.88	325	-2.0	100	-2.0	0	0	983.7	NA	0.0000		9999	230	0	0	0
2020/09/21 09:15:00	BASE	1.56	311	2.78	316	-2.0	100	-2.0	0	0	983.6	NA	0.0000		9999	300	0	0	0
2020/09/21 09:16:00	BASE	1.51	308	2.78	316	-2.0	100	-2.0	0	0	983.7	NA	0.0000		9999	360	0	0	0
2020/09/21 09:17:00	BASE	1.51	303	2.47	317	-2.0	100	-2.0	0	0	983.7	NA	0.0000		9999	260	0	0	0
2020/09/21 09:18:00	BASE	1.54	299	2.42	309	-2.0	100	-2.0	0	0	983.7	NA	0.0000		9999	230	0	0	0
2020/09/21 09:19:00	BASE	1.54	297	2.31	308	-2.0	100	-2.0	0	0	983.7	NA	0.0000		9999	260	0	0	0
2020/09/21 09:20:00	BASE	1.53	297	2.26	309	-2.0	100	-2.0	0	0	983.8	NA	0.0000		9999	260	0	0	0
2020/09/21 09:21:00	BASE	1.49	298	1.85	314	-2.0	100	-2.0	0	0	983.7	NA	0.0000		9999	300	0	0	0
2020/09/21 09:22:00	BASE	1.43	298	1.85	314	-2.0	100	-2.0	0	0	983.8	NA	0.0000		9999	330	0	0	0
2020/09/21 09:23:00	BASE	1.39	301	1.65	296	-2.0	100	-2.0	0	0	983.7	NA	0.0000		9999	300	0	0	0
2020/09/21 09:24:00	BASE	1.39	303	1.65	296	-2.0	100	-2.0	0	0	983.7	NA	0.0000		9999	330	0	0	0
2020/09/21 09:25:00	BASE	1.40	303	1.65	296	-2.0	100	-2.0	0	0	983.8	NA	0.0000		9999	360	0	0	0
2020/09/21 09:26:00	BASE	1.37	303	1.65	296	-2.0	100	-2.0	0	0	983.8	NA	0.0000		9999	330	0	0	0
2020/09/21 09:27:00	BASE	1.31	306	1.65	296	-2.0	100	-2.0	0	0	983.8	NA	0.0000		9999	360	0	0	0
2020/09/21 09:28:00	BASE	1.27	312	1.65	296	-2.0	100	-2.0	0	0	983.8	NA	0.0000		9999	360	0	0	0
2020/09/21 09:29:00	BASE	1.25	319	1.59	298	-2.0	100	-2.0	0	0	983.8	NA	0.0000		9999	360	0	0	0
2020/09/21 09:30:00	BASE	1.25	323	1.54	296	-2.0	100	-2.0	0	0	983.8	NA	0.0000		9999	360	0	0	0
2020/09/21 09:31:00	BASE	1.31	327	1.49	330	-2.0	100	-2.0	0	0	983.8	NA	0.0000		9999	360	0	0	0
2020/09/21 09:32:00	BASE	1.43	332	1.59	336	-2.0	100	-2.0	0	0	983.8	NA	0.0000		9999	360	0	0	0
2020/09/21 09:33:00	BASE	1.54	336	1.65	337	-2.0	100	-2.0	0	0	983.9	NA	0.0000		9999	330	0	0	0
2020/09/21 09:34:00	BASE	1.65	337	1.85	336	-2.0	100	-2.0	0	0	983.9	NA	0.0000		9999	330	0	0	0
2020/09/21 09:35:00	BASE	1.73	337	1.85	336	-2.0	100	-2.0	0	0	983.9	NA	0.0000		9999	330	0	0	0
2020/09/21 09:36:00	BASE	1.76	337	1.85	338	-2.0	100	-2.0	0	0	983.9	NA	0.0000		9999	330	0	0	0
2020/09/21 09:37:00	BASE	1.75	338	1.85	338	-2.0	100	-2.0	0	0	983.9	NA	0.0000		9999	330	0	0	0
2020/09/21 09:38:00	BASE	1.71	339	1.85	338	-2.0	100	-2.0	0	0	983.9	NA	0.0000		9999	330	0	0	0
2020/09/21 09:39:00	BASE	1.65	340	1.85	338	-2.0	100	-2.0	0	0	983.9	NA	0.0000		9999	360	0	0	0
2020/09/21 09:40:00	BASE	1.67	341	1.85	338	-2.0	100	-2.0	0	0	983.9	NA	0.0000		9999	330	0	0	0
2020/09/21 09:41:00	BASE	1.72	339	1.85	338	-2.0	100	-2.0	0	0	983.9	NA	0.0000		9999	330	0	0	0
2020/09/21 09:42:00	BASE	1.76	338	1.90	336	-2.0	100	-2.0	0	0	983.9	NA	0.0000		9999	330	0	0	0
2020/09/21 09:43:00	BASE	1.84	336	1.95	332	-2.0	100	-2.0	0	0	983.9	NA	0.0000		9999	300	0	0	0
2020/09/21 09:44:00	BASE	1.90	334	1.95	332	-2.0	100	-2.0	0	0	983.9	NA	0.0000		9999	300	0	0	0
2020/09/21 09:45:00	BASE	1.94	332	2.06	331	-2.0	100	-2.0	0	0	983.9	NA	0.0000		9999	260	0	0	0
2020/09/21 09:46:00	BASE	2.00	331	2.06	331	-2.0	100	-2.0	0	0	983.9	NA	0.0000		9999	260	0	0	0
2020/09/21 09:47:00	BASE	2.01	331	2.06	331	-2.0	100	-2.0	0	0	983.9	NA	0.0000		9999	260	0	0	0
2020/09/21 09:48:00	BASE	1.98	333	2.06	331	-2.0	100	-2.0	0	0	983.9	NA	0.0000		9999	260	0	0	0
2020/09/21 09:49:00	BASE	1.95	337	2.06	338	-2.0	100	-2.0	0	0	984.0	NA	0.0000		9999	230	0	0	0
2020/09/21 09:50:00	BASE	1.97	340	2.06	341	-2.0	100	-2.0	0	0	984.0	NA	0.0000		9999	200	0	0	0
2020/09/21 09:51:00	BASE	1.95	343	2.06	341	-2.0	100	-2.0	0	0	984.0	NA	0.0000		9999	200	0	0	0
2020/09/21 09:52:00	BASE	1.95	345	2.06	345	-2.0	100	-2.0	1	0	984.0	NA	0.0000		9999	200	0	0	0
2020/09/21 09:53:00	BASE	1.98	348	2.06	348	-2.0	100	-2.0	1	0	984.0	NA	0.0000		9999	0	0	0	1310
2020/09/21 09:54:00	BASE	1.99	350	2.06	349	-2.0	100	-2.0	1	0	984.0	NA	0.0000		9999	0	0	0	1380
2020/09/21 09:55:00	BASE	2.00	350	2.06	350	-2.0	100	-2.0	1	0	984.0	NA	0.0000		9999	0	0	0	1350
2020/09/21 09:56:00	BASE	1.99	351	2.06	349	-2.0	100	-2.0	1	0	984.0	NA	0.0000		9999	0	0	0	1280
2020/09/21 09:57:00	BASE	1.97	352	2.06	354	-2.0	100	-2.0	1	0	984.0	NA	0.0000		9999	0	0	0	1050
2020/09/21 09:58:00	BASE	1.93	355	2.06	354	-2.0	100	-2.0	1	0	984.0	NA	0.2540		9999	0	0	0	980
2020/09/21 09:59:00	BASE	1.92	354	2.06	354	-2.0	100	-2.0	1	0	984.0	NA	0.0000		9999	0	0	0	980
2020/09/21 10:00:00	BASE	1.98	350	2.06	346	-1.9	100	-1.9	1	0	984.0	NA	0.0000		9999	0	0	0	950
2020/09/21 10:01:00	BASE	2.02	347	2.11	344	-1.9	100	-1.9	2	0	984.0	NA	0.0000		9999	0	0	0	950
2020/09/21 10:02:00	BASE	2.00	345	2.11	344	-1.9	100	-1.9	2	0	984.1	NA	0.0000		9999	0	0	0	920
2020/09/21 10:03:00	BASE	1.97	344	2.11	344	-1.9	100	-1.9	2	0	984.1	NA	0.0000		9999	0	0	0	850
2020/09/21 10:04:00	BASE	2.06	343	2.21	343	-1.9	100	-1.9	2	0	984.1	NA	0.0000		9999	0	0	0	850
2020/09/21 10:05:01	BASE	2.11	344	2.21	343	-1.9	100	-1.9	2	0	984.1	NA	0.0000		9999	0	0	0	890
2020/09/21 10:06:00	BASE	2.08	345	2.31	344	-1.9	100	-1.9	2	0	984.1	NA	0.0000		9999	0	0	0	920
2020/09/21 10:07:00	BASE	2.20	345	2.42	342	-1.9	100	-1.9	3	0	984.1	NA	0.0000		9999	0	0	0	890
2020/09/21 10:08:00	BASE	2.32	344	2.42	342	-1.9	100	-1.9	3	0	984.1	NA	0.0000		9999	0	0	0	890
2020/09/21 10:09:00	BASE	2.35	342	2.42	341	-1.9	100	-1.9	3	0	984.1	NA	0.0000		9999	0	0	0	920
2020/09/21 10:10:00	BASE	2.39	341	2.52	338	-1.9	100	-1.9	3	0	984.1	NA	0.0000		9999	0	0	0	920
2020/09/21 10:11:00	BASE	2.39	341	2.52	338	-1.9	100	-1.9	4	0	984.1	NA	0.0000		9999	0	0	0	920
2020/09/21 10:12:00	BASE	2.43	342	2.68	340	-1.9	100	-1.9	4	0	984.1	NA	0.0000		9999	0	0	0	980
2020/09/21 10:13:00	BASE	2.48	344	2.68	340	-1.9	100	-1.9	4	0	984.1	NA	0.0000		9999	0	0	0	1310
2020/09/21 10:14:00	BASE	2.46	345	2.68	340	-1.9	100	-1.9	5	0	984.1	NA	0.0000		9999	0	0	0	1350
2020/09/21 10:15:01	BASE	2.51	345	2.68	346	-1.9	100	-1.9	5	0	984.1	NA	0.0000		9999	0	0	0	1050
2020/09/21 10:16:00	BASE	2.79	346	3.24	345	-1.8	100	-1.8	5	0	984.1	NA	0.0000		9999	0	0	0	1020
2020/09/21 10:17:00	BASE	3.20	346	3.55	347	-1.9	100	-1.9	5	0	984.1	NA	0.0000		9999	260	0	0	0
2020/09/21 10:18:00	BASE	3.41	345	3.55	345	-1.9	100	-1.9	6	0	984.1	NA	0.0000		9999	230	0	0	0
2020/09/21 10:19:00	BASE	3.44	346	3.55	347	-1.9	100	-1.9	6	0	984.1	NA	0.0000		9999	230	0	0	0
2020/09/21 10:20:00	BASE	3.35	347	3.55	347	-1.9	100	-1.9	7	0	984.1	NA	0.0000		9999	230	0	0	0
2020/09/21 10:21:00	BASE	3.23	349	3.55	347	-1.9	100	-1.9	7	0	984.1	NA	0.0000		9999	230	0	0	0
2020/09/21 10:22:00	BASE	3.22	353	3.55	347	-1.9	100	-1.9	8	0	984.1	NA	0.0000		9999	230	0	0	0
2020/09/21 10:23:00	BASE	3.25	354	3.55	347	-1.9	100	-1.9	8	0	984.1	NA	0.0000		9999	260	0	0	0
2020/09/21 10:24:00	BASE	3.24	353	3.55	347	-1.9	100	-1.9	9	0	984.1	NA	0.0000		9999	260	0	0	0
2020/09/21 10:25:00	BASE	3.13	348	3.55	347	-1.9	100	-1.9	9	0	984.1	NA	0.0000		9999	260	0	0	0
2020/09/21 10:26:00	BASE	2.92	347	3.55	347	-1.9	100	-1.9	10	0	984.1	NA	0.0000		9999	300	0	0	0
2020/09/21 10:27:00	BASE	2.83	355	3.55	347	-1.9	100	-1.9	10	0	984.1	NA	0.0000		9999	300	0	0	0
2020/09/21 10:28:00	BASE	2.92	359	3.55	347	-1.9	100	-1.9	11	0	984.1	NA	0.0000		9999	300	0	0	0
2020/09/21 10:29:00	BASE	3.05	357	3.40	353	-1.9	100	-1.9	11	0	984.1	NA	0.0000		9999	300	0	0	0
2020/09/21 10:30:00	BASE	3.07	350	3.40	353	-1.8	100	-1.8	12	0	984.1	NA	0.0000		9999	300	0	0	0
2020/09/21 10:31:00	BASE	3.10	349	3.40	353	-1.8	100	-1.8	12	0	984.1	NA	0.0000		9999	300	0	0	0
2020/09/21 10:32:00	BASE	3.21	353	3.34	351	-1.8	100	-1.8	13	0	984.1	NA	0.0000		9999	300	920	0	0
2020/09/21 10:33:00	BASE	3.29	353	3.45	354	-1.8	100	-1.8	13	0	984.1	NA	0.0000		9999	300	950	0	0
2020/09/21 10:34:00	BASE	3.32	353	3.50	351	-1.8	100	-1.8	13	0	984.1	NA	0.0000		9999	330	1610	0	0
2020/09/21 10:35:00	BASE	3.27	353	3.50	351	-1.8	100	-1.8	14	0	984.1	NA	0.0000		9999	300	890	0	0
2020/09/21 10:36:00	BASE	3.14	352	3.50	351	-1.8	100	-1.8	14	0	984.1	NA	0.0000		9999	330	850	0	0
2020/09/21 10:37:00	BASE	3.04	350	3.50	351	-1.8	100	-1.8	14	0	984.2	NA	0.0000		9999	330	0	0	0
2020/09/21 10:38:00	BASE	3.20	349	3.55	346	-1.8	100	-1.8	14	0	984.2	NA	0.0000		9999	330	1710	0	0
2020/09/21 10:39:00	BASE	3.44	351	3.91	349	-1.8	100	-1.8	14	0	984.2	NA	0.0000		9999	330	1670	0	0
2020/09/21 10:40:00	BASE	3.40	351	3.91	349	-1.8	100	-1.8	15	0	984.2	NA	0.0000		9999	300	0	0	0
2020/09/21 10:41:00	BASE	3.31	346	3.91	349	-1.8	100	-1.8	15	0	984.2	NA	0.0000		9999	300	720	0	0
2020/09/21 10:42:00	BASE	3.40	347	3.91	349	-1.8	100	-1.8	15	0	984.2	NA	0.0000		9999	330	1640	0	0
2020/09/21 10:43:00	BASE	3.26	350	3.91	349	-1.8	100	-1.8	16	0	984.2	NA	0.0000		9999	330	0	0	0
2020/09/21 10:44:00	BASE	2.97	349	3.91	349	-1.8	100	-1.8	16	0	984.2	NA	0.0000		9999	300	0	0	0
2020/09/21 10:45:00	BASE	2.89	346	3.91	349	-1.8	100	-1.8	16	0	984.2	NA	0.0000		9999	300	0	0	0
2020/09/21 10:46:00	BASE	2.74	349	3.91	349	-1.8	100	-1.8	17	0	984.2	NA	0.0000		9999	300	0	0	0
2020/09/21 10:47:00	BASE	2.62	352	3.91	349	-1.8	100	-1.8	17	0	984.2	NA	0.0000		9999	300	0	0	0
2020/09/21 10:48:00	BASE	2.64	347	3.91	349	-1.8	100	-1.8	17	0	984.2	NA	0.0000		9999	330	0	0	0
2020/09/21 10:49:00	BASE	2.75	342	3.60	355	-1.8	100	-1.8	17	0	984.2	NA	0.0000		9999	360	0	0	0
2020/09/21 10:50:00	BASE	2.84	339	3.60	355	-1.8	100	-1.8	17	0	984.2	NA	0.0000		9999	330	0	0	0
2020/09/21 10:51:00	BASE	2.86	337	3.60	355	-1.8	100	-1.8	18	0	984.2	NA	0.0000		9999	330	0	0	0
2020/09/21 10:52:00	BASE	3.04	340	3.45	343	-1.8	100	-1.8	18	0	984.2	NA	0.0000		9999	360	0	0	0
2020/09/21 10:53:00	BASE	2.87	340	3.45	343	-1.8	100	-1.8	19	0	984.2	NA	0.0000		9999	300	0	0	0
2020/09/21 10:54:00	BASE	2.51	340	3.45	343	-1.8	100	-1.8	20	0	984.2	NA	0.0000		9999	330	0	0	0
2020/09/21 10:55:00	BASE	2.46	341	3.45	343	-1.8	100	-1.8	20	0	984.2	NA	0.0000		9999	300	0	0	0
2020/09/21 10:56:00	BASE	2.40	342	3.45	343	-1.8	100	-1.8	20	0	984.2	NA	0.0000		9999	260	0	0	0
2020/09/21 10:57:00	BASE	2.39	338	3.45	343	-1.8	100	-1.8	21	0	984.2	NA	0.0000		9999	260	0	0	0
2020/09/21 10:58:00	BASE	2.38	337	3.45	343	-1.8	100	-1.8	23	0	984.3	NA	0.0000		9999	260	0	0	0
2020/09/21 10:59:00	BASE	2.26	338	3.45	343	-1.8	100	-1.8	24	0	984.3	NA	0.0000		9999	230	0	0	0
2020/09/21 11:00:00	BASE	2.20	336	3.45	343	-1.8	100	-1.8	26	0	984.3	NA	0.0000		9999	230	0	0	0
2020/09/21 11:01:00	BASE	2.31	332	3.45	343	-1.8	100	-1.8	27	0	984.3	NA	0.0000		9999	230	0	0	0
2020/09/21 11:02:00	BASE	2.24	334	2.98	337	-1.8	100	-1.8	29	0	984.4	NA	0.0000		9999	230	0	0	0
2020/09/21 11:03:00	BASE	2.19	336	2.73	333	-1.8	100	-1.8	31	0	984.3	NA	0.0000		9999	200	0	0	0
2020/09/21 11:04:00	BASE	2.34	336	2.73	333	-1.8	100	-1.8	32	0	984.3	NA	0.0000		9999	230	0	0	0
2020/09/21 11:05:00	BASE	2.57	339	3.09	343	-1.8	100	-1.8	33	0	984.3	NA	0.0000		9999	230	0	0	0
2020/09/21 11:06:00	BASE	2.84	341	3.29	343	-1.8	100	-1.8	32	0	984.3	NA	0.0000		9999	200	0	0	0
2020/09/21 11:07:00	BASE	2.74	337	3.29	343	-1.8	100	-1.8	32	0	984.4	NA	0.0000		9999	200	0	0	0
2020/09/21 11:08:00	BASE	2.61	332	3.29	343	-1.8	100	-1.8	32	0	984.4	NA	0.0000		9999	200	0	0	0
2020/09/21 11:09:00	BASE	2.60	335	3.29	343	-1.8	100	-1.8	31	0	984.4	NA	0.0000		9999	230	0	0	0
2020/09/21 11:10:00	BASE	2.77	338	3.55	329	-1.8	100	-1.8	30	0	984.4	NA	0.0000		9999	260	0	0	0
2020/09/21 11:11:00	BASE	2.82	340	3.55	329	-1.8	100	-1.8	30	0	984.3	NA	0.0000		9999	260	0	0	0
2020/09/21 11:12:00	BASE	2.81	341	3.55	329	-1.8	100	-1.8	30	0	984.4	NA	0.0000		9999	200	0	0	0
2020/09/21 11:13:00	BASE	2.95	335	3.55	329	-1.8	100	-1.8	31	0	984.4	NA	0.0000		9999	200	0	0	0
2020/09/21 11:14:00	BASE	2.81	338	3.55	329	-1.8	100	-1.8	33	0	984.4	NA	0.0000		9999	230	0	0	0
2020/09/21 11:15:00	BASE	2.77	343	3.55	329	-1.8	100	-1.8	34	0	984.4	NA	0.0000		9999	230	0	0	0
2020/09/21 11:16:00	BASE	2.81	339	3.55	329	-1.8	100	-1.8	37	0	984.4	NA	0.0000		9999	200	0	0	0
2020/09/21 11:17:00	BASE	2.69	336	3.55	329	-1.8	100	-1.8	38	0	984.4	NA	0.0000		9999	300	0	0	0
2020/09/21 11:18:00	BASE	2.71	335	3.55	329	-1.8	100	-1.8	39	0	984.3	NA	0.0000		9999	330	0	0	0
2020/09/21 11:19:00	BASE	2.96	341	3.55	329	-1.8	100	-1.8	40	0	984.3	NA	0.0000		9999	260	0	0	0
2020/09/21 11:20:00	BASE	2.87	345	3.40	329	-1.8	100	-1.8	40	0	984.3	NA	0.0000		9999	260	0	0	0
2020/09/21 11:21:00	BASE	2.61	339	3.40	329	-1.8	100	-1.8	40	0	984.3	NA	0.0000		9999	260	0	0	0
2020/09/21 11:22:00	BASE	2.63	329	3.40	329	-1.8	100	-1.8	40	0	984.4	NA	0.0000		9999	300	0	0	0
2020/09/21 11:23:00	BASE	2.70	332	3.34	341	-1.8	100	-1.8	41	0	984.3	NA	0.0000		9999	300	0	0	0
2020/09/21 11:24:00	BASE	2.62	340	3.34	341	-1.8	100	-1.8	42	0	984.4	NA	0.0000		9999	300	0	0	0
2020/09/21 11:25:00	BASE	2.45	340	3.34	341	-1.8	100	-1.8	44	0	984.4	NA	0.0000		9999	260	660	0	0
2020/09/21 11:26:00	BASE	2.20	340	3.34	341	-1.8	100	-1.8	46	0	984.4	NA	0.0000		9999	360	0	0	0
2020/09/21 11:27:00	BASE	2.02	344	3.34	341	-1.8	100	-1.8	46	0	984.4	NA	0.0000		9999	230	0	0	0
2020/09/21 11:28:00	BASE	1.95	346	3.34	341	-1.8	100	-1.8	48	0	984.4	NA	0.0000		9999	200	720	0	0
2020/09/21 11:29:00	BASE	2.03	347	2.93	337	-1.8	100	-1.8	50	0	984.4	NA	0.0000		9999	230	690	0	0
2020/09/21 11:30:00	BASE	2.07	346	2.93	337	-1.8	100	-1.8	51	0	984.3	NA	0.0000		9999	230	0	0	0
2020/09/21 11:31:00	BASE	1.89	338	2.83	338	-1.8	100	-1.8	51	0	984.3	NA	0.0000		9999	300	0	0	0
2020/09/21 11:32:00	BASE	1.69	328	2.83	338	-1.8	100	-1.8	50	0	984.3	NA	0.0000		9999	230	0	0	0
2020/09/21 11:33:00	BASE	1.58	329	2.78	336	-1.8	100	-1.8	51	0	984.3	NA	0.0000		9999	230	0	0	0
2020/09/21 11:34:00	BASE	1.63	342	2.62	335	-1.8	100	-1.8	50	0	984.3	NA	0.0000		9999	390	0	0	0
2020/09/21 11:35:00	BASE	1.56	350	2.31	347	-1.8	100	-1.8	50	0	984.3	NA	0.0000		9999	390	0	0	0
2020/09/21 11:36:00	BASE	1.52	351	2.31	347	-1.8	100	-1.8	49	0	984.3	NA	0.0000		9999	390	0	0	0
2020/09/21 11:37:00	BASE	1.77	354	2.31	347	-1.8	100	-1.8	49	0	984.3	NA	0.0000		9999	330	0	0	0
2020/09/21 11:38:00	BASE	2.04	347	2.31	344	-1.8	100	-1.8	49	0	984.3	NA	0.0000		9999	260	0	0	0
2020/09/21 11:39:00	BASE	2.15	335	2.47	336	-1.8	100	-1.8	49	0	984.3	NA	0.0000		9999	230	0	0	0
2020/09/21 11:40:00	BASE	1.86	331	2.47	336	-1.8	100	-1.8	50	0	984.3	NA	0.0000		9999	230	0	0	0
2020/09/21 11:41:00	BASE	1.94	336	2.62	334	-1.7	100	-1.7	50	0	984.3	NA	0.0000		9999	390	0	0	0
2020/09/21 11:42:00	BASE	2.18	344	2.62	334	-1.7	100	-1.7	50	0	984.3	NA	0.0000		9999	390	0	0	0
2020/09/21 11:43:00	BASE	2.02	351	2.62	334	-1.7	100	-1.7	50	0	984.3	NA	0.0000		9999	360	0	0	0
2020/09/21 11:44:00	BASE	2.07	349	2.62	334	-1.7	100	-1.7	51	0	984.3	NA	0.0000		9999	300	0	0	0
2020/09/21 11:45:00	BASE	2.02	346	2.62	334	-1.7	100	-1.7	52	0	984.3	NA	0.0000		9999	300	820	0	0
2020/09/21 11:46:00	BASE	2.08	346	2.62	334	-1.7	100	-1.7	53	0	984.3	NA	0.0000		9999	720	0	0	0
2020/09/21 11:47:00	BASE	2.36	349	2.62	360	-1.7	100	-1.7	55	0	984.3	NA	0.0000		9999	330	0	0	0
2020/09/21 11:48:00	BASE	2.48	355	2.73	360	-1.7	100	-1.7	57	0	984.3	NA	0.2540		9999	720	0	0	0
2020/09/21 11:49:00	BASE	2.52	350	2.73	360	-1.7	100	-1.7	58	0	984.3	NA	0.0000		9999	790	0	0	0
2020/09/21 11:50:00	BASE	2.39	344	2.73	360	-1.7	100	-1.7	59	0	984.3	NA	0.0000		9999	820	0	0	0
2020/09/21 11:51:00	BASE	2.34	347	2.73	360	-1.7	100	-1.7	60	0	984.3	NA	0.0000		9999	790	0	0	0
2020/09/21 11:52:00	BASE	2.50	348	2.93	354	-1.7	100	-1.7	60	0	984.3	NA	0.0000		9999	790	0	0	0
2020/09/21 11:53:00	BASE	2.57	348	2.93	354	-1.7	100	-1.7	61	0	984.3	NA	0.0000		9999	750	0	0	0
2020/09/21 11:54:00	BASE	2.53	346	3.09	337	-1.7	100	-1.7	63	0	984.3	NA	0.0000		9999	790	0	0	0
2020/09/21 11:55:00	BASE	2.51	342	3.09	337	-1.7	100	-1.7	65	0	984.3	NA	0.0000		9999	850	0	0	0
2020/09/21 11:56:00	BASE	2.37	344	3.09	337	-1.7	100	-1.7	68	0	984.3	NA	0.0000		9999	820	0	0	0
2020/09/21 11:57:00	BASE	2.26	355	3.09	337	-1.7	100	-1.7	70	0	984.3	NA	0.0000		9999	790	0	0	0
2020/09/21 11:58:00	BASE	2.41	1	3.09	337	-1.7	100	-1.7	72	0	984.3	NA	0.0000		9999	950	19820	0	0
2020/09/21 11:59:00	BASE	2.43	1	3.09	337	-1.7	100	-1.7	73	0	984.3	NA	0.0000		9999	820	0	0	0
2020/09/21 12:00:00	BASE	2.38	1	3.09	337	-1.7	100	-1.7	75	0	984.3	NA	0.0000		9999	920	0	0	0
2020/09/21 12:01:00	BASE	2.48	354	3.09	337	-1.7	100	-1.7	76	0	984.3	NA	0.0000		9999	950	0	0	0
2020/09/21 12:02:00	BASE	2.34	351	3.09	337	-1.7	100	-1.7	76	0	984.3	NA	0.0000		9999	920	0	0	0
2020/09/21 12:03:00	BASE	2.35	350	3.09	337	-1.7	100	-1.7	75	0	984.3	NA	0.0000		9999	1050	0	0	0
2020/09/21 12:04:00	BASE	2.51	347	2.83	347	-1.7	100	-1.7	74	0	984.3	NA	0.0000		9999	1080	0	0	0
2020/09/21 12:05:00	BASE	2.55	346	2.68	346	-1.7	100	-1.7	73	0	984.3	NA	0.0000		9999	1120	0	0	0
2020/09/21 12:06:00	BASE	2.66	351	2.83	128	-1.7	100	-1.7	72	0	984.3	NA	0.0000		9999	1080	0	0	0
2020/09/21 12:07:00	BASE	2.74	349	2.88	345	-1.7	100	-1.7	72	0	984.3	NA	0.0000		9999	1080	0	0	0
2020/09/21 12:08:00	BASE	2.75	345	2.88	343	-1.7	100	-1.7	71	0	984.3	NA	0.0000		9999	1050	0	0	0
2020/09/21 12:09:00	BASE	2.72	347	3.04	335	-1.7	100	-1.7	71	0	984.3	NA	0.0000		9999	1050	0	0	0
2020/09/21 12:10:00	BASE	2.68	348	3.04	335	-1.7	100	-1.7	71	0	984.3	NA	0.0000		9999	1080	0	0	0
2020/09/21 12:11:00	BASE	2.62	351	3.04	335	-1.7	100	-1.7	70	0	984.4	NA	0.0000		9999	1080	0	0	0
2020/09/21 12:12:00	BASE	2.65	354	3.04	335	-1.7	100	-1.7	70	0	984.4	NA	0.0000		9999	1080	0	0	0
2020/09/21 12:13:00	BASE	2.74	353	3.09	354	-1.7	100	-1.7	70	0	984.4	NA	0.0000		9999	1050	21160	0	0
2020/09/21 12:14:00	BASE	2.91	350	3.29	351	-1.7	100	-1.7	70	0	984.4	NA	0.0000		9999	1050	0	0	0
2020/09/21 12:15:00	BASE	3.03	349	3.34	348	-1.7	100	-1.7	70	0	984.4	NA	0.0000		9999	1080	0	0	0
2020/09/21 12:16:00	BASE	3.11	351	3.55	341	-1.7	100	-1.7	70	0	984.5	NA	0.0000		9999	1050	0	0	0
2020/09/21 12:17:00	BASE	3.31	348	3.76	345	-1.7	100	-1.7	70	0	984.4	NA	0.0000		9999	1050	0	0	0
2020/09/21 12:18:00	BASE	3.37	348	3.76	345	-1.7	100	-1.7	71	0	984.4	NA	0.0000		9999	1020	0	0	0
2020/09/21 12:19:00	BASE	3.61	348	4.01	340	-1.7	100	-1.7	72	0	984.3	NA	0.0000		9999	1080	0	0	0
2020/09/21 12:20:00	BASE	3.86	344	4.12	347	-1.7	100	-1.7	74	0	984.3	NA	0.0000		9999	1050	0	0	0
2020/09/21 12:21:00	BASE	3.68	343	4.12	347	-1.7	100	-1.7	77	0	984.4	NA	0.0000		9999	1080	0	0	0
2020/09/21 12:22:00	BASE	3.53	345	4.12	347	-1.7	100	-1.7	81	0	984.4	NA	0.0000		9999	1020	0	0	0
2020/09/21 12:23:00	BASE	3.67	346	4.22	346	-1.7	100	-1.7	85	0	984.4	NA	0.0000		9999	980	0	0	0
2020/09/21 12:24:00	BASE	4.03	343	4.78	341	-1.7	100	-1.7	89	0	984.4	NA	0.0000		9999	850	0	0	0
2020/09/21 12:25:00	BASE	3.96	340	4.78	341	-1.7	100	-1.7	94	0	984.5	NA	0.0000		9999	980	0	0	0
2020/09/21 12:26:00	BASE	3.87	344	4.78	341	-1.7	100	-1.7	98	0	984.4	NA	0.0000		9999	750	0	0	0
2020/09/21 12:27:00	BASE	3.97	347	4.78	341	-1.7	100	-1.7	103	0	984.3	NA	0.0000		9999	720	0	0	0
2020/09/21 12:28:00	BASE	3.84	348	4.78	341	-1.7	100	-1.7	108	0	984.3	NA	0.0000		9999	660	0	0	0
2020/09/21 12:29:00	BASE	3.70	349	4.78	341	-1.7	100	-1.7	114	0	984.3	NA	0.0000		9999	690	0	0	0
2020/09/21 12:30:00	BASE	3.63	349	4.78	341	-1.7	100	-1.7	119	0	984.3	NA	0.0000		9999	750	0	0	0
2020/09/21 12:31:00	BASE	3.65	349	4.78	341	-1.7	100	-1.7	124	0	984.3	NA	0.0000		9999	750	21850	0	0
2020/09/21 12:32:00	BASE	3.69	350	4.78	341	-1.7	100	-1.7	129	0	984.3	NA	0.0000		9999	820	0	0	0
2020/09/21 12:33:00	BASE	3.66	350	4.78	341	-1.7	100	-1.7	134	0	984.3	NA	0.0000		9999	790	0	0	0
2020/09/21 12:34:00	BASE	3.47	348	4.32	348	-1.7	100	-1.7	138	0	984.3	NA	0.0000		9999	790	0	0	0
2020/09/21 12:35:00	BASE	3.47	347	4.32	348	-1.7	100	-1.7	140	0	984.3	NA	0.0000		9999	790	0	0	0
2020/09/21 12:36:00	BASE	3.39	346	4.22	344	-1.7	100	-1.7	142	0	984.3	NA	0.0000		9999	820	0	0	0
2020/09/21 12:37:00	BASE	3.33	347	4.22	344	-1.7	100	-1.7	143	0	984.3	NA	0.0000		9999	890	0	0	0
2020/09/21 12:38:00	BASE	3.47	347	3.96	347	-1.7	100	-1.7	143	0	984.3	NA	0.0000		9999	790	0	0	0
2020/09/21 12:39:00	BASE	3.41	350	3.96	347	-1.7	100	-1.7	142	0	984.3	NA	0.0000		9999	920	0	0	0
2020/09/21 12:40:00	BASE	3.51	352	4.01	351	-1.7	100	-1.7	140	0	984.3	NA	0.0000		9999	950	1710	0	0
2020/09/21 12:41:00	BASE	3.81	350	4.17	349	-1.7	100	-1.7	140	0	984.3	NA	0.0000		9999	920	1640	0	0
2020/09/21 12:42:00	BASE	4.00	349	4.37	345	-1.7	100	-1.7	138	0	984.3	NA	0.0000		9999	850	1540	0	0
2020/09/21 12:43:00	BASE	3.87	349	4.37	345	-1.7	100	-1.7	135	0	984.3	NA	0.0000		9999	820	1610	0	0
2020/09/21 12:44:00	BASE	3.66	349	4.37	345	-1.7	100	-1.7	133	0	984.3	NA	0.0000		9999	920	1610	0	0
2020/09/21 12:45:00	BASE	3.69	347	4.37	345	-1.7	100	-1.7	131	0	984.3	NA	0.0000		9999	950	1540	0	0
2020/09/21 12:46:00	BASE	3.81	347	4.37	345	-1.7	100	-1.7	130	0	984.3	NA	0.0000		9999	1020	1540	0	0
2020/09/21 12:47:00	BASE	3.81	347	4.37	345	-1.7	100	-1.7	129	0	984.3	NA	0.0000		9999	1510	0	0	0
2020/09/21 12:48:00	BASE	3.74	346	4.37	345	-1.7	100	-1.7	127	0	984.3	NA	0.0000		9999	1180	0	0	0
2020/09/21 12:49:00	BASE	3.85	348	4.37	345	-1.7	100	-1.7	126	0	984.3	NA	0.0000		9999	1020	1570	0	0
2020/09/21 12:50:00	BASE	3.70	349	4.37	345	-1.8	100	-1.8	128	0	984.3	NA	0.0000		9999	1050	0	0	0
2020/09/21 12:51:00	BASE	3.69	349	4.37	345	-1.8	100	-1.8	129	0	984.3	NA	0.0000		9999	1050	0	0	0
2020/09/21 12:52:00	BASE	3.90	350	4.22	349	-1.8	100	-1.8	132	0	984.3	NA	0.2540		9999	1380	0	0	0
2020/09/21 12:53:00	BASE	3.91	348	4.22	349	-1.8	100	-1.8	136	0	984.3	NA	0.0000		9999	1120	1610	0	0
2020/09/21 12:54:00	BASE	3.83	347	4.22	349	-1.8	100	-1.8	144	0	984.3	NA	0.0000		9999	1050	0	0	0
2020/09/21 12:55:00	BASE	3.88	349	4.37	354	-1.8	100	-1.8	145	0	984.3	NA	0.0000		9999	1080	0	0	0
2020/09/21 12:56:00	BASE	4.01	351	4.37	354	-1.8	100	-1.8	146	0	984.3	NA	0.0000		9999	1020	0	0	0
2020/09/21 12:57:00	BASE	3.80	353	4.37	354	-1.8	100	-1.8	146	0	984.3	NA	0.0000		9999	1050	0	0	0
2020/09/21 12:58:00	BASE	3.83	352	4.37	354	-1.8	100	-1.8	149	0	984.3	NA	0.0000		9999	1020	0	0	0
2020/09/21 12:59:00	BASE	4.06	348	4.58	352	-1.8	100	-1.8	152	0	984.3	NA	0.0000		9999	1080	0	0	0
2020/09/21 13:00:00	BASE	3.95	349	4.58	352	-1.7	100	-1.7	151	0	984.4	NA	0.0000		9999	1150	0	0	0
2020/09/21 13:01:00	BASE	3.67	353	4.58	352	-1.7	100	-1.7	154	0	984.5	NA	0.0000		9999	1120	0	0	0
2020/09/21 13:02:00	BASE	3.69	351	4.58	352	-1.7	100	-1.7	154	0	984.4	NA	0.0000		9999	980	0	0	0
2020/09/21 13:03:00	BASE	3.93	350	4.58	352	-1.7	100	-1.7	155	0	984.5	NA	0.0000		9999	1050	0	0	0
2020/09/21 13:04:00	BASE	3.99	348	4.58	352	-1.7	100	-1.7	156	0	984.5	NA	0.0000		9999	980	0	0	0
2020/09/21 13:05:00	BASE	3.84	349	4.58	352	-1.7	100	-1.7	161	0	984.5	NA	0.0000		9999	920	0	0	0
2020/09/21 13:06:00	BASE	3.68	349	4.58	352	-1.7	100	-1.7	167	0	984.5	NA	0.0000		9999	1050	0	0	0
2020/09/21 13:07:00	BASE	3.99	347	4.58	343	-1.7	100	-1.7	173	0	984.5	NA	0.0000		9999	1020	0	0	0
2020/09/21 13:08:00	BASE	4.12	343	4.58	343	-1.6	100	-1.6	177	0	984.5	NA	0.0000		9999	890	0	0	0
2020/09/21 13:09:00	BASE	3.88	340	4.58	343	-1.6	100	-1.6	175	0	984.5	NA	0.0000		9999	890	0	0	0
2020/09/21 13:10:00	BASE	3.79	343	4.58	343	-1.6	100	-1.6	169	0	984.5	NA	0.0000		9999	1080	0	0	0
2020/09/21 13:11:00	BASE	3.71	343	4.58	343	-1.6	100	-1.6	165	0	984.5	NA	0.0000		9999	1120	0	0	0
2020/09/21 13:12:00	BASE	3.66	338	4.58	343	-1.6	100	-1.6	161	0	984.5	NA	0.0000		9999	1050	0	0	0
2020/09/21 13:13:00	BASE	3.63	335	4.58	343	-1.6	100	-1.6	158	0	984.5	NA	0.0000		9999	1410	0	0	0
2020/09/21 13:14:00	BASE	3.87	336	4.58	343	-1.6	100	-1.6	157	0	984.5	NA	0.0000		9999	1350	0	0	0
2020/09/21 13:15:00	BASE	3.97	338	4.58	343	-1.6	100	-1.6	157	0	984.5	NA	0.0000		9999	1380	0	0	0
2020/09/21 13:16:00	BASE	3.78	336	4.58	343	-1.6	100	-1.6	156	0	984.5	NA	0.0000		9999	1480	0	0	0
2020/09/21 13:17:00	BASE	3.64	332	4.42	339	-1.6	100	-1.6	155	0	984.5	NA	0.0000		9999	1440	0	0	0
2020/09/21 13:18:00	BASE	3.54	326	4.42	339	-1.6	100	-1.6	153	0	984.5	NA	0.0000		9999	520	1310	0	0
2020/09/21 13:19:00	BASE	3.42	326	4.42	339	-1.6	100	-1.6	150	0	984.5	NA	0.0000		9999	520	1380	0	0
2020/09/21 13:20:00	BASE	3.60	328	4.42	339	-1.7	100	-1.7	149	0	984.5	NA	0.0000		9999	520	1540	0	0
2020/09/21 13:21:00	BASE	3.88	329	4.42	339	-1.7	100	-1.7	147	0	984.5	NA	0.0000		9999	520	1540	0	0
2020/09/21 13:22:00	BASE	4.04	328	4.48	327	-1.7	100	-1.7	150	0	984.5	NA	0.0000		9999	520	1410	0	0
2020/09/21 13:23:00	BASE	3.89	328	4.48	327	-1.7	100	-1.7	153	0	984.5	NA	0.0000		9999	460	1670	0	0
2020/09/21 13:24:00	BASE	3.68	333	4.48	327	-1.7	100	-1.7	157	0	984.5	NA	0.0000		9999	560	1670	0	0
2020/09/21 13:25:00	BASE	3.90	336	4.48	327	-1.7	100	-1.7	158	0	984.5	NA	0.0000		9999	590	1350	0	0
2020/09/21 13:26:00	BASE	4.01	337	4.48	327	-1.7	100	-1.7	158	0	984.5	NA	0.0000		9999	1380	0	0	0
2020/09/21 13:27:00	BASE	3.80	336	4.48	327	-1.7	100	-1.7	154	0	984.5	NA	0.0000		9999	1350	0	0	0
2020/09/21 13:28:00	BASE	3.59	338	4.48	327	-1.7	100	-1.7	150	0	984.5	NA	0.0000		9999	1510	0	0	0
2020/09/21 13:29:00	BASE	3.66	338	4.48	327	-1.7	100	-1.7	147	0	984.5	NA	0.0000		9999	620	1570	0	0
2020/09/21 13:30:00	BASE	3.79	335	4.48	327	-1.8	100	-1.8	147	0	984.5	NA	0.0000		9999	260	1640	0	0
2020/09/21 13:31:00	BASE	3.77	335	4.48	327	-1.8	100	-1.8	148	0	984.5	NA	0.0000		9999	1510	0	0	0
2020/09/21 13:32:00	BASE	3.75	338	4.32	336	-1.8	100	-1.8	150	0	984.5	NA	0.0000		9999	1540	0	0	0
2020/09/21 13:33:00	BASE	3.84	341	4.37	338	-1.8	100	-1.8	154	0	984.5	NA	0.0000		9999	1540	0	0	0
2020/09/21 13:34:00	BASE	3.70	338	4.37	338	-1.8	100	-1.8	161	0	984.5	NA	0.0000		9999	1510	0	0	0
2020/09/21 13:35:00	BASE	3.55	338	4.58	335	-1.8	100	-1.8	163	0	984.5	NA	0.0000		9999	1640	0	0	0
2020/09/21 13:36:00	BASE	3.24	340	4.58	335	-1.8	100	-1.8	164	0	984.5	NA	0.0000		9999	1570	0	0	0
2020/09/21 13:37:00	BASE	3.02	336	4.58	335	-1.8	100	-1.8	164	0	984.5	NA	0.0000		9999	520	1770	0	0
2020/09/21 13:38:00	BASE	3.53	336	4.58	335	-1.8	100	-1.8	164	0	984.5	NA	0.0000		9999	520	1440	0	0
2020/09/21 13:39:00	BASE	3.58	341	4.58	335	-1.8	100	-1.8	169	0	984.5	NA	0.0000		9999	1710	0	0	0
2020/09/21 13:40:00	BASE	3.54	340	4.58	335	-1.8	100	-1.8	174	0	984.5	NA	0.0000		9999	1440	0	0	0
2020/09/21 13:41:00	BASE	3.58	339	4.58	335	-1.8	100	-1.8	175	0	984.6	NA	0.0000		9999	1440	1840	0	0
2020/09/21 13:42:00	BASE	3.24	338	4.58	335	-1.8	100	-1.8	169	0	984.6	NA	0.0000		9999	1440	0	0	0
2020/09/21 13:43:00	BASE	3.44	341	4.58	335	-1.8	100	-1.8	161	0	984.6	NA	0.0000		9999	1440	1940	0	0
2020/09/21 13:44:00	BASE	3.76	343	4.58	335	-1.8	100	-1.8	156	0	984.6	NA	0.0000		9999	1410	1940	0	0
2020/09/21 13:45:00	BASE	3.89	340	4.32	345	-1.8	100	-1.8	156	0	984.6	NA	0.0000		9999	1410	1940	0	0
2020/09/21 13:46:00	BASE	3.95	342	4.32	345	-1.8	100	-1.8	157	0	984.6	NA	0.0000		9999	1440	2000	0	0
2020/09/21 13:47:00	BASE	3.83	344	4.32	345	-1.8	100	-1.8	158	0	984.6	NA	0.0000		9999	1410	2000	0	0
2020/09/21 13:48:00	BASE	3.56	344	4.32	345	-1.8	100	-1.8	160	0	984.6	NA	0.0000		9999	1440	0	0	0
2020/09/21 13:49:00	BASE	3.50	344	4.32	345	-1.8	100	-1.8	162	0	984.6	NA	0.0000		9999	1440	0	0	0
2020/09/21 13:50:00	BASE	3.79	345	4.32	345	-1.8	100	-1.8	162	0	984.6	NA	0.0000		9999	1440	1870	0	0
2020/09/21 13:51:00	BASE	3.87	346	4.32	345	-1.8	100	-1.8	161	0	984.6	NA	0.0000		9999	1380	0	0	0
2020/09/21 13:52:00	BASE	3.68	348	4.32	345	-1.8	100	-1.8	162	0	984.6	NA	0.0000		9999	1410	0	0	0
2020/09/21 13:53:00	BASE	3.76	347	4.37	346	-1.8	100	-1.8	162	0	984.6	NA	0.0000		9999	1410	0	0	0
2020/09/21 13:54:00	BASE	3.89	344	4.37	346	-1.8	100	-1.8	163	0	984.6	NA	0.0000		9999	1440	0	0	0
2020/09/21 13:55:00	BASE	3.70	339	4.37	346	-1.8	100	-1.8	163	0	984.6	NA	0.0000		9999	1410	1940	0	0
2020/09/21 13:56:00	BASE	3.72	340	4.37	346	-1.8	100	-1.8	166	0	984.6	NA	0.0000		9999	1380	0	0	0
2020/09/21 13:57:00	BASE	3.89	344	4.48	342	-1.8	100	-1.8	168	0	984.6	NA	0.0000		9999	1380	0	0	0
2020/09/21 13:58:00	BASE	4.03	343	4.68	342	-1.8	100	-1.8	172	0	984.6	NA	0.0000		9999	1310	0	0	0
2020/09/21 13:59:00	BASE	4.01	340	4.68	342	-1.8	100	-1.8	175	0	984.6	NA	0.0000		9999	1440	0	0	0
2020/09/21 14:00:00	BASE	3.77	340	4.68	342	-1.8	100	-1.8	175	0	984.6	NA	0.0000		9999	1380	0	0	0
2020/09/21 14:01:00	BASE	3.77	340	4.68	342	-1.8	100	-1.8	177	0	984.7	NA	0.0000		9999	1210	0	0	0
2020/09/21 14:02:00	BASE	3.75	339	4.68	342	-1.8	100	-1.8	182	0	984.7	NA	0.0000		9999	1380	0	0	0
2020/09/21 14:03:00	BASE	3.65	338	4.68	342	-1.8	100	-1.8	185	0	984.7	NA	0.0000		9999	1410	0	0	0
2020/09/21 14:04:00	BASE	3.51	336	4.68	342	-1.7	100	-1.7	190	0	984.7	NA	0.0000		9999	1410	0	0	0
2020/09/21 14:05:00	BASE	3.42	339	4.68	342	-1.7	100	-1.7	191	0	984.7	NA	0.0000		9999	1410	0	0	0
2020/09/21 14:06:00	BASE	3.67	342	4.68	342	-1.7	100	-1.7	190	0	984.7	NA	0.0000		9999	1440	0	0	0
2020/09/21 14:07:00	BASE	4.00	341	4.68	342	-1.7	100	-1.7	192	0	984.7	NA	0.0000		9999	1440	0	0	0
2020/09/21 14:08:00	BASE	3.96	344	4.48	338	-1.7	100	-1.7	196	0	984.7	NA	0.0000		9999	1410	0	0	0
2020/09/21 14:09:00	BASE	3.69	346	4.48	338	-1.7	100	-1.7	200	0	984.7	NA	0.0000		9999	1380	0	0	0
2020/09/21 14:10:00	BASE	3.59	343	4.48	338	-1.7	100	-1.7	203	0	984.8	NA	0.0000		9999	1440	0	0	0
2020/09/21 14:11:00	BASE	3.64	339	4.48	338	-1.7	100	-1.7	206	0	984.8	NA	0.0000		9999	1480	0	0	0
2020/09/21 14:12:00	BASE	3.60	336	4.48	338	-1.7	100	-1.7	207	0	984.8	NA	0.0000		9999	1410	0	0	0
2020/09/21 14:13:00	BASE	3.60	335	4.48	338	-1.7	100	-1.7	208	0	984.8	NA	0.0000		9999	1410	0	0	0
2020/09/21 14:14:00	BASE	3.86	333	4.48	335	-1.7	100	-1.7	210	0	984.8	NA	0.0000		9999	1350	0	0	0
2020/09/21 14:15:00	BASE	4.02	330	4.48	335	-1.7	100	-1.7	213	0	984.8	NA	0.0000		9999	1410	0	0	0
2020/09/21 14:16:00	BASE	3.88	328	4.48	335	-1.7	100	-1.7	217	0	984.8	NA	0.0000		9999	1570	0	0	0
2020/09/21 14:17:00	BASE	3.80	328	4.48	335	-1.7	100	-1.7	218	0	984.8	NA	0.0000		9999	1410	0	0	0
2020/09/21 14:18:00	BASE	4.03	327	4.48	325	-1.7	100	-1.7	216	0	984.8	NA	0.0000		9999	1570	0	0	0
2020/09/21 14:19:00	BASE	4.23	328	4.53	330	-1.7	100	-1.7	216	0	984.8	NA	0.0000		9999	1350	0	0	0
2020/09/21 14:20:00	BASE	4.17	330	4.53	330	-1.7	100	-1.7	221	0	984.8	NA	0.0000		9999	1440	22110	0	0
2020/09/21 14:21:00	BASE	3.98	329	4.53	330	-1.7	100	-1.7	229	0	984.8	NA	0.0000		9999	1480	0	0	0
2020/09/21 14:22:00	BASE	3.80	328	4.53	330	-1.7	100	-1.7	234	0	984.8	NA	0.0000		9999	1440	0	0	0
2020/09/21 14:23:00	BASE	3.62	326	4.53	330	-1.7	100	-1.7	240	0	984.8	NA	0.0000		9999	1440	21620	22770	0
2020/09/21 14:24:00	BASE	3.70	327	4.53	330	-1.7	100	-1.7	241	0	984.8	NA	0.0000		9999	1440	0	0	0
2020/09/21 14:25:00	BASE	3.91	326	4.53	330	-1.7	100	-1.7	231	0	984.8	NA	0.0000		9999	1410	0	0	0
2020/09/21 14:26:00	BASE	3.95	323	4.53	330	-1.7	100	-1.7	224	0	984.8	NA	0.0000		9999	1380	0	0	0
2020/09/21 14:27:00	BASE	3.97	323	4.53	330	-1.7	100	-1.7	225	0	984.8	NA	0.0000		9999	1350	0	0	0
2020/09/21 14:28:00	BASE	3.83	325	4.53	330	-1.7	100	-1.7	227	0	984.8	NA	0.0000		9999	1440	0	0	0
2020/09/21 14:29:00	BASE	3.65	330	4.37	323	-1.8	100	-1.8	226	0	984.8	NA	0.2540		9999	1380	0	0	0
2020/09/21 14:30:00	BASE	3.71	334	4.37	323	-1.8	100	-1.8	226	0	984.8	NA	0.0000		9999	1510	0	0	0
2020/09/21 14:31:00	BASE	4.02	334	4.42	333	-1.8	100	-1.8	223	0	984.8	NA	0.0000		9999	1310	0	0	0
2020/09/21 14:32:00	BASE	4.18	335	4.48	340	-1.8	100	-1.8	216	0	984.8	NA	0.0000		9999	1540	0	0	0
2020/09/21 14:33:00	BASE	4.07	335	4.48	340	-1.8	100	-1.8	212	0	984.8	NA	0.0000		9999	1380	0	0	0
2020/09/21 14:34:00	BASE	4.00	335	4.48	340	-1.8	100	-1.8	206	0	984.8	NA	0.0000		9999	1640	0	0	0
2020/09/21 14:35:00	BASE	3.88	335	4.48	340	-1.8	100	-1.8	192	0	984.8	NA	0.0000		9999	1570	0	0	0
2020/09/21 14:36:00	BASE	3.55	331	4.48	340	-1.8	100	-1.8	179	0	984.8	NA	0.0000		9999	1840	0	0	0
2020/09/21 14:37:00	BASE	3.40	330	4.48	340	-1.8	100	-1.8	170	0	984.8	NA	0.0000		9999	1020	1710	2170	0
2020/09/21 14:38:00	BASE	3.48	330	4.48	340	-1.8	100	-1.8	166	0	984.8	NA	0.0000		9999	1840	5020	0	0
2020/09/21 14:39:00	BASE	3.52	328	4.48	340	-1.8	100	-1.8	169	0	984.8	NA	0.0000		9999	920	1640	22930	0
2020/09/21 14:40:00	BASE	3.46	332	4.48	340	-1.8	100	-1.8	171	0	984.8	NA	0.0000		9999	1440	5050	0	0
2020/09/21 14:41:00	BASE	3.55	337	4.48	340	-1.9	100	-1.9	172	0	984.8	NA	0.0000		9999	790	1640	0	0
2020/09/21 14:42:00	BASE	3.96	339	4.37	340	-1.9	100	-1.9	175	0	984.8	NA	0.0000		9999	790	1840	0	0
2020/09/21 14:43:00	BASE	4.16	340	4.37	340	-1.9	100	-1.9	182	0	984.8	NA	0.0000		9999	790	4990	0	0
2020/09/21 14:44:00	BASE	4.06	339	4.37	340	-1.9	100	-1.9	187	0	984.8	NA	0.0000		9999	750	0	0	0
2020/09/21 14:45:00	BASE	4.10	336	4.37	334	-1.9	100	-1.9	198	0	984.8	NA	0.0000		9999	720	2260	0	0
2020/09/21 14:46:00	BASE	4.01	334	4.42	326	-1.9	100	-1.9	209	0	984.8	NA	0.0000		9999	690	2100	0	0
2020/09/21 14:47:00	BASE	3.83	334	4.42	326	-1.9	100	-1.9	224	0	984.8	NA	0.0000		9999	750	2000	0	0
2020/09/21 14:48:00	BASE	3.17	333	4.42	326	-1.8	100	-1.8	225	0	984.8	NA	0.0000		9999	660	1640	0	0
2020/09/21 14:49:00	BASE	2.42	331	4.42	326	-1.8	100	-1.8	221	0	984.8	NA	0.0000		9999	590	0	0	0
2020/09/21 14:50:00	BASE	2.11	333	4.42	326	-1.8	100	-1.8	197	0	984.8	NA	0.0000		9999	590	0	0	0
2020/09/21 14:51:00	BASE	2.02	328	4.42	326	-1.8	100	-1.8	189	0	984.8	NA	0.0000		9999	660	0	0	0
2020/09/21 14:52:00	BASE	1.85	327	4.42	326	-1.8	100	-1.8	192	0	984.8	NA	0.0000		9999	620	0	0	0
2020/09/21 14:53:00	BASE	2.10	339	4.42	326	-1.8	100	-1.8	188	0	984.8	NA	0.0000		9999	660	0	0	0
2020/09/21 14:54:00	BASE	2.64	342	4.42	326	-1.8	100	-1.8	180	0	984.8	NA	0.0000		9999	660	0	0	0
2020/09/21 14:55:00	BASE	2.48	337	4.42	326	-1.8	100	-1.8	174	0	984.8	NA	0.0000		9999	660	1670	0	0
2020/09/21 14:56:00	BASE	2.43	340	4.22	337	-1.8	100	-1.8	173	0	984.8	NA	0.0000		9999	660	0	0	0
2020/09/21 14:57:00	BASE	2.61	342	3.29	338	-1.8	100	-1.8	172	0	984.8	NA	0.0000		9999	660	1670	0	0
2020/09/21 14:58:00	BASE	2.60	340	3.04	345	-1.9	100	-1.9	174	0	984.8	NA	0.0000		9999	660	1640	0	0
2020/09/21 14:59:00	BASE	2.29	340	3.04	345	-1.9	100	-1.9	179	0	984.8	NA	0.0000		9999	690	1610	0	0
2020/09/21 15:00:00	BASE	1.97	326	3.04	345	-1.9	100	-1.9	183	0	984.8	NA	0.0000		9999	660	1610	0	0
2020/09/21 15:01:00	BASE	2.04	327	3.04	345	-1.9	100	-1.9	181	0	984.8	NA	0.0000		9999	690	1570	0	0
2020/09/21 15:02:00	BASE	2.52	344	3.04	349	-1.9	100	-1.9	170	0	984.8	NA	0.0000		9999	690	1610	0	0
2020/09/21 15:03:00	BASE	2.84	346	3.04	349	-1.9	100	-1.9	159	0	984.8	NA	0.0000		9999	620	0	0	0
2020/09/21 15:04:00	BASE	2.81	342	3.19	344	-1.9	100	-1.9	151	0	984.8	NA	0.0000		9999	660	1670	0	0
2020/09/21 15:05:00	BASE	2.94	341	3.19	341	-1.9	100	-1.9	150	0	984.8	NA	0.0000		9999	660	1610	0	0
2020/09/21 15:06:00	BASE	3.00	339	3.19	341	-1.9	100	-1.9	158	0	984.8	NA	0.0000		9999	690	1800	0	0
2020/09/21 15:07:00	BASE	2.88	336	3.24	333	-1.9	100	-1.9	165	0	984.8	NA	0.0000		9999	720	1940	0	0
2020/09/21 15:08:00	BASE	3.07	335	3.65	336	-1.9	100	-1.9	170	0	984.7	NA	0.0000		9999	690	1870	0	0
2020/09/21 15:09:00	BASE	3.44	337	3.76	335	-1.9	100	-1.9	172	0	984.7	NA	0.0000		9999	620	1870	0	0
2020/09/21 15:10:00	BASE	3.38	343	3.76	335	-1.9	100	-1.9	180	0	984.7	NA	0.0000		9999	590	0	0	0
2020/09/21 15:11:00	BASE	2.99	346	3.76	335	-1.9	100	-1.9	192	0	984.7	NA	0.0000		9999	620	0	0	0
2020/09/21 15:12:00	BASE	2.63	338	3.76	335	-1.9	100	-1.9	201	0	984.7	NA	0.0000		9999	660	0	0	0
2020/09/21 15:13:00	BASE	2.30	333	3.76	335	-1.9	100	-1.9	204	0	984.7	NA	0.0000		9999	720	0	0	0
2020/09/21 15:14:00	BASE	2.32	336	3.76	335	-1.9	100	-1.9	190	0	984.7	NA	0.0000		9999	660	0	0	0
2020/09/21 15:15:00	BASE	2.77	338	3.76	335	-1.9	100	-1.9	176	0	984.7	NA	0.0000		9999	620	0	0	0
2020/09/21 15:16:00	BASE	3.03	338	3.76	335	-1.9	100	-1.9	166	0	984.7	NA	0.0000		9999	590	0	0	0
2020/09/21 15:17:00	BASE	3.23	337	3.76	335	-1.9	100	-1.9	161	0	984.8	NA	0.0000		9999	620	0	0	0
2020/09/21 15:18:00	BASE	3.40	333	3.76	335	-1.9	100	-1.9	153	0	984.8	NA	0.0000		9999	620	0	0	0
2020/09/21 15:19:00	BASE	3.21	332	3.65	332	-1.9	100	-1.9	157	0	984.8	NA	0.0000		9999	590	0	0	0
2020/09/21 15:20:00	BASE	3.11	335	3.65	332	-1.9	100	-1.9	161	0	984.8	NA	0.0000		9999	620	0	0	0
2020/09/21 15:21:00	BASE	3.12	338	3.65	332	-1.9	100	-1.9	163	0	984.8	NA	0.0000		9999	560	23130	0	0
2020/09/21 15:22:00	BASE	2.92	339	3.65	332	-1.9	100	-1.9	167	0	984.8	NA	0.0000		9999	560	0	0	0
2020/09/21 15:23:00	BASE	2.88	339	3.65	332	-1.9	100	-1.9	169	0	984.8	NA	0.0000		9999	590	0	0	0
2020/09/21 15:24:00	BASE	3.22	336	3.65	332	-1.9	100	-1.9	174	0	984.8	NA	0.0000		9999	660	23160	0	0
2020/09/21 15:25:00	BASE	3.41	332	3.70	333	-1.9	100	-1.9	189	0	984.8	NA	0.0000		9999	690	0	0	0
2020/09/21 15:26:00	BASE	3.37	333	3.70	333	-1.9	100	-1.9	208	0	984.8	NA	0.0000		9999	690	5020	0	0
2020/09/21 15:27:00	BASE	3.41	335	3.81	334	-1.9	100	-1.9	221	0	984.8	NA	0.0000		9999	690	0	0	0
2020/09/21 15:28:00	BASE	3.68	337	4.17	336	-1.9	100	-1.9	204	0	984.8	NA	0.0000		9999	660	5050	0	0
2020/09/21 15:29:00	BASE	3.87	337	4.17	336	-1.9	100	-1.9	206	0	984.8	NA	0.0000		9999	620	4990	0	0
2020/09/21 15:30:00	BASE	3.94	338	4.27	341	-1.9	100	-1.9	210	0	984.8	NA	0.0000		9999	620	0	0	0
2020/09/21 15:31:00	BASE	4.02	339	4.37	339	-1.9	100	-1.9	208	0	984.8	NA	0.0000		9999	690	0	0	0
2020/09/21 15:32:00	BASE	3.95	338	4.37	339	-1.9	100	-1.9	202	0	984.8	NA	0.0000		9999	690	0	0	0
2020/09/21 15:33:00	BASE	3.97	338	4.37	339	-1.9	100	-1.9	266	0	984.8	NA	0.0000		9999	690	4950	0	0
2020/09/21 15:34:00	BASE	3.98	338	4.37	339	-1.9	100	-1.9	279	0	984.8	NA	0.0000		9999	690	4920	0	0
2020/09/21 15:35:00	BASE	3.83	340	4.37	339	-1.9	100	-1.9	282	0	984.8	NA	0.0000		9999	0	0	0	0
2020/09/21 15:36:00	BASE	3.86	342	4.37	339	-1.9	100	-1.9	221	0	984.7	NA	0.0000		9999	0	0	0	590
2020/09/21 15:37:00	BASE	3.76	342	4.37	339	-1.9	100	-1.9	228	0	984.7	NA	0.0000		9999	1770	0	0	0
2020/09/21 15:38:00	BASE	3.61	340	4.37	339	-1.9	100	-1.9	219	0	984.7	NA	0.0000		9999	0	0	0	0
2020/09/21 15:39:00	BASE	3.51	337	4.37	339	-1.9	100	-1.9	271	0	984.7	NA	0.0000		9999	0	0	0	0
2020/09/21 15:40:00	BASE	3.29	337	4.37	339	-1.9	100	-1.9	292	0	984.7	NA	0.0000		9999	1800	0	0	0
2020/09/21 15:41:00	BASE	3.46	340	4.22	337	-1.9	100	-1.9	303	0	984.7	NA	0.0000		9999	0	0	0	0
2020/09/21 15:42:00	BASE	3.69	341	4.22	337	-2.0	100	-2.0	246	0	984.6	NA	0.0000		9999	0	0	0	620
2020/09/21 15:43:00	BASE	3.64	338	4.22	337	-2.0	100	-2.0	230	0	984.6	NA	0.0000		9999	690	0	0	0
2020/09/21 15:44:00	BASE	3.62	338	4.17	346	-2.0	100	-2.0	316	0	984.6	NA	0.0000		9999	720	0	0	0
2020/09/21 15:45:00	BASE	3.55	339	4.17	346	-1.9	100	-1.9	288	0	984.6	NA	0.0000		9999	690	0	0	0
2020/09/21 15:46:00	BASE	3.39	339	4.01	346	-1.9	100	-1.9	297	0	984.6	NA	0.0000		9999	790	0	0	0
2020/09/21 15:47:00	BASE	3.18	337	3.91	343	-1.9	100	-1.9	348	0	984.6	NA	0.0000		9999	750	0	0	0
2020/09/21 15:48:00	BASE	3.07	336	3.91	343	-1.9	100	-1.9	384	0	984.6	NA	0.0000		9999	750	19850	0	0
2020/09/21 15:49:00	BASE	3.14	333	3.91	343	-1.9	100	-1.9	404	0	984.6	NA	0.0000		9999	750	0	0	0
2020/09/21 15:50:00	BASE	3.15	331	3.91	343	-1.9	100	-1.9	416	0	984.6	NA	0.0000		9999	790	0	0	0
2020/09/21 15:51:00	BASE	3.08	329	3.86	336	-1.8	100	-1.8	400	0	984.6	NA	0.0000		9999	790	0	0	0
2020/09/21 15:52:00	BASE	3.13	326	3.81	336	-1.8	100	-1.8	434	0	984.6	NA	0.0000		9999	750	0	0	0
2020/09/21 15:53:00	BASE	3.08	325	3.76	338	-1.8	100	-1.8	420	0	984.6	NA	0.0000		9999	720	0	0	0
2020/09/21 15:54:00	BASE	2.79	322	3.65	339	-1.8	100	-1.8	450	0	984.6	NA	0.0000		9999	520	0	0	0
2020/09/21 15:55:00	BASE	2.65	318	3.45	334	-1.7	100	-1.7	424	0	984.6	NA	0.0000		9999	560	0	0	0
2020/09/21 15:56:00	BASE	2.41	311	3.45	334	-1.7	100	-1.7	361	0	984.6	NA	0.0000		9999	520	0	0	0
2020/09/21 15:57:00	BASE	2.17	306	3.45	334	-1.7	100	-1.7	300	0	984.7	NA	0.0000		9999	590	0	0	0
2020/09/21 15:58:00	BASE	2.02	305	3.45	334	-1.7	100	-1.7	285	0	984.7	NA	0.2540		9999	590	0	0	0
2020/09/21 15:59:00	BASE	1.75	302	3.34	325	-1.7	100	-1.7	267	0	984.7	NA	0.0000		9999	620	0	0	0
2020/09/21 16:00:00	BASE	1.55	287	3.34	325	-1.7	100	-1.7	249	0	984.7	NA	0.0000		9999	620	0	0	0
2020/09/21 16:01:00	BASE	1.30	267	3.34	325	-1.7	100	-1.7	228	0	984.7	NA	0.0000		9999	620	0	0	0
2020/09/21 16:02:00	BASE	1.34	263	3.19	321	-1.8	100	-1.8	210	0	984.7	NA	0.0000		9999	620	0	0	0
2020/09/21 16:03:00	BASE	1.68	267	2.78	318	-1.8	100	-1.8	199	0	984.7	NA	0.0000		9999	660	0	0	0
2020/09/21 16:04:00	BASE	2.06	272	2.78	318	-1.8	100	-1.8	193	0	984.8	NA	0.0000		9999	660	0	0	0
2020/09/21 16:05:00	BASE	2.09	278	2.62	284	-1.9	100	-1.9	193	0	984.8	NA	0.0000		9999	620	0	0	0
2020/09/21 16:06:00	BASE	1.79	272	2.62	284	-1.9	100	-1.9	210	0	984.8	NA	0.0000		9999	790	1570	0	0
2020/09/21 16:07:00	BASE	2.13	260	2.88	248	-1.9	100	-1.9	201	0	984.8	NA	0.0000		9999	790	1570	0	0
2020/09/21 16:08:00	BASE	2.53	257	2.88	253	-2.0	100	-2.0	209	0	984.8	NA	0.0000		9999	1440	2100	0	0
2020/09/21 16:09:00	BASE	2.24	256	2.88	253	-2.0	100	-2.0	223	0	984.8	NA	0.0000		9999	850	2070	0	0
2020/09/21 16:10:00	BASE	1.93	252	2.88	253	-2.0	100	-2.0	202	0	984.8	NA	0.0000		9999	850	0	0	0
2020/09/21 16:11:00	BASE	1.54	248	2.88	253	-2.0	100	-2.0	202	0	984.8	NA	0.0000		9999	490	0	0	0
2020/09/21 16:12:00	BASE	1.06	243	2.88	253	-2.0	100	-2.0	196	0	984.8	NA	0.0000		9999	560	2070	0	0
2020/09/21 16:13:00	BASE	1.12	252	2.88	253	-2.1	100	-2.1	190	0	984.8	NA	0.0000		9999	560	0	0	0
2020/09/21 16:14:00	BASE	1.24	264	2.88	253	-2.1	100	-2.1	186	0	984.9	NA	0.0000		9999	520	0	0	0
2020/09/21 16:15:00	BASE	1.39	270	2.88	253	-2.0	100	-2.0	184	0	984.9	NA	0.0000		9999	590	0	0	0
2020/09/21 16:16:00	BASE	1.21	275	2.88	253	-2.0	100	-2.0	194	0	984.9	NA	0.0000		9999	590	0	0	0
2020/09/21 16:17:00	BASE	1.11	272	2.88	253	-2.0	100	-2.0	209	0	984.9	NA	0.0000		9999	590	0	0	0
2020/09/21 16:18:00	BASE	1.33	269	2.42	250	-2.0	100	-2.0	212	0	984.9	NA	0.0000		9999	560	0	0	0
2020/09/21 16:19:00	BASE	1.42	271	2.21	247	-1.9	100	-1.9	208	0	984.9	NA	0.0000		9999	560	0	0	0
2020/09/21 16:20:00	BASE	1.44	270	1.75	269	-1.9	100	-1.9	204	0	984.9	NA	0.0000		9999	590	0	0	0
2020/09/21 16:21:00	BASE	1.42	268	1.75	269	-1.9	100	-1.9	204	0	984.9	NA	0.0000		9999	520	0	0	0
2020/09/21 16:22:00	BASE	1.35	266	1.75	269	-1.9	100	-1.9	210	0	984.9	NA	0.0000		9999	560	0	0	0
2020/09/21 16:23:00	BASE	1.37	268	1.75	269	-1.9	100	-1.9	210	0	984.9	NA	0.0000		9999	590	21650	0	0
2020/09/21 16:24:00	BASE	1.42	268	1.75	269	-1.9	100	-1.9	212	0	984.9	NA	0.0000		9999	690	0	0	0
2020/09/21 16:25:00	BASE	1.38	264	1.75	269	-1.9	100	-1.9	209	0	984.9	NA	0.0000		9999	690	0	0	0
2020/09/21 16:26:00	BASE	1.47	263	1.80	254	-1.9	100	-1.9	200	0	984.9	NA	0.0000		9999	690	0	0	0
2020/09/21 16:27:00	BASE	1.49	263	1.80	254	-1.9	100	-1.9	194	0	984.9	NA	0.0000		9999	660	0	0	0
2020/09/21 16:28:00	BASE	1.42	271	1.80	254	-1.9	100	-1.9	200	0	985.0	NA	0.0000		9999	660	0	0	0
2020/09/21 16:29:00	BASE	1.30	283	1.80	254	-1.9	100	-1.9	196	0	985.1	NA	0.0000		9999	620	0	0	0
2020/09/21 16:30:00	BASE	1.21	285	1.80	254	-1.9	100	-1.9	192	0	985.1	NA	0.0000		9999	690	0	0	0
2020/09/21 16:31:00	BASE	1.39	289	1.90	295	-1.9	100	-1.9	202	0	985.1	NA	0.0000		9999	590	0	0	0
2020/09/21 16:32:00	BASE	1.61	295	1.90	295	-1.8	100	-1.8	214	0	985.1	NA	0.0000		9999	560	0	0	0
2020/09/21 16:33:00	BASE	1.60	290	1.90	295	-1.8	100	-1.8	220	0	985.1	NA	0.0000		9999	490	0	0	0
2020/09/21 16:34:00	BASE	1.55	282	1.90	295	-1.8	100	-1.8	228	0	985.1	NA	0.0000		9999	660	0	0	0
2020/09/21 16:35:00	BASE	1.66	275	1.95	271	-1.8	100	-1.8	236	0	985.1	NA	0.0000		9999	520	0	0	0
2020/09/21 16:36:00	BASE	1.64	275	1.95	271	-1.8	100	-1.8	230	0	985.1	NA	0.0000		9999	590	0	0	0
2020/09/21 16:37:00	BASE	1.54	283	1.95	271	-1.8	100	-1.8	230	0	985.1	NA	0.0000		9999	560	0	0	0
2020/09/21 16:38:00	BASE	1.56	291	1.95	271	-1.8	100	-1.8	245	0	985.1	NA	0.0000		9999	520	0	0	0
2020/09/21 16:39:00	BASE	1.54	296	1.95	271	-1.8	100	-1.8	254	0	985.1	NA	0.0000		9999	490	0	0	0
2020/09/21 16:40:00	BASE	1.55	288	2.11	278	-1.8	100	-1.8	249	0	985.1	NA	0.0000		9999	330	0	0	0
2020/09/21 16:41:00	BASE	1.31	282	2.11	278	-1.7	100	-1.7	239	0	985.1	NA	0.0000		9999	300	0	0	0
2020/09/21 16:42:00	BASE	1.03	285	2.11	278	-1.7	100	-1.7	232	0	985.1	NA	0.0000		9999	330	0	0	0
2020/09/21 16:43:00	BASE	1.23	282	2.11	278	-1.7	100	-1.7	229	0	985.1	NA	0.0000		9999	390	0	0	0
2020/09/21 16:44:00	BASE	1.32	273	2.11	278	-1.7	100	-1.7	226	0	985.1	NA	0.0000		9999	520	0	0	0
2020/09/21 16:45:00	BASE	1.21	264	2.11	278	-1.7	100	-1.7	220	0	985.1	NA	0.0000		9999	390	0	0	0
2020/09/21 16:46:00	BASE	1.46	253	2.11	278	-1.7	100	-1.7	215	0	985.1	NA	0.0000		9999	360	0	0	0
2020/09/21 16:47:00	BASE	1.70	244	2.11	278	-1.8	100	-1.8	212	0	985.1	NA	0.0000		9999	330	0	0	0
2020/09/21 16:48:00	BASE	1.58	241	2.11	278	-1.8	100	-1.8	215	0	985.1	NA	0.0000		9999	330	750	0	0
2020/09/21 16:49:00	BASE	1.38	232	2.11	278	-1.8	100	-1.8	220	0	985.1	NA	0.0000		9999	490	0	0	0
2020/09/21 16:50:00	BASE	1.46	225	1.85	244	-1.9	100	-1.9	222	0	985.1	NA	0.0000		9999	520	2430	0	0
2020/09/21 16:51:00	BASE	1.56	222	1.85	244	-1.9	100	-1.9	220	0	985.1	NA	0.0000		9999	490	0	0	0
2020/09/21 16:52:00	BASE	1.50	223	1.85	244	-1.9	100	-1.9	215	0	984.9	NA	0.0000		9999	360	0	0	0
2020/09/21 16:53:00	BASE	1.50	226	1.85	244	-1.9	100	-1.9	203	0	984.9	NA	0.0000		9999	390	0	0	0
2020/09/21 16:54:00	BASE	1.53	232	1.85	244	-1.9	100	-1.9	184	0	984.9	NA	0.0000		9999	300	0	0	0
2020/09/21 16:55:00	BASE	1.45	238	1.85	244	-1.9	100	-1.9	171	0	984.9	NA	0.2540		9999	260	0	0	0
2020/09/21 16:56:00	BASE	1.41	238	1.85	244	-1.9	100	-1.9	171	0	984.9	NA	0.0000		9999	230	0	0	0
2020/09/21 16:57:00	BASE	1.66	232	2.52	226	-1.9	100	-1.9	176	0	984.9	NA	0.0000		9999	230	0	0	0
2020/09/21 16:58:00	BASE	2.23	226	2.88	221	-1.9	100	-1.9	184	0	984.9	NA	0.0000		9999	260	0	0	0
2020/09/21 16:59:00	BASE	2.78	220	3.24	219	-1.9	100	-1.9	191	0	984.9	NA	0.0000		9999	300	0	0	0
2020/09/21 17:00:00	BASE	2.99	216	3.24	219	-1.9	100	-1.9	199	0	984.8	NA	0.0000		9999	260	0	0	0
2020/09/21 17:01:00	BASE	3.11	218	3.60	220	-1.9	100	-1.9	205	0	984.8	NA	0.0000		9999	300	0	0	0
2020/09/21 17:02:00	BASE	3.24	218	3.60	220	-1.9	100	-1.9	210	0	984.8	NA	0.0000		9999	230	0	0	0
2020/09/21 17:03:00	BASE	3.11	215	3.60	220	-1.9	100	-1.9	221	0	984.8	NA	0.0000		9999	230	0	0	0
2020/09/21 17:04:00	BASE	3.04	213	3.60	220	-1.9	100	-1.9	224	0	984.8	NA	0.0000		9999	260	0	0	0
2020/09/21 17:05:00	BASE	3.18	209	3.60	220	-1.9	100	-1.9	229	0	984.8	NA	0.0000		9999	260	0	0	0
2020/09/21 17:06:00	BASE	3.28	206	3.60	206	-1.9	100	-1.9	238	0	984.8	NA	0.0000		9999	260	0	0	0
2020/09/21 17:07:00	BASE	3.18	205	3.60	206	-1.9	100	-1.9	239	0	984.8	NA	0.0000		9999	300	0	0	0
2020/09/21 17:08:00	BASE	3.13	205	3.60	206	-1.9	100	-1.9	227	0	984.8	NA	0.0000		9999	300	0	0	0
2020/09/21 17:09:00	BASE	3.20	203	3.60	206	-1.9	100	-1.9	215	0	984.8	NA	0.0000		9999	300	0	0	0
2020/09/21 17:10:00	BASE	3.19	203	3.60	206	-1.9	100	-1.9	206	0	984.8	NA	0.0000		9999	300	0	0	0
2020/09/21 17:11:00	BASE	3.11	201	3.60	206	-1.9	100	-1.9	205	0	984.8	NA	0.0000		9999	330	0	0	0
2020/09/21 17:12:00	BASE	2.93	200	3.60	206	-1.9	100	-1.9	205	0	984.8	NA	0.0000		9999	330	0	0	0
2020/09/21 17:13:00	BASE	2.80	199	3.60	206	-1.9	100	-1.9	203	0	984.8	NA	0.0000		9999	300	0	0	0
2020/09/21 17:14:00	BASE	2.83	198	3.60	206	-1.9	100	-1.9	197	0	984.8	NA	0.0000		9999	300	0	0	0
2020/09/21 17:15:00	BASE	2.78	194	3.60	206	-1.9	100	-1.9	190	0	984.8	NA	0.0000		9999	300	0	0	0
2020/09/21 17:16:00	BASE	2.58	192	3.55	206	-1.9	100	-1.9	187	0	984.8	NA	0.0000		9999	330	0	0	0
2020/09/21 17:17:00	BASE	2.45	191	3.55	206	-1.9	100	-1.9	188	0	984.8	NA	0.0000		9999	330	21950	0	0
2020/09/21 17:18:00	BASE	2.44	192	3.55	206	-1.9	100	-1.9	190	0	984.8	NA	0.0000		9999	330	0	0	0
2020/09/21 17:19:00	BASE	2.61	194	3.55	206	-1.9	100	-1.9	190	0	984.8	NA	0.0000		9999	360	0	0	0
2020/09/21 17:20:00	BASE	2.70	194	3.14	197	-1.9	100	-1.9	190	0	984.8	NA	0.0000		9999	360	0	0	0
2020/09/21 17:21:00	BASE	2.71	195	3.09	195	-1.9	100	-1.9	188	0	984.8	NA	0.0000		9999	360	0	0	0
2020/09/21 17:22:00	BASE	2.68	195	3.09	195	-1.9	100	-1.9	185	0	984.8	NA	0.0000		9999	390	0	0	0
2020/09/21 17:23:00	BASE	2.74	196	3.14	201	-1.9	100	-1.9	183	0	984.8	NA	0.0000		9999	390	0	0	0
2020/09/21 17:24:00	BASE	2.88	195	3.14	201	-1.9	100	-1.9	183	0	984.8	NA	0.0000		9999	390	0	0	0
2020/09/21 17:25:00	BASE	2.81	195	3.14	197	-1.9	100	-1.9	182	0	984.8	NA	0.0000		9999	390	0	0	0
2020/09/21 17:26:00	BASE	2.87	197	3.14	197	-1.9	100	-1.9	184	0	984.8	NA	0.0000		9999	390	0	0	0
2020/09/21 17:27:00	BASE	2.72	200	3.14	197	-1.9	100	-1.9	187	0	984.8	NA	0.0000		9999	430	0	0	0
2020/09/21 17:28:00	BASE	2.49	202	3.14	197	-1.9	100	-1.9	189	0	984.8	NA	0.0000		9999	430	0	0	0
2020/09/21 17:29:00	BASE	2.47	203	3.14	197	-1.9	100	-1.9	190	0	984.8	NA	0.0000		9999	430	0	0	0
2020/09/21 17:30:00	BASE	2.61	202	3.14	197	-1.9	100	-1.9	192	0	984.8	NA	0.0000		9999	430	0	0	0
2020/09/21 17:31:00	BASE	2.62	199	3.14	197	-1.9	100	-1.9	192	0	984.8	NA	0.0000		9999	430	0	0	0
2020/09/21 17:32:00	BASE	2.46	193	3.14	197	-1.9	100	-1.9	191	0	984.8	NA	0.0000		9999	430	0	0	0
2020/09/21 17:33:00	BASE	2.38	188	3.14	197	-1.9	100	-1.9	191	0	984.8	NA	0.0000		9999	430	0	0	0
2020/09/21 17:34:00	BASE	2.36	188	3.14	197	-1.9	100	-1.9	190	0	984.8	NA	0.0000		9999	430	23070	0	0
2020/09/21 17:35:00	BASE	2.39	190	3.09	195	-1.9	100	-1.9	186	0	984.8	NA	0.0000		9999	490	0	0	0
2020/09/21 17:36:00	BASE	2.29	191	2.93	201	-1.9	100	-1.9	182	0	984.8	NA	0.0000		9999	490	0	0	0
2020/09/21 17:37:00	BASE	2.26	191	2.93	201	-1.9	100	-1.9	178	0	984.8	NA	0.0000		9999	490	0	0	0
2020/09/21 17:38:00	BASE	2.37	190	2.93	201	-1.9	100	-1.9	180	0	984.8	NA	0.0000		9999	490	0	0	0
2020/09/21 17:39:00	BASE	2.41	188	2.93	201	-1.9	100	-1.9	181	0	984.8	NA	0.0000		9999	490	0	0	0
2020/09/21 17:40:00	BASE	2.38	186	2.68	185	-1.9	100	-1.9	180	0	984.8	NA	0.0000		9999	520	0	0	0
2020/09/21 17:41:00	BASE	2.40	186	3.09	191	-1.9	100	-1.9	172	0	984.8	NA	0.0000		9999	520	0	0	0
2020/09/21 17:42:00	BASE	2.54	186	3.09	191	-1.9	100	-1.9	167	0	984.8	NA	0.0000		9999	560	23260	0	0
2020/09/21 17:43:00	BASE	2.74	186	3.09	184	-1.9	100	-1.9	164	0	984.8	NA	0.0000		9999	520	21360	0	0
2020/09/21 17:44:00	BASE	2.86	186	3.29	181	-1.9	100	-1.9	158	0	984.8	NA	0.0000		9999	490	0	0	0
2020/09/21 17:45:00	BASE	2.91	187	3.29	181	-1.9	100	-1.9	154	0	984.8	NA	0.0000		9999	460	0	0	0
2020/09/21 17:46:00	BASE	2.93	186	3.40	182	-1.9	100	-1.9	153	0	984.8	NA	0.0000		9999	460	0	0	0
2020/09/21 17:47:00	BASE	2.81	181	3.40	182	-1.9	100	-1.9	159	0	984.8	NA	0.0000		9999	490	0	0	0
2020/09/21 17:48:00	BASE	2.59	182	3.40	182	-1.9	100	-1.9	164	0	984.8	NA	0.0000		9999	390	0	0	0
2020/09/21 17:49:00	BASE	2.53	183	3.40	182	-1.9	100	-1.9	166	0	984.8	NA	0.0000		9999	430	0	0	0
2020/09/21 17:50:00	BASE	2.58	182	3.40	182	-1.9	100	-1.9	165	0	984.8	NA	0.0000		9999	360	0	0	0
2020/09/21 17:51:00	BASE	2.52	184	3.40	182	-1.9	100	-1.9	165	0	984.8	NA	0.0000		9999	390	0	0	0
2020/09/21 17:52:00	BASE	2.35	181	3.40	182	-1.9	100	-1.9	161	0	984.8	NA	0.2540		9999	300	0	0	0
2020/09/21 17:53:00	BASE	2.17	181	3.40	182	-1.9	100	-1.9	160	0	984.8	NA	0.0000		9999	330	0	0	0
2020/09/21 17:54:00	BASE	2.12	181	3.40	182	-1.9	100	-1.9	163	0	984.8	NA	0.0000		9999	590	0	0	0
2020/09/21 17:55:00	BASE	2.12	178	3.40	182	-1.9	100	-1.9	168	0	984.8	NA	0.0000		9999	560	0	0	0
2020/09/21 17:56:00	BASE	2.06	175	3.09	168	-1.9	100	-1.9	172	0	984.8	NA	0.0000		9999	460	0	0	0
2020/09/21 17:57:00	BASE	2.02	174	3.09	168	-1.9	100	-1.9	168	0	984.8	NA	0.0000		9999	520	0	0	0
2020/09/21 17:58:00	BASE	1.93	174	3.09	168	-1.9	100	-1.9	163	0	984.8	NA	0.0000		9999	490	0	0	0
2020/09/21 17:59:00	BASE	1.88	179	2.73	185	-1.9	100	-1.9	157	0	984.8	NA	0.0000		9999	460	0	0	0
2020/09/21 18:00:00	BASE	1.92	182	2.68	189	-1.9	100	-1.9	158	0	984.8	NA	0.0000		9999	490	0	0	0
2020/09/21 18:01:00	BASE	1.92	183	2.42	181	-1.9	100	-1.9	161	0	984.8	NA	0.0000		9999	490	0	0	0
2020/09/21 18:02:00	BASE	1.83	182	2.31	183	-2.0	100	-2.0	161	0	984.8	NA	0.0000		9999	490	0	0	0
2020/09/21 18:03:00	BASE	1.70	181	2.31	183	-2.0	100	-2.0	167	0	984.8	NA	0.0000		9999	460	0	0	0
2020/09/21 18:04:00	BASE	1.72	184	2.31	183	-2.0	100	-2.0	171	0	984.8	NA	0.0000		9999	520	0	0	0
2020/09/21 18:05:00	BASE	1.80	185	2.21	176	-2.0	100	-2.0	172	0	984.8	NA	0.0000		9999	560	0	0	0
2020/09/21 18:06:00	BASE	1.79	187	2.21	176	-2.0	100	-2.0	173	0	984.8	NA	0.0000		9999	590	0	0	0
2020/09/21 18:07:00	BASE	1.77	189	2.11	184	-2.0	100	-2.0	176	0	984.8	NA	0.0000		9999	520	0	0	0
2020/09/21 18:08:00	BASE	1.79	190	2.11	184	-2.0	100	-2.0	177	0	984.8	NA	0.0000		9999	360	0	0	0
2020/09/21 18:09:00	BASE	1.75	189	2.11	184	-2.0	100	-2.0	175	0	984.8	NA	0.0000		9999	460	0	0	0
2020/09/21 18:10:00	BASE	1.72	185	2.11	184	-2.0	100	-2.0	171	0	984.8	NA	0.0000		9999	520	0	0	0
2020/09/21 18:11:00	BASE	1.61	181	1.95	185	-2.0	100	-2.0	168	0	984.9	NA	0.0000		9999	520	1870	0	0
2020/09/21 18:12:00	BASE	1.43	179	1.95	185	-2.0	100	-2.0	162	0	984.9	NA	0.0000		9999	590	1610	0	0
2020/09/21 18:13:00	BASE	1.25	178	1.95	185	-2.0	100	-2.0	165	0	984.9	NA	0.0000		9999	620	1540	0	0
2020/09/21 18:14:00	BASE	0.66	180	1.95	185	-2.0	100	-2.0	167	0	984.9	NA	0.0000		9999	690	1870	0	0
2020/09/21 18:15:00	BASE	0.09	187	1.85	182	-2.0	100	-2.0	173	0	985.0	NA	0.0000		9999	690	1970	0	0
2020/09/21 18:16:00	BASE	0.00	191	1.85	182	-2.0	100	-2.0	179	0	985.1	NA	0.0000		9999	690	2030	0	0
2020/09/21 18:17:00	BASE	0.00	190	1.85	182	-2.0	100	-2.0	185	0	985.1	NA	0.0000		9999	1800	0	0	0
2020/09/21 18:18:00	BASE	0.00	193	1.85	182	-2.0	100	-2.0	200	0	985.1	NA	0.0000		9999	720	1800	0	0
2020/09/21 18:19:00	BASE	0.00	184	1.85	182	-2.0	100	-2.0	211	0	985.1	NA	0.0000		9999	620	1800	0	0
2020/09/21 18:20:00	BASE	0.00	167	1.59	177	-2.0	100	-2.0	220	0	985.1	NA	0.0000		9999	590	1480	0	0
2020/09/21 18:21:00	BASE	0.00	165	1.39	177	-2.0	100	-2.0	222	0	985.1	NA	0.0000		9999	620	1840	0	0
2020/09/21 18:22:00	BASE	0.00	170	1.23	174	-1.9	100	-1.9	224	0	985.1	NA	0.0000		9999	660	1900	0	0
2020/09/21 18:23:00	BASE	0.00	171	1.08	175	-1.9	100	-1.9	228	0	985.1	NA	0.0000		9999	1900	0	0	0
2020/09/21 18:24:00	BASE	0.00	174	M	M	-1.9	100	-1.9	230	0	985.0	NA	0.0000		9999	720	1900	0	0
2020/09/21 18:25:00	BASE	0.00	182	M	M	-1.9	100	-1.9	229	0	984.9	NA	0.0000		9999	620	1840	0	0
2020/09/21 18:26:00	BASE	0.00	178	M	M	-1.9	100	-1.9	230	0	985.0	NA	0.0000		9999	620	1840	0	0
2020/09/21 18:27:00	BASE	0.00	173	M	M	-1.9	100	-1.9	228	0	985.0	NA	0.0000		9999	660	1840	0	0
2020/09/21 18:28:00	BASE	0.00	181	M	M	-1.9	100	-1.9	223	0	985.1	NA	0.0000		9999	620	1800	0	0
2020/09/21 18:29:00	BASE	0.00	191	M	M	-1.9	100	-1.9	212	0	985.1	NA	0.0000		9999	1800	0	0	0
2020/09/21 18:30:00	BASE	0.00	199	M	M	-1.9	100	-1.9	207	0	985.1	NA	0.0000		9999	1800	0	0	0
2020/09/21 18:31:00	BASE	0.00	210	M	M	-1.9	100	-1.9	206	0	985.1	NA	0.0000		9999	1800	0	0	0
2020/09/21 18:32:00	BASE	0.00	213	M	M	-1.9	100	-1.9	205	0	985.2	NA	0.0000		9999	1770	0	0	0
2020/09/21 18:33:00	BASE	0.00	201	M	M	-1.9	100	-1.9	209	0	985.2	NA	0.0000		9999	1770	0	0	0
2020/09/21 18:34:00	BASE	0.00	193	M	M	-1.9	100	-1.9	214	0	985.2	NA	0.0000		9999	1120	1710	0	0
2020/09/21 18:35:00	BASE	0.00	188	M	M	-1.9	100	-1.9	214	0	985.2	NA	0.0000		9999	1150	1740	0	0
2020/09/21 18:36:00	BASE	0.00	184	M	M	-1.9	100	-1.9	213	0	985.2	NA	0.0000		9999	1710	0	0	0
2020/09/21 18:37:00	BASE	0.00	180	M	M	-1.9	100	-1.9	209	0	985.2	NA	0.0000		9999	1740	0	0	0
2020/09/21 18:38:00	BASE	0.00	173	M	M	-1.9	100	-1.9	206	0	985.2	NA	0.0000		9999	1770	0	0	0
2020/09/21 18:39:00	BASE	0.00	167	M	M	-1.9	100	-1.9	204	0	985.2	NA	0.0000		9999	1670	0	0	0
2020/09/21 18:40:00	BASE	0.00	168	M	M	-1.9	100	-1.9	202	0	985.2	NA	0.0000		9999	1570	0	0	0
2020/09/21 18:41:00	BASE	0.00	167	M	M	-1.9	100	-1.9	202	0	985.2	NA	0.0000		9999	1480	0	0	0
2020/09/21 18:42:00	BASE	0.00	163	M	M	-1.9	100	-1.9	200	0	985.2	NA	0.0000		9999	1440	0	0	0
2020/09/21 18:43:00	BASE	0.00	164	M	M	-1.9	100	-1.9	197	0	985.2	NA	0.0000		9999	1440	0	0	0
2020/09/21 18:44:00	BASE	0.23	166	1.13	170	-1.9	100	-1.9	190	0	985.1	NA	0.0000		9999	1480	0	0	0
2020/09/21 18:45:00	BASE	0.27	166	1.13	170	-1.9	100	-1.9	178	0	985.1	NA	0.0000		9999	1280	0	0	0
2020/09/21 18:46:00	BASE	0.09	159	1.13	170	-1.9	100	-1.9	171	0	985.1	NA	0.0000		9999	1210	0	0	0
2020/09/21 18:47:00	BASE	0.05	151	1.13	170	-1.9	100	-1.9	165	0	985.1	NA	0.0000		9999	1280	0	0	0
2020/09/21 18:48:00	BASE	0.00	150	1.13	170	-1.8	100	-1.8	161	0	985.1	NA	0.0000		9999	1280	0	0	0
2020/09/21 18:49:00	BASE	0.00	156	1.13	170	-1.8	100	-1.8	157	0	985.1	NA	0.0000		9999	1310	24210	0	0
2020/09/21 18:50:00	BASE	0.00	164	1.13	170	-1.8	100	-1.8	157	0	985.1	NA	0.0000		9999	1350	0	0	0
2020/09/21 18:51:00	BASE	0.00	161	1.13	170	-1.8	100	-1.8	157	0	985.1	NA	0.0000		9999	1310	0	0	0
2020/09/21 18:52:00	BASE	0.00	146	1.13	170	-1.9	100	-1.9	160	0	985.1	NA	0.0000		9999	1250	0	0	0
2020/09/21 18:53:00	BASE	0.00	138	1.13	170	-1.9	100	-1.9	161	0	985.1	NA	0.0000		9999	1250	0	0	0
2020/09/21 18:54:00	BASE	0.00	141	1.08	152	-1.9	100	-1.9	163	0	985.1	NA	0.0000		9999	1280	0	0	0
2020/09/21 18:55:00	BASE	0.00	147	1.08	152	-1.9	100	-1.9	163	0	985.1	NA	0.0000		9999	1310	0	0	0
2020/09/21 18:56:00	BASE	0.00	149	M	M	-1.9	100	-1.9	160	0	985.2	NA	0.0000		9999	1280	0	0	0
2020/09/21 18:57:00	BASE	0.36	144	1.18	141	-1.9	100	-1.9	150	0	985.1	NA	0.0000		9999	1120	0	0	0
2020/09/21 18:58:00	BASE	0.73	140	1.18	140	-1.9	100	-1.9	141	0	985.1	NA	0.0000		9999	1020	0	0	0
2020/09/21 18:59:00	BASE	0.74	139	1.18	131	-1.9	100	-1.9	132	0	985.1	NA	0.0000		9999	980	0	0	0
2020/09/21 19:00:00	BASE	0.68	135	1.18	131	-1.9	100	-1.9	127	0	985.1	NA	0.0000		9999	980	0	0	0
2020/09/21 19:01:00	BASE	0.83	131	1.34	129	-1.9	100	-1.9	122	0	985.1	NA	0.0000		9999	920	0	0	0
2020/09/21 19:02:00	BASE	0.98	129	1.34	129	-2.0	100	-2.0	118	0	985.1	NA	0.0000		9999	920	0	0	0
2020/09/21 19:03:00	BASE	0.72	131	1.34	129	-2.0	100	-2.0	110	0	985.1	NA	0.0000		9999	920	0	0	0
2020/09/21 19:04:00	BASE	0.77	131	1.34	129	-2.0	100	-2.0	101	0	985.1	NA	0.0000		9999	920	0	0	0
2020/09/21 19:05:00	BASE	0.77	132	1.34	129	-2.0	100	-2.0	83	0	985.1	NA	0.0000		9999	820	0	0	0
2020/09/21 19:06:00	BASE	0.27	134	1.34	129	-2.0	100	-2.0	75	0	985.1	NA	0.0000		9999	790	0	0	0
2020/09/21 19:07:00	BASE	0.00	134	1.34	129	-2.0	100	-2.0	77	0	985.1	NA	0.0000		9999	690	0	0	0
2020/09/21 19:08:00	BASE	0.00	131	1.34	129	-2.0	100	-2.0	81	0	985.1	NA	0.0000		9999	660	0	0	0
2020/09/21 19:09:00	BASE	0.00	131	1.34	129	-2.0	100	-2.0	88	0	985.1	NA	0.0000		9999	660	1380	0	0
2020/09/21 19:10:00	BASE	0.00	131	1.34	129	-2.0	100	-2.0	87	0	985.1	NA	0.0000		9999	690	0	0	0
2020/09/21 19:11:00	BASE	0.00	129	1.18	130	-2.0	100	-2.0	87	0	985.1	NA	0.0000		9999	690	0	0	0
2020/09/21 19:12:00	BASE	0.00	126	1.18	130	-2.0	100	-2.0	87	0	985.1	NA	0.0000		9999	620	0	0	0
2020/09/21 19:13:00	BASE	0.00	124	1.18	130	-2.0	100	-2.0	86	0	985.1	NA	0.0000		9999	490	0	0	0
2020/09/21 19:14:00	BASE	0.00	125	1.08	132	-2.0	100	-2.0	85	0	985.2	NA	0.0000		9999	460	0	0	0
2020/09/21 19:15:00	BASE	0.00	122	M	M	-2.0	100	-2.0	84	0	985.2	NA	0.0000		9999	430	0	0	0
2020/09/21 19:16:00	BASE	0.00	117	M	M	-2.0	100	-2.0	83	0	985.2	NA	0.0000		9999	430	0	0	0
2020/09/21 19:17:00	BASE	0.00	110	M	M	-2.0	100	-2.0	83	0	985.2	NA	0.0000		9999	460	0	0	0
2020/09/21 19:18:00	BASE	0.00	102	M	M	-2.0	100	-2.0	84	0	985.1	NA	0.0000		9999	490	0	0	0
2020/09/21 19:19:00	BASE	0.00	93	M	M	-2.0	100	-2.0	82	0	985.2	NA	0.0000		9999	490	0	0	0
2020/09/21 19:20:00	BASE	0.00	89	M	M	-2.0	100	-2.0	79	0	985.2	NA	0.0000		9999	460	0	0	0
2020/09/21 19:21:00	BASE	0.00	89	M	M	-2.0	100	-2.0	79	0	985.2	NA	0.0000		9999	460	0	0	0
2020/09/21 19:22:00	BASE	0.00	79	M	M	-2.0	100	-2.0	80	0	985.2	NA	0.0000		9999	430	0	0	0
2020/09/21 19:23:00	BASE	0.00	66	M	M	-2.1	100	-2.1	83	0	985.3	NA	0.0000		9999	690	0	0	0
2020/09/21 19:24:00	BASE	0.00	55	M	M	-2.0	100	-2.0	87	0	985.3	NA	0.0000		9999	590	0	0	0
2020/09/21 19:25:00	BASE	0.00	37	M	M	-2.0	100	-2.0	91	0	985.3	NA	0.0000		9999	520	0	0	0
2020/09/21 19:26:00	BASE	0.00	33	M	M	-2.0	100	-2.0	94	0	985.3	NA	0.0000		9999	430	0	0	0
2020/09/21 19:27:00	BASE	0.22	34	1.08	33	-2.0	100	-2.0	98	0	985.3	NA	0.0000		9999	430	0	0	0
2020/09/21 19:28:00	BASE	0.58	26	1.13	21	-2.0	100	-2.0	101	0	985.3	NA	0.0000		9999	390	0	0	0
2020/09/21 19:29:00	BASE	0.91	24	1.18	25	-2.0	100	-2.0	103	0	985.3	NA	0.0000		9999	390	1210	0	0
2020/09/21 19:30:00	BASE	0.87	21	1.18	24	-2.0	100	-2.0	105	0	985.4	NA	0.0000		9000	360	0	0	0
2020/09/21 19:31:00	BASE	0.55	19	1.18	24	-2.0	100	-2.0	107	0	985.4	NA	0.0000		9999	330	1150	0	0
2020/09/21 19:32:00	BASE	0.49	12	1.18	24	-2.0	100	-2.0	109	0	985.4	NA	0.0000		9999	330	0	0	0
2020/09/21 19:33:00	BASE	0.62	6	1.18	24	-2.0	100	-2.0	110	0	985.4	NA	0.0000		9999	360	0	0	0
2020/09/21 19:34:00	BASE	0.66	4	1.18	24	-2.0	100	-2.0	110	0	985.4	NA	0.0000		9999	360	0	0	0
2020/09/21 19:35:00	BASE	0.58	2	1.18	1	-2.0	100	-2.0	111	0	985.4	NA	0.0000		8000	360	1080	0	0
2020/09/21 19:36:00	BASE	0.69	3	1.23	5	-2.1	100	-2.1	111	0	985.4	NA	0.0000		7000	360	0	0	0
2020/09/21 19:37:00	BASE	0.96	8	1.23	5	-2.1	100	-2.1	112	0	985.4	NA	0.0000	BR	8000	1080	0	0	0
2020/09/21 19:38:00	BASE	1.08	15	1.23	5	-2.1	100	-2.1	112	0	985.4	NA	0.0000	BR	8000	1080	0	0	0
2020/09/21 19:39:00	BASE	1.11	21	1.23	29	-2.1	100	-2.1	111	0	985.3	NA	0.0000	BR	9999	1150	0	0	0
2020/09/21 19:40:00	BASE	0.92	29	1.23	29	-2.1	100	-2.1	108	0	985.3	NA	0.0000	BR	9999	1180	0	0	0
2020/09/21 19:41:00	BASE	0.49	34	1.23	29	-2.1	100	-2.1	106	0	985.3	NA	0.0000	BR	9999	1350	0	0	0
2020/09/21 19:42:00	BASE	0.72	32	1.39	31	-2.1	100	-2.1	104	0	985.3	NA	0.0000	BR	9999	1280	3180	0	0
2020/09/21 19:43:00	BASE	1.16	30	1.39	31	-2.1	100	-2.1	103	0	985.3	NA	0.0000	BR	9999	1250	3150	0	0
2020/09/21 19:44:00	BASE	1.22	28	1.39	26	-2.1	100	-2.1	103	0	985.3	NA	0.0000		9999	1180	3250	0	0
2020/09/21 19:45:00	BASE	1.30	25	1.39	26	-2.1	100	-2.1	103	0	985.3	NA	0.0000		9999	1210	3220	0	0
2020/09/21 19:46:00	BASE	1.35	21	1.44	19	-2.1	100	-2.1	102	0	985.3	NA	0.0000		9999	1250	0	0	0
2020/09/21 19:47:00	BASE	1.39	16	1.54	10	-2.1	100	-2.1	102	0	985.3	NA	0.0000		9999	1250	0	0	0
2020/09/21 19:48:00	BASE	1.45	11	1.54	8	-2.1	100	-2.1	102	0	985.3	NA	0.0000		9999	1180	0	0	0
2020/09/21 19:49:00	BASE	1.52	10	1.59	10	-2.1	100	-2.1	102	0	985.3	NA	0.0000		9999	1080	0	0	0
2020/09/21 19:50:00	BASE	1.50	13	1.59	10	-2.1	100	-2.1	103	0	985.3	NA	0.0000		9999	1050	0	0	0
2020/09/21 19:51:00	BASE	1.47	17	1.59	18	-2.1	100	-2.1	103	0	985.3	NA	0.0000		9999	1050	0	0	0
2020/09/21 19:52:00	BASE	1.48	17	1.59	18	-2.1	100	-2.1	103	0	985.3	NA	0.0000		9999	1050	0	0	0
2020/09/21 19:53:00	BASE	1.48	18	1.59	18	-2.1	100	-2.1	102	0	985.2	NA	0.0000		9999	1050	0	0	0
2020/09/21 19:54:00	BASE	1.45	20	1.59	18	-2.1	100	-2.1	102	0	985.2	NA	0.0000		9999	1020	0	0	0
2020/09/21 19:55:00	BASE	1.38	22	1.59	18	-2.1	100	-2.1	101	0	985.2	NA	0.0000		9999	1050	0	0	0
2020/09/21 19:56:00	BASE	1.33	23	1.59	18	-2.1	100	-2.1	100	0	985.2	NA	0.0000		9999	1080	0	0	0
2020/09/21 19:57:00	BASE	1.24	23	1.59	18	-2.1	100	-2.1	99	0	985.2	NA	0.0000		9999	1150	0	0	0
2020/09/21 19:58:00	BASE	1.20	24	1.59	18	-2.1	100	-2.1	98	0	985.2	NA	0.0000		9999	1150	0	0	0
2020/09/21 19:59:00	BASE	1.15	24	1.59	18	-2.1	100	-2.1	96	0	985.2	NA	0.0000		9999	1150	0	0	0
2020/09/21 20:00:00	BASE	0.82	24	1.59	18	-2.1	100	-2.1	95	0	985.2	NA	0.0000		9999	1120	0	0	0
2020/09/21 20:01:00	BASE	0.27	20	1.54	20	-2.1	100	-2.1	93	0	985.2	NA	0.0000		9999	980	0	0	0
2020/09/21 20:02:00	BASE	0.00	13	1.54	20	-2.1	100	-2.1	91	0	985.2	NA	0.0000		9999	950	0	0	0
2020/09/21 20:03:00	BASE	0.00	6	1.44	23	-2.1	100	-2.1	89	0	985.2	NA	0.0000		9999	890	0	0	0
2020/09/21 20:04:00	BASE	0.00	357	1.44	23	-2.1	100	-2.1	87	0	985.2	NA	0.0000		9999	890	0	0	0
2020/09/21 20:05:00	BASE	0.09	344	1.39	23	-2.1	100	-2.1	86	0	985.2	NA	0.0000		9999	920	0	0	0
2020/09/21 20:06:00	BASE	0.61	333	1.29	321	-2.1	100	-2.1	84	0	985.2	NA	0.0000		9999	820	0	0	0
2020/09/21 20:07:00	BASE	1.13	323	1.29	319	-2.1	100	-2.1	82	0	985.2	NA	0.0000		9999	720	0	0	0
2020/09/21 20:08:00	BASE	1.19	317	1.29	319	-2.0	100	-2.0	81	0	985.2	NA	0.0000		9999	660	0	0	0
2020/09/21 20:09:00	BASE	1.19	314	1.29	314	-2.0	100	-2.0	80	0	985.2	NA	0.0000		9999	660	1250	0	0
2020/09/21 20:10:00	BASE	1.30	313	1.65	319	-2.0	100	-2.0	79	0	985.2	NA	0.0000		9999	590	0	0	0
2020/09/21 20:11:00	BASE	1.54	314	1.95	306	-2.0	100	-2.0	79	0	985.2	NA	0.0000		9999	560	0	0	0
2020/09/21 20:12:00	BASE	1.86	313	2.42	317	-2.0	100	-2.0	78	0	985.2	NA	0.0000		9999	490	1180	0	0
2020/09/21 20:13:00	BASE	2.09	315	2.47	319	-2.0	100	-2.0	78	0	985.3	NA	0.0000		9999	520	0	0	0
2020/09/21 20:14:00	BASE	2.31	316	2.52	315	-1.9	100	-1.9	78	0	985.3	NA	0.0000		9999	490	0	0	0
2020/09/21 20:15:00	BASE	2.43	317	2.57	319	-1.9	100	-1.9	77	0	985.3	NA	0.0000		9999	560	0	0	0
2020/09/21 20:16:00	BASE	2.49	318	2.62	318	-1.9	100	-1.9	77	0	985.3	NA	0.0000		9999	660	0	0	0
2020/09/21 20:17:00	BASE	2.56	319	2.68	319	-1.9	100	-1.9	77	0	985.3	NA	0.0000		9999	1020	0	0	0
2020/09/21 20:18:00	BASE	2.57	319	2.68	320	-1.9	100	-1.9	77	0	985.3	NA	0.0000		9999	690	0	0	0
2020/09/21 20:19:00	BASE	2.59	319	2.78	319	-1.9	100	-1.9	77	0	985.3	NA	0.0000		9999	1080	0	0	0
2020/09/21 20:20:00	BASE	2.64	318	2.78	319	-1.9	100	-1.9	78	0	985.3	NA	0.0000		9999	790	0	0	0
2020/09/21 20:21:00	BASE	2.64	318	2.83	318	-2.0	100	-2.0	79	0	985.3	NA	0.0000		9999	1080	0	0	0
2020/09/21 20:22:00	BASE	2.59	320	2.83	318	-2.0	100	-2.0	79	0	985.3	NA	0.0000		9999	1150	0	0	0
2020/09/21 20:23:00	BASE	2.56	320	2.83	318	-2.0	100	-2.0	80	0	985.3	NA	0.0000		9999	1180	0	0	0
2020/09/21 20:24:00	BASE	2.58	319	2.83	318	-2.0	100	-2.0	81	0	985.3	NA	0.0000		9999	1180	0	0	0
2020/09/21 20:25:00	BASE	2.58	320	2.83	318	-2.0	100	-2.0	81	0	985.3	NA	0.0000		9999	1250	0	0	0
2020/09/21 20:26:00	BASE	2.63	320	2.83	318	-2.0	100	-2.0	82	0	985.3	NA	0.0000		9999	1210	0	0	0
2020/09/21 20:27:00	BASE	2.60	319	2.83	318	-2.0	100	-2.0	82	0	985.3	NA	0.0000		9999	1210	0	0	0
2020/09/21 20:28:00	BASE	2.42	318	2.83	318	-2.0	100	-2.0	82	0	985.3	NA	0.0000		9999	1150	0	0	0
2020/09/21 20:29:00	BASE	2.31	316	2.83	318	-2.0	100	-2.0	82	0	985.2	NA	0.0000		9999	1120	0	0	0
2020/09/21 20:30:00	BASE	2.41	315	2.83	318	-2.0	100	-2.0	81	0	985.2	NA	0.0000		9999	1120	0	0	0
2020/09/21 20:31:00	BASE	2.41	313	2.78	320	-2.0	100	-2.0	81	0	985.2	NA	0.0000		9999	690	0	0	0
2020/09/21 20:32:00	BASE	2.30	312	2.78	320	-2.0	100	-2.0	80	0	985.2	NA	0.0000		9999	590	1150	0	0
2020/09/21 20:33:00	BASE	2.28	311	2.78	320	-2.0	100	-2.0	79	0	985.2	NA	0.0000		9999	590	1250	0	0
2020/09/21 20:34:00	BASE	2.30	313	2.78	320	-2.0	100	-2.0	77	0	985.2	NA	0.0000		9999	660	0	0	0
2020/09/21 20:35:00	BASE	2.33	315	2.78	320	-2.0	100	-2.0	77	0	985.2	NA	0.0000		9999	720	0	0	0
2020/09/21 20:36:00	BASE	2.34	315	2.68	321	-2.0	100	-2.0	76	0	985.2	NA	0.0000		9999	520	0	0	0
2020/09/21 20:37:00	BASE	2.33	315	2.57	316	-2.0	100	-2.0	76	0	985.2	NA	0.0000		9999	560	0	0	0
2020/09/21 20:38:00	BASE	2.23	316	2.57	316	-2.0	100	-2.0	77	0	985.2	NA	0.0000		9999	390	0	0	0
2020/09/21 20:39:00	BASE	2.11	316	2.57	316	-2.0	100	-2.0	78	0	985.2	NA	0.0000		9999	460	0	0	0
2020/09/21 20:40:00	BASE	2.19	315	2.52	314	-2.0	100	-2.0	78	0	985.2	NA	0.0000		9999	490	0	0	0
2020/09/21 20:41:00	BASE	2.26	315	2.52	314	-2.0	100	-2.0	79	0	985.2	NA	0.0000		9999	390	0	0	0
2020/09/21 20:42:00	BASE	2.20	314	2.52	314	-2.0	100	-2.0	79	0	985.2	NA	0.0000		9999	430	0	0	0
2020/09/21 20:43:00	BASE	2.20	313	2.52	314	-2.0	100	-2.0	80	0	985.2	NA	0.0000		9999	490	0	0	0
2020/09/21 20:44:00	BASE	2.20	312	2.52	314	-2.0	100	-2.0	81	0	985.2	NA	0.0000		9999	520	0	0	0
2020/09/21 20:45:00	BASE	2.15	309	2.52	314	-2.0	100	-2.0	80	0	985.2	NA	0.0000		9999	520	0	0	0
2020/09/21 20:46:00	BASE	2.20	308	2.52	314	-2.0	100	-2.0	79	0	985.2	NA	0.0000		9999	460	0	0	0
2020/09/21 20:47:00	BASE	2.18	307	2.42	303	-2.0	100	-2.0	77	0	985.2	NA	0.0000		9999	390	0	0	0
2020/09/21 20:48:00	BASE	1.91	294	2.42	303	-2.0	100	-2.0	74	0	985.3	NA	0.0000		9999	560	0	0	0
2020/09/21 20:49:00	BASE	1.71	283	2.42	303	-2.0	100	-2.0	72	0	985.2	NA	0.0000		9999	360	0	0	0
2020/09/21 20:50:00	BASE	1.89	283	2.52	278	-2.0	100	-2.0	70	0	985.2	NA	0.0000		9999	360	0	0	0
2020/09/21 20:51:00	BASE	2.15	282	2.52	278	-2.1	100	-2.1	68	0	985.2	NA	0.0000		9999	360	0	0	0
2020/09/21 20:52:00	BASE	2.22	284	2.52	278	-2.1	100	-2.1	66	0	985.3	NA	0.0000		9999	390	0	0	0
2020/09/21 20:53:00	BASE	2.24	285	2.52	278	-2.2	100	-2.2	64	0	985.3	NA	0.0000		9999	430	0	0	0
2020/09/21 20:54:00	BASE	2.21	286	2.52	278	-2.2	100	-2.2	62	0	985.3	NA	0.0000		9999	430	0	0	0
2020/09/21 20:55:00	BASE	2.06	287	2.52	278	-2.3	100	-2.3	61	0	985.3	NA	0.0000		9999	490	0	0	0
2020/09/21 20:56:00	BASE	1.94	285	2.52	278	-2.3	100	-2.3	59	0	985.3	NA	0.0000		9999	460	0	0	0
2020/09/21 20:57:00	BASE	1.86	289	2.52	278	-2.3	100	-2.3	58	0	985.3	NA	0.0000		9999	520	0	0	0
2020/09/21 20:58:00	BASE	1.83	285	2.52	278	-2.3	100	-2.3	56	0	985.2	NA	0.0000		9999	520	0	0	0
2020/09/21 20:59:00	BASE	1.87	277	2.52	278	-2.3	100	-2.3	54	0	985.2	NA	0.0000		9999	560	0	0	0
2020/09/21 21:00:00	BASE	1.77	280	2.47	287	-2.3	100	-2.3	52	0	985.2	NA	0.0000		9999	490	0	0	0
2020/09/21 21:01:00	BASE	1.76	287	2.47	287	-2.3	100	-2.3	51	0	985.2	NA	0.0000		9999	430	0	0	0
2020/09/21 21:02:00	BASE	1.82	290	2.47	287	-2.3	100	-2.3	50	0	985.2	NA	0.0000		9999	520	0	0	0
2020/09/21 21:03:00	BASE	1.75	296	2.47	287	-2.3	100	-2.3	49	0	985.2	NA	0.0000		9999	490	0	0	0
2020/09/21 21:04:00	BASE	1.73	302	2.42	279	-2.3	100	-2.3	47	0	985.0	NA	0.0000		9999	390	0	0	0
2020/09/21 21:05:00	BASE	1.64	301	2.42	279	-2.3	100	-2.3	45	0	985.1	NA	0.0000		9999	360	0	0	0
2020/09/21 21:06:00	BASE	1.54	297	2.42	279	-2.3	100	-2.3	43	0	985.2	NA	0.0000		9999	390	0	0	0
2020/09/21 21:07:00	BASE	1.57	297	2.42	279	-2.3	100	-2.3	41	0	985.2	NA	0.0000		9999	460	0	0	0
2020/09/21 21:08:00	BASE	1.65	294	2.11	284	-2.3	100	-2.3	39	0	985.1	NA	0.0000		9999	460	0	0	0
2020/09/21 21:09:00	BASE	1.76	298	2.06	307	-2.3	100	-2.3	37	0	985.1	NA	0.0000		9999	430	0	0	0
2020/09/21 21:10:00	BASE	1.88	310	2.11	305	-2.3	100	-2.3	36	0	985.1	NA	0.0000		9999	430	0	0	0
2020/09/21 21:11:00	BASE	1.90	313	2.11	305	-2.3	100	-2.3	34	0	985.1	NA	0.0000		9999	390	0	0	0
2020/09/21 21:12:00	BASE	1.88	310	2.11	309	-2.4	100	-2.4	33	0	985.1	NA	0.0000		9999	360	0	0	0
2020/09/21 21:13:00	BASE	1.74	306	2.11	309	-2.4	100	-2.4	31	0	985.1	NA	0.0000		9999	390	0	0	0
2020/09/21 21:14:00	BASE	1.71	307	2.11	319	-2.4	100	-2.4	30	0	985.1	NA	0.0000		9999	490	0	0	0
2020/09/21 21:15:00	BASE	1.90	313	2.21	318	-2.4	100	-2.4	29	0	985.1	NA	0.0000		9999	430	0	0	0
2020/09/21 21:16:00	BASE	1.90	311	2.21	318	-2.4	100	-2.4	28	0	985.1	NA	0.0000		9999	360	0	0	0
2020/09/21 21:17:00	BASE	1.66	306	2.21	318	-2.4	100	-2.4	27	0	985.1	NA	0.0000		9999	330	0	0	0
2020/09/21 21:18:00	BASE	1.73	304	2.21	298	-2.5	100	-2.5	26	0	985.1	NA	0.0000		9999	330	0	0	0
2020/09/21 21:19:00	BASE	1.94	300	2.21	298	-2.5	100	-2.5	26	0	985.1	NA	0.0000		7000	330	0	0	0
2020/09/21 21:20:00	BASE	1.89	298	2.21	298	-2.5	100	-2.5	26	0	985.2	NA	0.0000		8000	430	0	0	0
2020/09/21 21:21:00	BASE	1.99	299	2.31	301	-2.5	100	-2.5	25	0	985.2	NA	0.0000		9999	460	0	0	0
2020/09/21 21:22:00	BASE	2.08	301	2.31	301	-2.5	100	-2.5	25	0	985.2	NA	0.0000		9999	390	0	0	0
2020/09/21 21:23:00	BASE	2.03	299	2.31	301	-2.5	100	-2.5	25	0	985.2	NA	0.0000		9999	390	0	0	0
2020/09/21 21:24:00	BASE	2.02	298	2.31	301	-2.5	100	-2.5	25	0	985.2	NA	0.0000		9999	390	0	0	0
2020/09/21 21:25:00	BASE	2.03	299	2.31	301	-2.5	100	-2.5	25	0	985.2	NA	0.0000		9999	430	0	0	0
2020/09/21 21:26:00	BASE	1.98	299	2.31	301	-2.5	100	-2.5	25	0	985.2	NA	0.0000		9999	330	0	0	0
2020/09/21 21:27:00	BASE	1.76	300	2.31	301	-2.5	100	-2.5	25	0	985.2	NA	0.0000		9999	300	0	0	0
2020/09/21 21:28:00	BASE	1.65	302	2.31	301	-2.5	100	-2.5	24	0	985.2	NA	0.0000		9999	360	0	0	0
2020/09/21 21:29:00	BASE	1.72	300	2.31	301	-2.5	100	-2.5	24	0	985.2	NA	0.0000		9999	360	0	0	0
2020/09/21 21:30:00	BASE	1.54	297	2.31	301	-2.5	100	-2.5	24	0	985.2	NA	0.0000		5000	390	0	0	0
2020/09/21 21:31:00	BASE	1.35	296	2.21	300	-2.5	100	-2.5	23	0	985.2	NA	0.0000	UP	7000	390	0	0	0
2020/09/21 21:32:00	BASE	1.20	298	2.21	300	-2.5	100	-2.5	22	0	985.2	NA	0.0000	UP	9000	360	0	0	0
2020/09/21 21:33:00	BASE	0.85	298	2.21	300	-2.5	100	-2.5	22	0	985.2	NA	0.0000	UP	9999	460	0	0	0
2020/09/21 21:34:00	BASE	0.32	297	2.21	300	-2.5	100	-2.5	22	0	985.2	NA	0.0000	UP BR	9999	490	0	0	0
2020/09/21 21:35:00	BASE	0.09	307	2.16	296	-2.5	100	-2.5	21	0	985.2	NA	0.0000	UP BR	9999	430	0	0	0
2020/09/21 21:36:00	BASE	0.40	319	1.85	302	-2.5	100	-2.5	20	0	985.2	NA	0.0000	UP BR	9999	430	0	0	0
2020/09/21 21:37:00	BASE	0.93	325	1.85	302	-2.5	100	-2.5	20	0	985.2	NA	0.0000	UP	9999	520	0	0	0
2020/09/21 21:38:00	BASE	1.31	326	1.85	302	-2.5	100	-2.5	19	0	985.2	NA	0.0000	UP	9999	520	0	0	0
2020/09/21 21:39:00	BASE	1.48	322	1.75	320	-2.5	100	-2.5	18	0	985.2	NA	0.0000	UP	9999	460	0	0	0
2020/09/21 21:40:00	BASE	1.60	324	1.85	330	-2.5	100	-2.5	18	0	985.1	NA	0.0000	UP	9999	560	0	0	0
2020/09/21 21:41:00	BASE	1.64	344	1.85	4	-2.5	100	-2.5	17	0	985.1	NA	0.0000		9999	390	0	0	0
2020/09/21 21:42:00	BASE	1.24	355	1.85	4	-2.5	100	-2.5	17	0	985.1	NA	0.0000		9999	520	0	0	0
2020/09/21 21:43:00	BASE	0.69	353	1.85	4	-2.5	100	-2.5	17	0	985.2	NA	0.0000		9999	620	0	0	0
2020/09/21 21:44:00	BASE	0.50	350	1.85	4	-2.5	100	-2.5	16	0	985.2	NA	0.0000		9999	690	0	0	0
2020/09/21 21:45:00	BASE	0.54	343	1.85	4	-2.6	100	-2.6	16	0	985.2	NA	0.0000		9999	360	0	0	0
2020/09/21 21:46:00	BASE	0.94	325	1.85	4	-2.6	100	-2.6	15	0	985.2	NA	0.0000		9999	390	0	0	0
2020/09/21 21:47:00	BASE	1.19	310	1.85	4	-2.6	100	-2.6	15	0	985.2	NA	0.0000		9999	430	0	0	0
2020/09/21 21:48:00	BASE	1.34	316	1.85	4	-2.6	100	-2.6	14	0	985.2	NA	0.0000		9999	620	0	0	0
2020/09/21 21:49:00	BASE	1.69	328	2.47	334	-2.6	100	-2.6	14	0	985.2	NA	0.0000		9999	690	0	0	0
2020/09/21 21:50:00	BASE	2.17	335	2.88	334	-2.6	100	-2.6	13	0	985.2	NA	0.0000		9999	660	0	0	0
2020/09/21 21:51:00	BASE	2.37	336	2.88	334	-2.6	100	-2.6	12	0	985.2	NA	0.0000		9999	720	0	0	0
2020/09/21 21:52:00	BASE	2.06	341	2.88	334	-2.6	100	-2.6	12	0	985.2	NA	0.0000		9999	720	0	0	0
2020/09/21 21:53:00	BASE	1.65	345	2.88	334	-2.6	100	-2.6	11	0	985.1	NA	0.0000		9999	750	0	0	0
2020/09/21 21:54:00	BASE	1.19	340	2.88	334	-2.6	100	-2.6	11	0	985.0	NA	0.0000		9999	790	0	0	0
2020/09/21 21:55:00	BASE	0.73	336	2.88	334	-2.6	100	-2.6	10	0	985.2	NA	0.0000		9999	950	0	0	0
2020/09/21 21:56:00	BASE	0.42	335	2.88	334	-2.6	100	-2.6	9	0	985.2	NA	0.0000		9999	980	0	0	0
2020/09/21 21:57:00	BASE	0.36	326	2.88	334	-2.6	100	-2.6	9	0	985.2	NA	0.0000		9999	980	0	0	0
2020/09/21 21:58:00	BASE	0.17	319	2.88	334	-2.6	100	-2.6	8	0	985.2	NA	0.0000		9999	950	0	0	0
2020/09/21 21:59:00	BASE	0.00	327	2.88	334	-2.6	100	-2.6	8	0	985.2	NA	0.0000		9999	980	0	0	0
2020/09/21 22:00:00	BASE	0.32	344	2.57	336	-2.6	100	-2.6	7	0	985.2	NA	0.0000		9999	920	0	0	0
2020/09/21 22:01:00	BASE	0.79	352	2.06	345	-2.6	100	-2.6	7	0	985.2	NA	0.0000		9999	920	0	0	0
2020/09/21 22:02:00	BASE	0.91	337	1.65	344	-2.6	100	-2.6	6	0	985.2	NA	0.0000		9999	950	0	0	0
2020/09/21 22:03:00	BASE	1.08	322	1.54	321	-2.7	100	-2.7	6	0	985.3	NA	0.0000		9999	980	0	0	0
2020/09/21 22:04:00	BASE	0.99	318	1.39	321	-2.7	100	-2.7	6	0	985.2	NA	0.0000		9999	1080	0	0	0
2020/09/21 22:05:00	BASE	0.35	313	1.39	321	-2.7	100	-2.7	5	0	985.3	NA	0.0000		9999	1080	0	0	0
2020/09/21 22:06:00	BASE	0.00	296	1.39	321	-2.7	100	-2.7	5	0	985.3	NA	0.0000		9999	1080	0	0	0
2020/09/21 22:07:00	BASE	0.00	273	1.39	321	-2.8	100	-2.8	5	0	985.3	NA	0.0000		9999	1120	0	0	0
2020/09/21 22:08:00	BASE	0.00	264	1.39	321	-2.8	100	-2.8	5	0	985.3	NA	0.0000		9999	1080	0	0	0
2020/09/21 22:09:00	BASE	0.19	262	1.39	321	-2.8	100	-2.8	4	0	985.3	NA	0.0000		9999	1080	0	0	0
2020/09/21 22:10:00	BASE	0.69	261	1.39	321	-2.8	100	-2.8	4	0	985.3	NA	0.0000		9999	1120	0	0	0
2020/09/21 22:11:00	BASE	1.11	262	1.39	321	-2.8	100	-2.8	4	0	985.3	NA	0.0000		9999	1080	0	0	0
2020/09/21 22:12:00	BASE	0.75	262	1.34	262	-2.8	100	-2.8	4	0	985.3	NA	0.0000		9999	1120	0	0	0
2020/09/21 22:13:00	BASE	0.31	261	1.34	262	-2.8	100	-2.8	4	0	985.3	NA	0.0000		9999	1080	0	0	0
2020/09/21 22:14:00	BASE	0.31	263	1.34	262	-2.9	100	-2.9	3	0	985.3	NA	0.0000		9999	1080	0	0	0
2020/09/21 22:15:00	BASE	0.40	262	1.34	262	-2.9	100	-2.9	3	0	985.3	NA	0.0000		9999	1080	0	0	0
2020/09/21 22:16:00	BASE	0.31	261	1.34	262	-2.9	100	-2.9	3	0	985.3	NA	0.0000		9999	1150	0	0	0
2020/09/21 22:17:00	BASE	0.38	264	1.34	262	-2.9	100	-2.9	3	0	985.3	NA	0.0000		9999	1080	0	0	0
2020/09/21 22:18:00	BASE	0.84	266	1.39	267	-2.9	100	-2.9	2	0	985.3	NA	0.0000		9999	1080	0	0	0
2020/09/21 22:19:00	BASE	1.11	263	1.39	267	-2.9	100	-2.9	2	0	985.3	NA	0.0000		9999	1080	0	0	0
2020/09/21 22:20:00	BASE	1.19	263	1.39	267	-2.9	100	-2.9	2	0	985.3	NA	0.0000		9999	1020	0	0	0
2020/09/21 22:21:00	BASE	0.95	267	1.39	267	-2.9	100	-2.9	2	0	985.3	NA	0.0000		9999	950	0	0	0
2020/09/21 22:22:00	BASE	0.73	270	1.39	267	-2.9	100	-2.9	2	0	985.3	NA	0.0000		9999	1050	0	0	0
2020/09/21 22:23:00	BASE	0.53	268	1.39	267	-2.9	100	-2.9	2	0	985.3	NA	0.0000		9999	1050	0	0	0
2020/09/21 22:24:00	BASE	0.17	266	1.39	267	-2.9	100	-2.9	2	0	985.3	NA	0.0000		9999	1120	0	0	0
2020/09/21 22:25:00	BASE	0.00	267	1.39	267	-2.9	100	-2.9	2	0	985.3	NA	0.0000		9999	1080	0	0	0
2020/09/21 22:26:00	BASE	0.00	266	1.39	267	-2.9	100	-2.9	2	0	985.3	NA	0.0000		9999	1020	0	0	0
2020/09/21 22:27:00	BASE	0.00	265	1.39	267	-2.9	100	-2.9	2	0	985.3	NA	0.0000		9999	1050	0	0	0
2020/09/21 22:28:00	BASE	0.00	264	1.29	264	-2.9	100	-2.9	2	0	985.3	NA	0.0000		9999	1050	0	0	0
2020/09/21 22:29:00	BASE	0.00	263	1.29	264	-2.8	100	-2.8	2	0	985.3	NA	0.0000		9999	980	0	0	0
2020/09/21 22:30:00	BASE	0.00	265	1.23	273	-2.8	100	-2.8	2	0	985.3	NA	0.0000		9999	1050	0	0	0
2020/09/21 22:31:00	BASE	0.00	267	1.08	263	-2.8	100	-2.8	2	0	985.3	NA	0.0000		9999	1050	0	0	0
2020/09/21 22:32:00	BASE	0.00	268	1.08	263	-2.8	100	-2.8	2	0	985.2	NA	0.0000		9999	920	0	0	0
2020/09/21 22:33:00	BASE	0.00	268	M	M	-2.8	100	-2.8	1	0	985.2	NA	0.0000		9999	920	0	0	0
2020/09/21 22:34:00	BASE	0.00	268	M	M	-2.8	100	-2.8	1	0	985.2	NA	0.0000		9999	980	0	0	0
2020/09/21 22:35:00	BASE	0.00	268	M	M	-2.8	100	-2.8	1	0	985.2	NA	0.0000		9999	1050	0	0	0
2020/09/21 22:36:00	BASE	0.00	268	M	M	-2.8	100	-2.8	1	0	985.2	NA	0.0000		9999	1050	0	0	0
2020/09/21 22:37:00	BASE	0.00	268	M	M	-2.8	100	-2.8	1	0	985.2	NA	0.0000		9999	1080	0	0	0
2020/09/21 22:38:00	BASE	0.00	268	M	M	-2.8	100	-2.8	1	0	985.2	NA	0.0000		9999	1020	0	0	0
2020/09/21 22:39:00	BASE	0.00	271	M	M	-2.8	100	-2.8	1	0	985.2	NA	0.0000		9999	1020	0	0	0
2020/09/21 22:40:00	BASE	0.00	280	M	M	-2.8	100	-2.8	1	0	985.2	NA	0.0000		9999	1150	0	0	0
2020/09/21 22:41:00	BASE	0.00	296	M	M	-2.8	100	-2.8	0	0	985.2	NA	0.0000		9999	1150	0	0	0
2020/09/21 22:42:00	BASE	0.00	329	M	M	-2.8	100	-2.8	0	0	985.2	NA	0.0000		9999	1150	0	0	0
2020/09/21 22:43:00	BASE	0.00	24	M	M	-2.8	100	-2.8	0	0	985.2	NA	0.0000		9999	1150	0	0	0
2020/09/21 22:44:00	BASE	0.00	51	M	M	-2.8	100	-2.8	0	0	985.2	NA	0.0000		9999	1150	0	0	0
2020/09/21 22:45:00	BASE	0.00	53	M	M	-2.8	100	-2.8	0	0	985.2	NA	0.0000		9999	0	0	0	0
2020/09/21 22:46:00	BASE	0.23	55	1.13	62	-2.9	100	-2.9	0	0	985.2	NA	0.0000		9999	1120	0	0	0
2020/09/21 22:47:00	BASE	0.63	61	1.13	66	-2.9	100	-2.9	0	0	985.1	NA	0.0000		9999	0	0	0	0
2020/09/21 22:48:00	BASE	0.63	62	1.13	60	-2.9	100	-2.9	0	0	985.2	NA	0.0000		9999	0	0	0	0
2020/09/21 22:49:00	BASE	0.64	63	1.18	75	-2.9	100	-2.9	0	0	985.2	NA	0.0000		9999	0	0	0	0
2020/09/21 22:50:00	BASE	0.60	65	1.23	61	-2.9	100	-2.9	0	0	985.2	NA	0.0000		9999	0	0	0	0
2020/09/21 22:51:00	BASE	0.78	54	1.39	60	-2.9	100	-2.9	0	0	985.2	NA	0.0000		9999	0	0	0	0
2020/09/21 22:52:00	BASE	1.28	44	1.39	43	-3.0	100	-3.0	0	0	985.2	NA	0.0000		9999	0	0	0	0
2020/09/21 22:53:00	BASE	1.10	43	1.39	43	-3.0	100	-3.0	0	0	985.2	NA	0.0000		9999	1180	0	0	0
2020/09/21 22:54:00	BASE	1.12	31	1.49	19	-3.0	100	-3.0	0	0	985.2	NA	0.0000		9999	0	0	0	0
2020/09/21 22:55:00	BASE	1.49	19	1.80	16	-3.0	100	-3.0	0	0	985.2	NA	0.0000		9999	0	0	0	0
2020/09/21 22:56:00	BASE	1.67	18	1.95	17	-3.0	100	-3.0	0	0	985.2	NA	0.0000		9999	1250	0	0	0
2020/09/21 22:57:00	BASE	1.87	22	2.16	29	-3.0	100	-3.0	0	0	985.2	NA	0.0000		9999	1250	0	0	0
2020/09/21 22:58:00	BASE	2.02	28	2.21	28	-3.0	100	-3.0	0	0	985.3	NA	0.0000		9999	1250	0	0	0
2020/09/21 22:59:00	BASE	2.06	28	2.26	30	-3.1	100	-3.1	0	0	985.3	NA	0.0000		9999	1210	0	0	0
2020/09/21 23:00:00	BASE	2.06	28	2.31	23	-3.1	100	-3.1	0	0	985.3	NA	0.0000		9999	1210	0	0	0
2020/09/21 23:01:00	BASE	2.12	26	2.57	20	-3.1	100	-3.1	0	0	985.3	NA	0.0000		9999	1180	0	0	0
2020/09/21 23:02:00	BASE	2.35	24	2.62	22	-3.1	100	-3.1	0	0	985.3	NA	0.0000		9999	1180	0	0	0
2020/09/21 23:03:00	BASE	2.48	24	2.62	25	-3.1	100	-3.1	0	0	985.3	NA	0.0000		9999	1150	0	0	0
2020/09/21 23:04:00	BASE	2.39	26	2.62	25	-3.1	100	-3.1	0	0	985.3	NA	0.0000		9999	1180	0	0	0
2020/09/21 23:05:00	BASE	2.17	27	2.62	25	-3.1	100	-3.1	0	0	985.3	NA	0.0000		9999	1180	0	0	0
2020/09/21 23:06:00	BASE	2.07	29	2.62	25	-3.1	100	-3.1	0	0	985.3	NA	0.0000		9999	1210	0	0	0
2020/09/21 23:07:00	BASE	2.03	33	2.62	25	-3.1	100	-3.1	0	0	985.3	NA	0.0000		9999	1250	0	0	0
2020/09/21 23:08:00	BASE	2.18	39	2.88	41	-3.1	100	-3.1	0	0	985.3	NA	0.0000		9999	1180	0	0	0
2020/09/21 23:09:00	BASE	2.65	40	3.09	37	-3.2	100	-3.2	0	0	985.3	NA	0.0000		9999	1180	0	0	0
2020/09/21 23:10:00	BASE	2.87	38	3.09	37	-3.3	100	-3.3	0	0	985.3	NA	0.0000		9999	1150	0	0	0
2020/09/21 23:11:00	BASE	2.74	35	3.09	37	-3.3	100	-3.3	0	0	985.4	NA	0.0000		9999	1150	0	0	0
2020/09/21 23:12:00	BASE	2.73	33	3.09	37	-3.4	100	-3.4	0	0	985.4	NA	0.0000		9999	1180	0	0	0
2020/09/21 23:13:00	BASE	2.74	30	3.19	38	-3.4	100	-3.4	0	0	985.4	NA	0.0000		9999	1120	0	0	0
2020/09/21 23:14:00	BASE	2.64	31	3.19	38	-3.4	100	-3.4	0	0	985.4	NA	0.0000		9999	1080	0	0	0
2020/09/21 23:15:00	BASE	2.63	34	3.19	38	-3.4	100	-3.4	0	0	985.4	NA	0.0000		9999	1020	0	0	0
2020/09/21 23:16:00	BASE	2.51	35	3.19	38	-3.4	100	-3.4	0	0	985.4	NA	0.0000		9999	1020	0	0	0
2020/09/21 23:17:00	BASE	2.19	36	3.19	38	-3.4	100	-3.4	0	0	985.4	NA	0.0000		9999	1080	0	0	0
2020/09/21 23:18:00	BASE	1.98	34	3.19	38	-3.4	100	-3.4	0	0	985.4	NA	0.0000		9999	1020	0	0	0
2020/09/21 23:19:00	BASE	1.89	32	3.19	38	-3.4	100	-3.4	0	0	985.4	NA	0.0000		9999	1080	0	0	0
2020/09/21 23:20:00	BASE	1.89	34	3.19	38	-3.5	100	-3.5	0	0	985.4	NA	0.0000		9999	1080	0	0	0
2020/09/21 23:21:00	BASE	1.99	36	3.19	38	-3.5	100	-3.5	0	0	985.4	NA	0.0000		9999	1050	0	0	0
2020/09/21 23:22:00	BASE	2.06	32	3.19	38	-3.5	100	-3.5	0	0	985.4	NA	0.0000		9999	1020	0	0	0
2020/09/21 23:23:00	BASE	2.09	28	3.04	27	-3.5	100	-3.5	0	0	985.4	NA	0.0000		9999	980	0	0	0
2020/09/21 23:24:00	BASE	2.10	28	3.04	27	-3.5	100	-3.5	0	0	985.4	NA	0.0000		9999	980	0	0	0
2020/09/21 23:25:00	BASE	2.02	27	2.57	35	-3.5	100	-3.5	0	0	985.4	NA	0.0000		9999	1050	0	0	0
2020/09/21 23:26:00	BASE	2.09	28	2.42	32	-3.4	100	-3.4	0	0	985.4	NA	0.0000		9999	980	0	0	0
2020/09/21 23:27:00	BASE	2.16	29	2.42	32	-3.4	100	-3.4	0	0	985.4	NA	0.0000		9999	980	0	0	0
2020/09/21 23:28:00	BASE	2.13	24	2.42	32	-3.4	100	-3.4	0	0	985.4	NA	0.0000		9999	980	0	0	0
2020/09/21 23:29:00	BASE	2.00	23	2.42	32	-3.4	100	-3.4	0	0	985.4	NA	0.0000		9999	890	0	0	0
2020/09/21 23:30:00	BASE	1.82	23	2.42	32	-3.4	100	-3.4	0	0	985.4	NA	0.0000		9999	920	0	0	0
2020/09/21 23:31:00	BASE	1.67	22	2.42	32	-3.4	100	-3.4	0	0	985.4	NA	0.0000		9999	920	0	0	0
2020/09/21 23:32:00	BASE	1.45	19	2.42	32	-3.4	100	-3.4	0	0	985.4	NA	0.0000		9999	890	0	0	0
2020/09/21 23:33:00	BASE	1.29	17	2.42	32	-3.4	100	-3.4	0	0	985.4	NA	0.0000		9999	890	0	0	0
2020/09/21 23:34:00	BASE	1.20	18	2.42	32	-3.3	100	-3.3	0	0	985.4	NA	0.0000		9999	920	0	0	0
2020/09/21 23:35:00	BASE	1.09	24	2.42	32	-3.3	100	-3.3	0	0	985.4	NA	0.0000		9999	920	0	0	0
2020/09/21 23:36:00	BASE	0.99	29	2.37	20	-3.3	100	-3.3	0	0	985.4	NA	0.0000		9999	890	0	0	0
2020/09/21 23:37:00	BASE	0.78	31	2.37	20	-3.3	100	-3.3	0	0	985.4	NA	0.0000		9999	890	0	0	0
2020/09/21 23:38:00	BASE	0.55	35	1.95	21	-3.3	100	-3.3	0	0	985.4	NA	0.0000		9999	890	0	0	0
2020/09/21 23:39:00	BASE	0.31	38	1.95	21	-3.3	100	-3.3	0	0	985.4	NA	0.0000		9999	890	0	0	0
2020/09/21 23:40:00	BASE	0.49	46	1.75	24	-3.3	100	-3.3	0	0	985.4	NA	0.0000		9999	850	0	0	0
2020/09/21 23:41:00	BASE	1.01	54	1.39	10	-3.3	100	-3.3	0	0	985.4	NA	0.0000		9999	850	0	0	0
2020/09/21 23:42:00	BASE	1.19	62	1.49	70	-3.3	100	-3.3	0	0	985.4	NA	0.0000		9999	890	0	0	0
2020/09/21 23:43:00	BASE	1.35	70	1.54	79	-3.2	100	-3.2	0	0	985.5	NA	0.0000		9999	890	0	0	0
2020/09/21 23:44:00	BASE	1.59	78	2.06	90	-3.2	100	-3.2	0	0	985.5	NA	0.0000		9999	890	0	0	0
2020/09/21 23:45:00	BASE	1.89	88	2.21	98	-3.2	100	-3.2	0	0	985.6	NA	0.0000		9999	820	0	0	0
2020/09/21 23:46:00	BASE	1.85	94	2.21	98	-3.1	100	-3.1	0	0	985.6	NA	0.0000		9999	850	0	0	0
2020/09/21 23:47:00	BASE	1.65	90	2.21	98	-3.1	100	-3.1	0	0	985.6	NA	0.0000		9999	750	0	0	0
2020/09/21 23:48:00	BASE	1.52	85	2.21	98	-3.0	100	-3.0	0	0	985.6	NA	0.0000		9999	750	0	0	0
2020/09/21 23:49:00	BASE	1.29	82	2.21	98	-3.0	100	-3.0	0	0	985.6	NA	0.0000		9999	790	0	0	0
2020/09/21 23:50:00	BASE	0.67	77	2.21	98	-3.0	100	-3.0	0	0	985.6	NA	0.0000		9999	790	0	0	0
2020/09/21 23:51:00	BASE	0.55	81	2.21	98	-3.1	100	-3.1	0	0	985.6	NA	0.0000		9999	720	0	0	0
2020/09/21 23:52:00	BASE	1.17	86	2.21	98	-3.1	100	-3.1	0	0	985.6	NA	0.0000		9999	660	0	0	0
2020/09/21 23:53:00	BASE	1.57	86	2.21	98	-3.1	100	-3.1	0	0	985.6	NA	0.0000		9999	690	0	0	0
2020/09/21 23:54:00	BASE	1.81	95	2.31	91	-3.1	100	-3.1	0	0	985.6	NA	0.0000		9999	660	0	0	0
2020/09/21 23:55:00	BASE	2.16	98	2.57	87	-3.2	100	-3.2	0	0	985.6	NA	0.0000		9999	690	0	0	0
2020/09/21 23:56:00	BASE	2.30	93	2.57	87	-3.3	100	-3.3	0	0	985.6	NA	0.0000		9999	890	0	0	0
2020/09/21 23:57:00	BASE	2.06	95	2.57	87	-3.4	100	-3.4	0	0	985.6	NA	0.0000		9999	890	0	0	0
2020/09/21 23:58:00	BASE	1.83	99	2.57	87	-3.5	100	-3.5	0	0	985.6	NA	0.0000		9999	0	0	0	850
2020/09/21 23:59:00	BASE	1.82	102	2.57	87	-3.5	100	-3.5	0	0	985.6	NA	0.0000		9999	13030	0	0	0